<?xml version="1.0" encoding="UTF-8" standalone="no" ?>
<gpx xmlns="http://www.topografix.com/GPX/1/1" xmlns:xsi="http://www.w3.org/2001/XMLSchema-instance" xsi:schemaLocation="http://www.topografix.com/GPX/1/1 http://www.topografix.com/GPX/1/1/gpx.xsd" version="1.1" creator="VisuGPX - https://www.visugpx.com">
  <metadata>
    <name>Le Devenson de Martine</name>
    <desc><![CDATA[Un grand classique de Martine avec démarrage et arrivée au parking de la Gardiole. ]]></desc>
  </metadata>
  <trk>
    <name><![CDATA[Le Devenson de Martine_1]]></name>
    <trkseg>
      <trkpt lat="43.22753" lon="5.50359">
        <ele>258</ele>
        <time>2014-09-28T07:06:02Z</time>
      </trkpt>
      <trkpt lat="43.22726" lon="5.50369">
        <ele>257</ele>
        <time>2014-09-28T07:07:24Z</time>
      </trkpt>
      <trkpt lat="43.22723" lon="5.50371">
        <ele>257</ele>
        <time>2014-09-28T07:07:33Z</time>
      </trkpt>
      <trkpt lat="43.22718" lon="5.5038">
        <ele>256</ele>
        <time>2014-09-28T07:07:42Z</time>
      </trkpt>
      <trkpt lat="43.22711" lon="5.5039">
        <ele>255</ele>
        <time>2014-09-28T07:07:52Z</time>
      </trkpt>
      <trkpt lat="43.22703" lon="5.50385">
        <ele>255</ele>
        <time>2014-09-28T07:08:02Z</time>
      </trkpt>
      <trkpt lat="43.22699" lon="5.50381">
        <ele>255</ele>
        <time>2014-09-28T07:08:11Z</time>
      </trkpt>
      <trkpt lat="43.22694" lon="5.50371">
        <ele>253</ele>
        <time>2014-09-28T07:08:20Z</time>
      </trkpt>
      <trkpt lat="43.22689" lon="5.50359">
        <ele>253</ele>
        <time>2014-09-28T07:08:30Z</time>
      </trkpt>
      <trkpt lat="43.22685" lon="5.50353">
        <ele>253</ele>
        <time>2014-09-28T07:08:40Z</time>
      </trkpt>
      <trkpt lat="43.22677" lon="5.50341">
        <ele>253</ele>
        <time>2014-09-28T07:08:50Z</time>
      </trkpt>
      <trkpt lat="43.2267" lon="5.50328">
        <ele>253</ele>
        <time>2014-09-28T07:09:00Z</time>
      </trkpt>
      <trkpt lat="43.22664" lon="5.50317">
        <ele>253</ele>
        <time>2014-09-28T07:09:09Z</time>
      </trkpt>
      <trkpt lat="43.22657" lon="5.50306">
        <ele>252</ele>
        <time>2014-09-28T07:09:19Z</time>
      </trkpt>
      <trkpt lat="43.22649" lon="5.50295">
        <ele>252</ele>
        <time>2014-09-28T07:09:29Z</time>
      </trkpt>
      <trkpt lat="43.22641" lon="5.50286">
        <ele>250</ele>
        <time>2014-09-28T07:09:39Z</time>
      </trkpt>
      <trkpt lat="43.22635" lon="5.50281">
        <ele>248</ele>
        <time>2014-09-28T07:09:49Z</time>
      </trkpt>
      <trkpt lat="43.22624" lon="5.50276">
        <ele>248</ele>
        <time>2014-09-28T07:09:59Z</time>
      </trkpt>
      <trkpt lat="43.2262" lon="5.50276">
        <ele>247</ele>
        <time>2014-09-28T07:10:09Z</time>
      </trkpt>
      <trkpt lat="43.2262" lon="5.50278">
        <ele>247</ele>
        <time>2014-09-28T07:10:19Z</time>
      </trkpt>
      <trkpt lat="43.22618" lon="5.50278">
        <ele>247</ele>
        <time>2014-09-28T07:10:44Z</time>
      </trkpt>
      <trkpt lat="43.22615" lon="5.50279">
        <ele>247</ele>
        <time>2014-09-28T07:10:57Z</time>
      </trkpt>
      <trkpt lat="43.22604" lon="5.50277">
        <ele>247</ele>
        <time>2014-09-28T07:11:06Z</time>
      </trkpt>
      <trkpt lat="43.22594" lon="5.50277">
        <ele>247</ele>
        <time>2014-09-28T07:11:15Z</time>
      </trkpt>
      <trkpt lat="43.22584" lon="5.50276">
        <ele>246</ele>
        <time>2014-09-28T07:11:24Z</time>
      </trkpt>
      <trkpt lat="43.22575" lon="5.50275">
        <ele>243</ele>
        <time>2014-09-28T07:11:33Z</time>
      </trkpt>
      <trkpt lat="43.2257" lon="5.50276">
        <ele>243</ele>
        <time>2014-09-28T07:11:52Z</time>
      </trkpt>
      <trkpt lat="43.22559" lon="5.50274">
        <ele>241</ele>
        <time>2014-09-28T07:12:01Z</time>
      </trkpt>
      <trkpt lat="43.22549" lon="5.50273">
        <ele>239</ele>
        <time>2014-09-28T07:12:10Z</time>
      </trkpt>
      <trkpt lat="43.22537" lon="5.50274">
        <ele>237</ele>
        <time>2014-09-28T07:12:19Z</time>
      </trkpt>
      <trkpt lat="43.22526" lon="5.50274">
        <ele>237</ele>
        <time>2014-09-28T07:12:28Z</time>
      </trkpt>
      <trkpt lat="43.22514" lon="5.50276">
        <ele>237</ele>
        <time>2014-09-28T07:12:37Z</time>
      </trkpt>
      <trkpt lat="43.22503" lon="5.50276">
        <ele>237</ele>
        <time>2014-09-28T07:12:46Z</time>
      </trkpt>
      <trkpt lat="43.22491" lon="5.50276">
        <ele>237</ele>
        <time>2014-09-28T07:12:55Z</time>
      </trkpt>
      <trkpt lat="43.22478" lon="5.50275">
        <ele>236</ele>
        <time>2014-09-28T07:13:04Z</time>
      </trkpt>
      <trkpt lat="43.22467" lon="5.50276">
        <ele>236</ele>
        <time>2014-09-28T07:13:13Z</time>
      </trkpt>
      <trkpt lat="43.22457" lon="5.50276">
        <ele>232</ele>
        <time>2014-09-28T07:13:22Z</time>
      </trkpt>
      <trkpt lat="43.22445" lon="5.50277">
        <ele>232</ele>
        <time>2014-09-28T07:13:31Z</time>
      </trkpt>
      <trkpt lat="43.22433" lon="5.50279">
        <ele>232</ele>
        <time>2014-09-28T07:13:40Z</time>
      </trkpt>
      <trkpt lat="43.22424" lon="5.50275">
        <ele>230</ele>
        <time>2014-09-28T07:13:49Z</time>
      </trkpt>
      <trkpt lat="43.22415" lon="5.50269">
        <ele>230</ele>
        <time>2014-09-28T07:13:58Z</time>
      </trkpt>
      <trkpt lat="43.22409" lon="5.50255">
        <ele>228</ele>
        <time>2014-09-28T07:14:07Z</time>
      </trkpt>
      <trkpt lat="43.22406" lon="5.50239">
        <ele>228</ele>
        <time>2014-09-28T07:14:16Z</time>
      </trkpt>
      <trkpt lat="43.22406" lon="5.50221">
        <ele>228</ele>
        <time>2014-09-28T07:14:25Z</time>
      </trkpt>
      <trkpt lat="43.22409" lon="5.50204">
        <ele>227</ele>
        <time>2014-09-28T07:14:34Z</time>
      </trkpt>
      <trkpt lat="43.22411" lon="5.50187">
        <ele>225</ele>
        <time>2014-09-28T07:14:43Z</time>
      </trkpt>
      <trkpt lat="43.22408" lon="5.50173">
        <ele>220</ele>
        <time>2014-09-28T07:14:53Z</time>
      </trkpt>
      <trkpt lat="43.22397" lon="5.50168">
        <ele>217</ele>
        <time>2014-09-28T07:15:02Z</time>
      </trkpt>
      <trkpt lat="43.22384" lon="5.50166">
        <ele>217</ele>
        <time>2014-09-28T07:15:11Z</time>
      </trkpt>
      <trkpt lat="43.22374" lon="5.5016">
        <ele>216</ele>
        <time>2014-09-28T07:15:20Z</time>
      </trkpt>
      <trkpt lat="43.22362" lon="5.5016">
        <ele>216</ele>
        <time>2014-09-28T07:15:30Z</time>
      </trkpt>
      <trkpt lat="43.22351" lon="5.50164">
        <ele>216</ele>
        <time>2014-09-28T07:15:40Z</time>
      </trkpt>
      <trkpt lat="43.22345" lon="5.50166">
        <ele>216</ele>
        <time>2014-09-28T07:15:49Z</time>
      </trkpt>
      <trkpt lat="43.22344" lon="5.50166">
        <ele>216</ele>
        <time>2014-09-28T07:16:00Z</time>
      </trkpt>
      <trkpt lat="43.22342" lon="5.50169">
        <ele>217</ele>
        <time>2014-09-28T07:16:30Z</time>
      </trkpt>
      <trkpt lat="43.22342" lon="5.50167">
        <ele>218</ele>
        <time>2014-09-28T07:16:42Z</time>
      </trkpt>
      <trkpt lat="43.22343" lon="5.50162">
        <ele>218</ele>
        <time>2014-09-28T07:16:53Z</time>
      </trkpt>
      <trkpt lat="43.22341" lon="5.50161">
        <ele>218</ele>
        <time>2014-09-28T07:17:02Z</time>
      </trkpt>
      <trkpt lat="43.22331" lon="5.50167">
        <ele>216</ele>
        <time>2014-09-28T07:17:11Z</time>
      </trkpt>
      <trkpt lat="43.2232" lon="5.50171">
        <ele>215</ele>
        <time>2014-09-28T07:17:21Z</time>
      </trkpt>
      <trkpt lat="43.22309" lon="5.50175">
        <ele>215</ele>
        <time>2014-09-28T07:17:30Z</time>
      </trkpt>
      <trkpt lat="43.22299" lon="5.50181">
        <ele>215</ele>
        <time>2014-09-28T07:17:40Z</time>
      </trkpt>
      <trkpt lat="43.2229" lon="5.50185">
        <ele>214</ele>
        <time>2014-09-28T07:17:49Z</time>
      </trkpt>
      <trkpt lat="43.22281" lon="5.50187">
        <ele>211</ele>
        <time>2014-09-28T07:17:58Z</time>
      </trkpt>
      <trkpt lat="43.22271" lon="5.50189">
        <ele>209</ele>
        <time>2014-09-28T07:18:07Z</time>
      </trkpt>
      <trkpt lat="43.22261" lon="5.50182">
        <ele>209</ele>
        <time>2014-09-28T07:18:16Z</time>
      </trkpt>
      <trkpt lat="43.22254" lon="5.50169">
        <ele>208</ele>
        <time>2014-09-28T07:18:25Z</time>
      </trkpt>
      <trkpt lat="43.22248" lon="5.50153">
        <ele>208</ele>
        <time>2014-09-28T07:18:35Z</time>
      </trkpt>
      <trkpt lat="43.2224" lon="5.50142">
        <ele>208</ele>
        <time>2014-09-28T07:18:44Z</time>
      </trkpt>
      <trkpt lat="43.22234" lon="5.50131">
        <ele>208</ele>
        <time>2014-09-28T07:18:53Z</time>
      </trkpt>
      <trkpt lat="43.22226" lon="5.50118">
        <ele>208</ele>
        <time>2014-09-28T07:19:03Z</time>
      </trkpt>
      <trkpt lat="43.22218" lon="5.5011">
        <ele>208</ele>
        <time>2014-09-28T07:19:12Z</time>
      </trkpt>
      <trkpt lat="43.22207" lon="5.50108">
        <ele>208</ele>
        <time>2014-09-28T07:19:21Z</time>
      </trkpt>
      <trkpt lat="43.22198" lon="5.50107">
        <ele>208</ele>
        <time>2014-09-28T07:19:30Z</time>
      </trkpt>
      <trkpt lat="43.22189" lon="5.50106">
        <ele>208</ele>
        <time>2014-09-28T07:19:39Z</time>
      </trkpt>
      <trkpt lat="43.22179" lon="5.50105">
        <ele>207</ele>
        <time>2014-09-28T07:19:49Z</time>
      </trkpt>
      <trkpt lat="43.22169" lon="5.50103">
        <ele>205</ele>
        <time>2014-09-28T07:19:59Z</time>
      </trkpt>
      <trkpt lat="43.22165" lon="5.50103">
        <ele>204</ele>
        <time>2014-09-28T07:20:13Z</time>
      </trkpt>
      <trkpt lat="43.22155" lon="5.50106">
        <ele>203</ele>
        <time>2014-09-28T07:20:23Z</time>
      </trkpt>
      <trkpt lat="43.22147" lon="5.5011">
        <ele>201</ele>
        <time>2014-09-28T07:20:33Z</time>
      </trkpt>
      <trkpt lat="43.22141" lon="5.50098">
        <ele>199</ele>
        <time>2014-09-28T07:20:43Z</time>
      </trkpt>
      <trkpt lat="43.22138" lon="5.50086">
        <ele>196</ele>
        <time>2014-09-28T07:20:52Z</time>
      </trkpt>
      <trkpt lat="43.22136" lon="5.5007">
        <ele>193</ele>
        <time>2014-09-28T07:21:01Z</time>
      </trkpt>
      <trkpt lat="43.22135" lon="5.50057">
        <ele>192</ele>
        <time>2014-09-28T07:21:10Z</time>
      </trkpt>
      <trkpt lat="43.22132" lon="5.50044">
        <ele>192</ele>
        <time>2014-09-28T07:21:19Z</time>
      </trkpt>
      <trkpt lat="43.22131" lon="5.5003">
        <ele>192</ele>
        <time>2014-09-28T07:21:28Z</time>
      </trkpt>
      <trkpt lat="43.22129" lon="5.50015">
        <ele>192</ele>
        <time>2014-09-28T07:21:37Z</time>
      </trkpt>
      <trkpt lat="43.22128" lon="5.49999">
        <ele>192</ele>
        <time>2014-09-28T07:21:46Z</time>
      </trkpt>
      <trkpt lat="43.22126" lon="5.49984">
        <ele>192</ele>
        <time>2014-09-28T07:21:56Z</time>
      </trkpt>
      <trkpt lat="43.22124" lon="5.49969">
        <ele>190</ele>
        <time>2014-09-28T07:22:05Z</time>
      </trkpt>
      <trkpt lat="43.22124" lon="5.49955">
        <ele>190</ele>
        <time>2014-09-28T07:22:14Z</time>
      </trkpt>
      <trkpt lat="43.22129" lon="5.49941">
        <ele>190</ele>
        <time>2014-09-28T07:22:24Z</time>
      </trkpt>
      <trkpt lat="43.22131" lon="5.49929">
        <ele>191</ele>
        <time>2014-09-28T07:22:35Z</time>
      </trkpt>
      <trkpt lat="43.22132" lon="5.49918">
        <ele>196</ele>
        <time>2014-09-28T07:22:44Z</time>
      </trkpt>
      <trkpt lat="43.22134" lon="5.49905">
        <ele>200</ele>
        <time>2014-09-28T07:22:53Z</time>
      </trkpt>
      <trkpt lat="43.22135" lon="5.49892">
        <ele>200</ele>
        <time>2014-09-28T07:23:02Z</time>
      </trkpt>
      <trkpt lat="43.2214" lon="5.49877">
        <ele>199</ele>
        <time>2014-09-28T07:23:13Z</time>
      </trkpt>
      <trkpt lat="43.22133" lon="5.49866">
        <ele>196</ele>
        <time>2014-09-28T07:23:24Z</time>
      </trkpt>
      <trkpt lat="43.22122" lon="5.49867">
        <ele>195</ele>
        <time>2014-09-28T07:23:34Z</time>
      </trkpt>
      <trkpt lat="43.22112" lon="5.49872">
        <ele>195</ele>
        <time>2014-09-28T07:23:44Z</time>
      </trkpt>
      <trkpt lat="43.22102" lon="5.49874">
        <ele>195</ele>
        <time>2014-09-28T07:23:55Z</time>
      </trkpt>
      <trkpt lat="43.22094" lon="5.49875">
        <ele>195</ele>
        <time>2014-09-28T07:24:04Z</time>
      </trkpt>
      <trkpt lat="43.22083" lon="5.49878">
        <ele>196</ele>
        <time>2014-09-28T07:24:14Z</time>
      </trkpt>
      <trkpt lat="43.22073" lon="5.49881">
        <ele>197</ele>
        <time>2014-09-28T07:24:23Z</time>
      </trkpt>
      <trkpt lat="43.22063" lon="5.49885">
        <ele>197</ele>
        <time>2014-09-28T07:24:33Z</time>
      </trkpt>
      <trkpt lat="43.22053" lon="5.49889">
        <ele>197</ele>
        <time>2014-09-28T07:24:42Z</time>
      </trkpt>
      <trkpt lat="43.22043" lon="5.49894">
        <ele>197</ele>
        <time>2014-09-28T07:24:51Z</time>
      </trkpt>
      <trkpt lat="43.22032" lon="5.49899">
        <ele>197</ele>
        <time>2014-09-28T07:25:01Z</time>
      </trkpt>
      <trkpt lat="43.22023" lon="5.49905">
        <ele>197</ele>
        <time>2014-09-28T07:25:10Z</time>
      </trkpt>
      <trkpt lat="43.22014" lon="5.4991">
        <ele>197</ele>
        <time>2014-09-28T07:25:19Z</time>
      </trkpt>
      <trkpt lat="43.22005" lon="5.49913">
        <ele>197</ele>
        <time>2014-09-28T07:25:28Z</time>
      </trkpt>
      <trkpt lat="43.21994" lon="5.49915">
        <ele>197</ele>
        <time>2014-09-28T07:25:39Z</time>
      </trkpt>
      <trkpt lat="43.21982" lon="5.49916">
        <ele>196</ele>
        <time>2014-09-28T07:25:48Z</time>
      </trkpt>
      <trkpt lat="43.21969" lon="5.49914">
        <ele>196</ele>
        <time>2014-09-28T07:25:57Z</time>
      </trkpt>
      <trkpt lat="43.21958" lon="5.4991">
        <ele>195</ele>
        <time>2014-09-28T07:26:07Z</time>
      </trkpt>
      <trkpt lat="43.21947" lon="5.49903">
        <ele>192</ele>
        <time>2014-09-28T07:26:17Z</time>
      </trkpt>
      <trkpt lat="43.21939" lon="5.49894">
        <ele>188</ele>
        <time>2014-09-28T07:26:27Z</time>
      </trkpt>
      <trkpt lat="43.21931" lon="5.49885">
        <ele>188</ele>
        <time>2014-09-28T07:26:36Z</time>
      </trkpt>
      <trkpt lat="43.21923" lon="5.49877">
        <ele>186</ele>
        <time>2014-09-28T07:26:45Z</time>
      </trkpt>
      <trkpt lat="43.21913" lon="5.49864">
        <ele>184</ele>
        <time>2014-09-28T07:26:56Z</time>
      </trkpt>
      <trkpt lat="43.21902" lon="5.49855">
        <ele>182</ele>
        <time>2014-09-28T07:27:06Z</time>
      </trkpt>
      <trkpt lat="43.21892" lon="5.49847">
        <ele>181</ele>
        <time>2014-09-28T07:27:16Z</time>
      </trkpt>
      <trkpt lat="43.21885" lon="5.49834">
        <ele>181</ele>
        <time>2014-09-28T07:27:25Z</time>
      </trkpt>
      <trkpt lat="43.21883" lon="5.49819">
        <ele>181</ele>
        <time>2014-09-28T07:27:34Z</time>
      </trkpt>
      <trkpt lat="43.21884" lon="5.49806">
        <ele>181</ele>
        <time>2014-09-28T07:27:44Z</time>
      </trkpt>
      <trkpt lat="43.21887" lon="5.49791">
        <ele>182</ele>
        <time>2014-09-28T07:27:55Z</time>
      </trkpt>
      <trkpt lat="43.2189" lon="5.49786">
        <ele>183</ele>
        <time>2014-09-28T07:28:05Z</time>
      </trkpt>
      <trkpt lat="43.21896" lon="5.49777">
        <ele>185</ele>
        <time>2014-09-28T07:28:14Z</time>
      </trkpt>
      <trkpt lat="43.21904" lon="5.49765">
        <ele>185</ele>
        <time>2014-09-28T07:28:23Z</time>
      </trkpt>
      <trkpt lat="43.21909" lon="5.49753">
        <ele>183</ele>
        <time>2014-09-28T07:28:32Z</time>
      </trkpt>
      <trkpt lat="43.21909" lon="5.49742">
        <ele>182</ele>
        <time>2014-09-28T07:28:43Z</time>
      </trkpt>
      <trkpt lat="43.21904" lon="5.49736">
        <ele>182</ele>
        <time>2014-09-28T07:28:52Z</time>
      </trkpt>
      <trkpt lat="43.21893" lon="5.49734">
        <ele>182</ele>
        <time>2014-09-28T07:29:03Z</time>
      </trkpt>
      <trkpt lat="43.21882" lon="5.49732">
        <ele>182</ele>
        <time>2014-09-28T07:29:12Z</time>
      </trkpt>
      <trkpt lat="43.21868" lon="5.49735">
        <ele>182</ele>
        <time>2014-09-28T07:29:22Z</time>
      </trkpt>
      <trkpt lat="43.21858" lon="5.49734">
        <ele>182</ele>
        <time>2014-09-28T07:29:32Z</time>
      </trkpt>
      <trkpt lat="43.21848" lon="5.49732">
        <ele>182</ele>
        <time>2014-09-28T07:29:41Z</time>
      </trkpt>
      <trkpt lat="43.21837" lon="5.49733">
        <ele>182</ele>
        <time>2014-09-28T07:29:50Z</time>
      </trkpt>
      <trkpt lat="43.21828" lon="5.49736">
        <ele>182</ele>
        <time>2014-09-28T07:29:59Z</time>
      </trkpt>
      <trkpt lat="43.21818" lon="5.49739">
        <ele>182</ele>
        <time>2014-09-28T07:30:08Z</time>
      </trkpt>
      <trkpt lat="43.21809" lon="5.49743">
        <ele>181</ele>
        <time>2014-09-28T07:30:17Z</time>
      </trkpt>
      <trkpt lat="43.21804" lon="5.49736">
        <ele>181</ele>
        <time>2014-09-28T07:30:26Z</time>
      </trkpt>
      <trkpt lat="43.2181" lon="5.49727">
        <ele>181</ele>
        <time>2014-09-28T07:30:35Z</time>
      </trkpt>
      <trkpt lat="43.21815" lon="5.49717">
        <ele>181</ele>
        <time>2014-09-28T07:30:45Z</time>
      </trkpt>
      <trkpt lat="43.2182" lon="5.49708">
        <ele>181</ele>
        <time>2014-09-28T07:30:54Z</time>
      </trkpt>
      <trkpt lat="43.21828" lon="5.49699">
        <ele>181</ele>
        <time>2014-09-28T07:31:04Z</time>
      </trkpt>
      <trkpt lat="43.21834" lon="5.49689">
        <ele>181</ele>
        <time>2014-09-28T07:31:13Z</time>
      </trkpt>
      <trkpt lat="43.21838" lon="5.49678">
        <ele>178</ele>
        <time>2014-09-28T07:31:22Z</time>
      </trkpt>
      <trkpt lat="43.21843" lon="5.49667">
        <ele>178</ele>
        <time>2014-09-28T07:31:31Z</time>
      </trkpt>
      <trkpt lat="43.21848" lon="5.49653">
        <ele>176</ele>
        <time>2014-09-28T07:31:41Z</time>
      </trkpt>
      <trkpt lat="43.21855" lon="5.49643">
        <ele>173</ele>
        <time>2014-09-28T07:31:50Z</time>
      </trkpt>
      <trkpt lat="43.21864" lon="5.49625">
        <ele>173</ele>
        <time>2014-09-28T07:32:05Z</time>
      </trkpt>
      <trkpt lat="43.21874" lon="5.49621">
        <ele>177</ele>
        <time>2014-09-28T07:32:15Z</time>
      </trkpt>
      <trkpt lat="43.21883" lon="5.49617">
        <ele>177</ele>
        <time>2014-09-28T07:32:24Z</time>
      </trkpt>
      <trkpt lat="43.2188" lon="5.49607">
        <ele>174</ele>
        <time>2014-09-28T07:32:33Z</time>
      </trkpt>
      <trkpt lat="43.2187" lon="5.49607">
        <ele>170</ele>
        <time>2014-09-28T07:32:42Z</time>
      </trkpt>
      <trkpt lat="43.21862" lon="5.49608">
        <ele>169</ele>
        <time>2014-09-28T07:32:51Z</time>
      </trkpt>
      <trkpt lat="43.21852" lon="5.49612">
        <ele>169</ele>
        <time>2014-09-28T07:33:01Z</time>
      </trkpt>
      <trkpt lat="43.21842" lon="5.49615">
        <ele>169</ele>
        <time>2014-09-28T07:33:10Z</time>
      </trkpt>
      <trkpt lat="43.21834" lon="5.49623">
        <ele>169</ele>
        <time>2014-09-28T07:33:19Z</time>
      </trkpt>
      <trkpt lat="43.21828" lon="5.49632">
        <ele>166</ele>
        <time>2014-09-28T07:33:30Z</time>
      </trkpt>
      <trkpt lat="43.21821" lon="5.49646">
        <ele>166</ele>
        <time>2014-09-28T07:33:40Z</time>
      </trkpt>
      <trkpt lat="43.21812" lon="5.49653">
        <ele>166</ele>
        <time>2014-09-28T07:33:50Z</time>
      </trkpt>
      <trkpt lat="43.218" lon="5.49651">
        <ele>165</ele>
        <time>2014-09-28T07:33:59Z</time>
      </trkpt>
      <trkpt lat="43.21793" lon="5.49653">
        <ele>161</ele>
        <time>2014-09-28T07:34:08Z</time>
      </trkpt>
      <trkpt lat="43.21786" lon="5.49669">
        <ele>160</ele>
        <time>2014-09-28T07:34:17Z</time>
      </trkpt>
      <trkpt lat="43.21779" lon="5.49684">
        <ele>160</ele>
        <time>2014-09-28T07:34:27Z</time>
      </trkpt>
      <trkpt lat="43.21772" lon="5.4969">
        <ele>160</ele>
        <time>2014-09-28T07:34:36Z</time>
      </trkpt>
      <trkpt lat="43.21761" lon="5.49689">
        <ele>160</ele>
        <time>2014-09-28T07:34:45Z</time>
      </trkpt>
      <trkpt lat="43.21749" lon="5.49677">
        <ele>160</ele>
        <time>2014-09-28T07:34:55Z</time>
      </trkpt>
      <trkpt lat="43.21745" lon="5.49664">
        <ele>155</ele>
        <time>2014-09-28T07:35:04Z</time>
      </trkpt>
      <trkpt lat="43.21742" lon="5.4965">
        <ele>151</ele>
        <time>2014-09-28T07:35:13Z</time>
      </trkpt>
      <trkpt lat="43.21736" lon="5.49636">
        <ele>149</ele>
        <time>2014-09-28T07:35:23Z</time>
      </trkpt>
      <trkpt lat="43.2173" lon="5.49622">
        <ele>147</ele>
        <time>2014-09-28T07:35:33Z</time>
      </trkpt>
      <trkpt lat="43.21724" lon="5.49611">
        <ele>147</ele>
        <time>2014-09-28T07:35:42Z</time>
      </trkpt>
      <trkpt lat="43.21722" lon="5.496">
        <ele>141</ele>
        <time>2014-09-28T07:35:51Z</time>
      </trkpt>
      <trkpt lat="43.21721" lon="5.49587">
        <ele>135</ele>
        <time>2014-09-28T07:36:01Z</time>
      </trkpt>
      <trkpt lat="43.21716" lon="5.49574">
        <ele>132</ele>
        <time>2014-09-28T07:36:10Z</time>
      </trkpt>
      <trkpt lat="43.21709" lon="5.49561">
        <ele>132</ele>
        <time>2014-09-28T07:36:20Z</time>
      </trkpt>
      <trkpt lat="43.21703" lon="5.4955">
        <ele>132</ele>
        <time>2014-09-28T07:36:29Z</time>
      </trkpt>
      <trkpt lat="43.21696" lon="5.49539">
        <ele>132</ele>
        <time>2014-09-28T07:36:38Z</time>
      </trkpt>
      <trkpt lat="43.21689" lon="5.49527">
        <ele>132</ele>
        <time>2014-09-28T07:36:48Z</time>
      </trkpt>
      <trkpt lat="43.21682" lon="5.49519">
        <ele>132</ele>
        <time>2014-09-28T07:36:57Z</time>
      </trkpt>
      <trkpt lat="43.21674" lon="5.49508">
        <ele>132</ele>
        <time>2014-09-28T07:37:07Z</time>
      </trkpt>
      <trkpt lat="43.21667" lon="5.49499">
        <ele>132</ele>
        <time>2014-09-28T07:37:16Z</time>
      </trkpt>
      <trkpt lat="43.21661" lon="5.49486">
        <ele>132</ele>
        <time>2014-09-28T07:37:25Z</time>
      </trkpt>
      <trkpt lat="43.21657" lon="5.49472">
        <ele>130</ele>
        <time>2014-09-28T07:37:35Z</time>
      </trkpt>
      <trkpt lat="43.21652" lon="5.4946">
        <ele>130</ele>
        <time>2014-09-28T07:37:44Z</time>
      </trkpt>
      <trkpt lat="43.21641" lon="5.49455">
        <ele>133</ele>
        <time>2014-09-28T07:37:54Z</time>
      </trkpt>
      <trkpt lat="43.21629" lon="5.49458">
        <ele>136</ele>
        <time>2014-09-28T07:38:03Z</time>
      </trkpt>
      <trkpt lat="43.21618" lon="5.49462">
        <ele>141</ele>
        <time>2014-09-28T07:38:13Z</time>
      </trkpt>
      <trkpt lat="43.21608" lon="5.49464">
        <ele>141</ele>
        <time>2014-09-28T07:38:23Z</time>
      </trkpt>
      <trkpt lat="43.21597" lon="5.49465">
        <ele>141</ele>
        <time>2014-09-28T07:38:33Z</time>
      </trkpt>
      <trkpt lat="43.21586" lon="5.49461">
        <ele>140</ele>
        <time>2014-09-28T07:38:43Z</time>
      </trkpt>
      <trkpt lat="43.21575" lon="5.49456">
        <ele>140</ele>
        <time>2014-09-28T07:38:52Z</time>
      </trkpt>
      <trkpt lat="43.21566" lon="5.49448">
        <ele>142</ele>
        <time>2014-09-28T07:39:03Z</time>
      </trkpt>
      <trkpt lat="43.21556" lon="5.49436">
        <ele>142</ele>
        <time>2014-09-28T07:39:13Z</time>
      </trkpt>
      <trkpt lat="43.2155" lon="5.49426">
        <ele>142</ele>
        <time>2014-09-28T07:39:22Z</time>
      </trkpt>
      <trkpt lat="43.21543" lon="5.49419">
        <ele>139</ele>
        <time>2014-09-28T07:39:31Z</time>
      </trkpt>
      <trkpt lat="43.21531" lon="5.49418">
        <ele>140</ele>
        <time>2014-09-28T07:39:40Z</time>
      </trkpt>
      <trkpt lat="43.2152" lon="5.49415">
        <ele>140</ele>
        <time>2014-09-28T07:39:49Z</time>
      </trkpt>
      <trkpt lat="43.21512" lon="5.49423">
        <ele>140</ele>
        <time>2014-09-28T07:39:59Z</time>
      </trkpt>
      <trkpt lat="43.21504" lon="5.49428">
        <ele>137</ele>
        <time>2014-09-28T07:40:08Z</time>
      </trkpt>
      <trkpt lat="43.21494" lon="5.49435">
        <ele>136</ele>
        <time>2014-09-28T07:40:18Z</time>
      </trkpt>
      <trkpt lat="43.21485" lon="5.49434">
        <ele>132</ele>
        <time>2014-09-28T07:40:28Z</time>
      </trkpt>
      <trkpt lat="43.21485" lon="5.49422">
        <ele>128</ele>
        <time>2014-09-28T07:40:37Z</time>
      </trkpt>
      <trkpt lat="43.21489" lon="5.49411">
        <ele>120</ele>
        <time>2014-09-28T07:40:48Z</time>
      </trkpt>
      <trkpt lat="43.21488" lon="5.49411">
        <ele>119</ele>
        <time>2014-09-28T07:40:58Z</time>
      </trkpt>
      <trkpt lat="43.21486" lon="5.49409">
        <ele>119</ele>
        <time>2014-09-28T07:41:09Z</time>
      </trkpt>
      <trkpt lat="43.21483" lon="5.49403">
        <ele>119</ele>
        <time>2014-09-28T07:41:19Z</time>
      </trkpt>
      <trkpt lat="43.21481" lon="5.49396">
        <ele>119</ele>
        <time>2014-09-28T07:41:28Z</time>
      </trkpt>
      <trkpt lat="43.21486" lon="5.49388">
        <ele>112</ele>
        <time>2014-09-28T07:41:41Z</time>
      </trkpt>
      <trkpt lat="43.21486" lon="5.49394">
        <ele>106</ele>
        <time>2014-09-28T07:41:51Z</time>
      </trkpt>
      <trkpt lat="43.21481" lon="5.49391">
        <ele>105</ele>
        <time>2014-09-28T07:42:01Z</time>
      </trkpt>
      <trkpt lat="43.21477" lon="5.49382">
        <ele>105</ele>
        <time>2014-09-28T07:42:12Z</time>
      </trkpt>
      <trkpt lat="43.21474" lon="5.49375">
        <ele>105</ele>
        <time>2014-09-28T07:42:22Z</time>
      </trkpt>
      <trkpt lat="43.21477" lon="5.49372">
        <ele>105</ele>
        <time>2014-09-28T07:42:31Z</time>
      </trkpt>
      <trkpt lat="43.21482" lon="5.49368">
        <ele>102</ele>
        <time>2014-09-28T07:42:40Z</time>
      </trkpt>
      <trkpt lat="43.21479" lon="5.49371">
        <ele>102</ele>
        <time>2014-09-28T07:42:49Z</time>
      </trkpt>
      <trkpt lat="43.21477" lon="5.49374">
        <ele>103</ele>
        <time>2014-09-28T07:42:58Z</time>
      </trkpt>
      <trkpt lat="43.21473" lon="5.49371">
        <ele>114</ele>
        <time>2014-09-28T07:43:08Z</time>
      </trkpt>
      <trkpt lat="43.21469" lon="5.49372">
        <ele>121</ele>
        <time>2014-09-28T07:43:17Z</time>
      </trkpt>
      <trkpt lat="43.21465" lon="5.49375">
        <ele>121</ele>
        <time>2014-09-28T07:43:27Z</time>
      </trkpt>
      <trkpt lat="43.21463" lon="5.49373">
        <ele>119</ele>
        <time>2014-09-28T07:43:37Z</time>
      </trkpt>
      <trkpt lat="43.21462" lon="5.4937">
        <ele>119</ele>
        <time>2014-09-28T07:43:46Z</time>
      </trkpt>
      <trkpt lat="43.21461" lon="5.49367">
        <ele>121</ele>
        <time>2014-09-28T07:43:55Z</time>
      </trkpt>
      <trkpt lat="43.21462" lon="5.49362">
        <ele>124</ele>
        <time>2014-09-28T07:44:05Z</time>
      </trkpt>
      <trkpt lat="43.21463" lon="5.49358">
        <ele>126</ele>
        <time>2014-09-28T07:44:14Z</time>
      </trkpt>
      <trkpt lat="43.21464" lon="5.49353">
        <ele>129</ele>
        <time>2014-09-28T07:44:23Z</time>
      </trkpt>
      <trkpt lat="43.21463" lon="5.49347">
        <ele>132</ele>
        <time>2014-09-28T07:44:32Z</time>
      </trkpt>
      <trkpt lat="43.21463" lon="5.49341">
        <ele>137</ele>
        <time>2014-09-28T07:44:44Z</time>
      </trkpt>
      <trkpt lat="43.2146" lon="5.49344">
        <ele>137</ele>
        <time>2014-09-28T07:44:53Z</time>
      </trkpt>
      <trkpt lat="43.21456" lon="5.49342">
        <ele>137</ele>
        <time>2014-09-28T07:45:03Z</time>
      </trkpt>
      <trkpt lat="43.21455" lon="5.49337">
        <ele>137</ele>
        <time>2014-09-28T07:45:12Z</time>
      </trkpt>
      <trkpt lat="43.21453" lon="5.49336">
        <ele>139</ele>
        <time>2014-09-28T07:45:22Z</time>
      </trkpt>
      <trkpt lat="43.21452" lon="5.49332">
        <ele>140</ele>
        <time>2014-09-28T07:45:32Z</time>
      </trkpt>
      <trkpt lat="43.21449" lon="5.49334">
        <ele>142</ele>
        <time>2014-09-28T07:45:43Z</time>
      </trkpt>
      <trkpt lat="43.21447" lon="5.49344">
        <ele>144</ele>
        <time>2014-09-28T07:45:53Z</time>
      </trkpt>
      <trkpt lat="43.21442" lon="5.49348">
        <ele>145</ele>
        <time>2014-09-28T07:46:02Z</time>
      </trkpt>
      <trkpt lat="43.21439" lon="5.49349">
        <ele>146</ele>
        <time>2014-09-28T07:46:12Z</time>
      </trkpt>
      <trkpt lat="43.21436" lon="5.49352">
        <ele>147</ele>
        <time>2014-09-28T07:46:21Z</time>
      </trkpt>
      <trkpt lat="43.21433" lon="5.49356">
        <ele>150</ele>
        <time>2014-09-28T07:46:32Z</time>
      </trkpt>
      <trkpt lat="43.21429" lon="5.49361">
        <ele>151</ele>
        <time>2014-09-28T07:46:42Z</time>
      </trkpt>
      <trkpt lat="43.21424" lon="5.49363">
        <ele>152</ele>
        <time>2014-09-28T07:46:52Z</time>
      </trkpt>
      <trkpt lat="43.21422" lon="5.49366">
        <ele>153</ele>
        <time>2014-09-28T07:47:01Z</time>
      </trkpt>
      <trkpt lat="43.21418" lon="5.49365">
        <ele>154</ele>
        <time>2014-09-28T07:47:11Z</time>
      </trkpt>
      <trkpt lat="43.21418" lon="5.49358">
        <ele>155</ele>
        <time>2014-09-28T07:47:21Z</time>
      </trkpt>
      <trkpt lat="43.21415" lon="5.49356">
        <ele>157</ele>
        <time>2014-09-28T07:47:34Z</time>
      </trkpt>
      <trkpt lat="43.21412" lon="5.49361">
        <ele>157</ele>
        <time>2014-09-28T07:47:43Z</time>
      </trkpt>
      <trkpt lat="43.21405" lon="5.49368">
        <ele>157</ele>
        <time>2014-09-28T07:47:53Z</time>
      </trkpt>
      <trkpt lat="43.214" lon="5.49372">
        <ele>158</ele>
        <time>2014-09-28T07:48:03Z</time>
      </trkpt>
      <trkpt lat="43.21398" lon="5.49372">
        <ele>159</ele>
        <time>2014-09-28T07:48:13Z</time>
      </trkpt>
      <trkpt lat="43.21391" lon="5.49377">
        <ele>161</ele>
        <time>2014-09-28T07:48:23Z</time>
      </trkpt>
      <trkpt lat="43.21386" lon="5.49384">
        <ele>163</ele>
        <time>2014-09-28T07:48:32Z</time>
      </trkpt>
      <trkpt lat="43.21378" lon="5.49389">
        <ele>164</ele>
        <time>2014-09-28T07:48:41Z</time>
      </trkpt>
      <trkpt lat="43.2137" lon="5.49395">
        <ele>164</ele>
        <time>2014-09-28T07:48:51Z</time>
      </trkpt>
      <trkpt lat="43.21362" lon="5.49401">
        <ele>164</ele>
        <time>2014-09-28T07:49:00Z</time>
      </trkpt>
      <trkpt lat="43.21354" lon="5.49401">
        <ele>164</ele>
        <time>2014-09-28T07:49:09Z</time>
      </trkpt>
      <trkpt lat="43.21344" lon="5.494">
        <ele>164</ele>
        <time>2014-09-28T07:49:18Z</time>
      </trkpt>
      <trkpt lat="43.21333" lon="5.49399">
        <ele>164</ele>
        <time>2014-09-28T07:49:27Z</time>
      </trkpt>
      <trkpt lat="43.21321" lon="5.49403">
        <ele>164</ele>
        <time>2014-09-28T07:49:36Z</time>
      </trkpt>
      <trkpt lat="43.21311" lon="5.49405">
        <ele>166</ele>
        <time>2014-09-28T07:49:45Z</time>
      </trkpt>
      <trkpt lat="43.21302" lon="5.49398">
        <ele>166</ele>
        <time>2014-09-28T07:49:55Z</time>
      </trkpt>
      <trkpt lat="43.2129" lon="5.49403">
        <ele>167</ele>
        <time>2014-09-28T07:50:04Z</time>
      </trkpt>
      <trkpt lat="43.2128" lon="5.49397">
        <ele>168</ele>
        <time>2014-09-28T07:50:13Z</time>
      </trkpt>
      <trkpt lat="43.21271" lon="5.49387">
        <ele>168</ele>
        <time>2014-09-28T07:50:22Z</time>
      </trkpt>
      <trkpt lat="43.21263" lon="5.49377">
        <ele>168</ele>
        <time>2014-09-28T07:50:31Z</time>
      </trkpt>
      <trkpt lat="43.21256" lon="5.49367">
        <ele>168</ele>
        <time>2014-09-28T07:50:41Z</time>
      </trkpt>
      <trkpt lat="43.21247" lon="5.49356">
        <ele>168</ele>
        <time>2014-09-28T07:50:50Z</time>
      </trkpt>
      <trkpt lat="43.2124" lon="5.49347">
        <ele>168</ele>
        <time>2014-09-28T07:50:59Z</time>
      </trkpt>
      <trkpt lat="43.21233" lon="5.49336">
        <ele>168</ele>
        <time>2014-09-28T07:51:09Z</time>
      </trkpt>
      <trkpt lat="43.21226" lon="5.49324">
        <ele>168</ele>
        <time>2014-09-28T07:51:19Z</time>
      </trkpt>
      <trkpt lat="43.21219" lon="5.49314">
        <ele>168</ele>
        <time>2014-09-28T07:51:29Z</time>
      </trkpt>
      <trkpt lat="43.21211" lon="5.49304">
        <ele>168</ele>
        <time>2014-09-28T07:51:39Z</time>
      </trkpt>
      <trkpt lat="43.21206" lon="5.49296">
        <ele>169</ele>
        <time>2014-09-28T07:51:48Z</time>
      </trkpt>
      <trkpt lat="43.21201" lon="5.49286">
        <ele>170</ele>
        <time>2014-09-28T07:51:57Z</time>
      </trkpt>
      <trkpt lat="43.21194" lon="5.49275">
        <ele>171</ele>
        <time>2014-09-28T07:52:07Z</time>
      </trkpt>
      <trkpt lat="43.21188" lon="5.49264">
        <ele>171</ele>
        <time>2014-09-28T07:52:17Z</time>
      </trkpt>
      <trkpt lat="43.21181" lon="5.49254">
        <ele>171</ele>
        <time>2014-09-28T07:52:26Z</time>
      </trkpt>
      <trkpt lat="43.21176" lon="5.49242">
        <ele>171</ele>
        <time>2014-09-28T07:52:35Z</time>
      </trkpt>
      <trkpt lat="43.21171" lon="5.4923">
        <ele>171</ele>
        <time>2014-09-28T07:52:45Z</time>
      </trkpt>
      <trkpt lat="43.21168" lon="5.49219">
        <ele>171</ele>
        <time>2014-09-28T07:52:54Z</time>
      </trkpt>
      <trkpt lat="43.21168" lon="5.49205">
        <ele>172</ele>
        <time>2014-09-28T07:53:04Z</time>
      </trkpt>
      <trkpt lat="43.21169" lon="5.49192">
        <ele>172</ele>
        <time>2014-09-28T07:53:14Z</time>
      </trkpt>
      <trkpt lat="43.21168" lon="5.49179">
        <ele>172</ele>
        <time>2014-09-28T07:53:23Z</time>
      </trkpt>
      <trkpt lat="43.21167" lon="5.49167">
        <ele>171</ele>
        <time>2014-09-28T07:53:32Z</time>
      </trkpt>
      <trkpt lat="43.2117" lon="5.49156">
        <ele>170</ele>
        <time>2014-09-28T07:53:42Z</time>
      </trkpt>
      <trkpt lat="43.21171" lon="5.49141">
        <ele>170</ele>
        <time>2014-09-28T07:53:52Z</time>
      </trkpt>
      <trkpt lat="43.21177" lon="5.49128">
        <ele>170</ele>
        <time>2014-09-28T07:54:01Z</time>
      </trkpt>
      <trkpt lat="43.2118" lon="5.49113">
        <ele>170</ele>
        <time>2014-09-28T07:54:11Z</time>
      </trkpt>
      <trkpt lat="43.21183" lon="5.49099">
        <ele>170</ele>
        <time>2014-09-28T07:54:20Z</time>
      </trkpt>
      <trkpt lat="43.21185" lon="5.49088">
        <ele>170</ele>
        <time>2014-09-28T07:54:29Z</time>
      </trkpt>
      <trkpt lat="43.21187" lon="5.49075">
        <ele>170</ele>
        <time>2014-09-28T07:54:38Z</time>
      </trkpt>
      <trkpt lat="43.21188" lon="5.4906">
        <ele>169</ele>
        <time>2014-09-28T07:54:48Z</time>
      </trkpt>
      <trkpt lat="43.21193" lon="5.49049">
        <ele>168</ele>
        <time>2014-09-28T07:54:58Z</time>
      </trkpt>
      <trkpt lat="43.21197" lon="5.49038">
        <ele>168</ele>
        <time>2014-09-28T07:55:07Z</time>
      </trkpt>
      <trkpt lat="43.21196" lon="5.49027">
        <ele>167</ele>
        <time>2014-09-28T07:55:17Z</time>
      </trkpt>
      <trkpt lat="43.21188" lon="5.49024">
        <ele>167</ele>
        <time>2014-09-28T07:55:26Z</time>
      </trkpt>
      <trkpt lat="43.21177" lon="5.49029">
        <ele>167</ele>
        <time>2014-09-28T07:55:36Z</time>
      </trkpt>
      <trkpt lat="43.21166" lon="5.49037">
        <ele>167</ele>
        <time>2014-09-28T07:55:46Z</time>
      </trkpt>
      <trkpt lat="43.21157" lon="5.4904">
        <ele>166</ele>
        <time>2014-09-28T07:55:56Z</time>
      </trkpt>
      <trkpt lat="43.21148" lon="5.49045">
        <ele>163</ele>
        <time>2014-09-28T07:56:06Z</time>
      </trkpt>
      <trkpt lat="43.21138" lon="5.4905">
        <ele>161</ele>
        <time>2014-09-28T07:56:16Z</time>
      </trkpt>
      <trkpt lat="43.21127" lon="5.49057">
        <ele>161</ele>
        <time>2014-09-28T07:56:26Z</time>
      </trkpt>
      <trkpt lat="43.21116" lon="5.49062">
        <ele>161</ele>
        <time>2014-09-28T07:56:36Z</time>
      </trkpt>
      <trkpt lat="43.21106" lon="5.49067">
        <ele>162</ele>
        <time>2014-09-28T07:56:46Z</time>
      </trkpt>
      <trkpt lat="43.21098" lon="5.49073">
        <ele>163</ele>
        <time>2014-09-28T07:56:55Z</time>
      </trkpt>
      <trkpt lat="43.21089" lon="5.49076">
        <ele>163</ele>
        <time>2014-09-28T07:57:04Z</time>
      </trkpt>
      <trkpt lat="43.21081" lon="5.4908">
        <ele>163</ele>
        <time>2014-09-28T07:57:14Z</time>
      </trkpt>
      <trkpt lat="43.21072" lon="5.49086">
        <ele>163</ele>
        <time>2014-09-28T07:57:23Z</time>
      </trkpt>
      <trkpt lat="43.21063" lon="5.49091">
        <ele>163</ele>
        <time>2014-09-28T07:57:32Z</time>
      </trkpt>
      <trkpt lat="43.21054" lon="5.49096">
        <ele>164</ele>
        <time>2014-09-28T07:57:41Z</time>
      </trkpt>
      <trkpt lat="43.21045" lon="5.49099">
        <ele>165</ele>
        <time>2014-09-28T07:57:51Z</time>
      </trkpt>
      <trkpt lat="43.21038" lon="5.49107">
        <ele>166</ele>
        <time>2014-09-28T07:58:00Z</time>
      </trkpt>
      <trkpt lat="43.2103" lon="5.49118">
        <ele>166</ele>
        <time>2014-09-28T07:58:10Z</time>
      </trkpt>
      <trkpt lat="43.21022" lon="5.49123">
        <ele>166</ele>
        <time>2014-09-28T07:58:19Z</time>
      </trkpt>
      <trkpt lat="43.21013" lon="5.49129">
        <ele>166</ele>
        <time>2014-09-28T07:58:29Z</time>
      </trkpt>
      <trkpt lat="43.21008" lon="5.49131">
        <ele>166</ele>
        <time>2014-09-28T07:58:38Z</time>
      </trkpt>
      <trkpt lat="43.21004" lon="5.49128">
        <ele>166</ele>
        <time>2014-09-28T07:58:49Z</time>
      </trkpt>
      <trkpt lat="43.21006" lon="5.49122">
        <ele>166</ele>
        <time>2014-09-28T07:59:00Z</time>
      </trkpt>
      <trkpt lat="43.21009" lon="5.4911">
        <ele>166</ele>
        <time>2014-09-28T07:59:11Z</time>
      </trkpt>
      <trkpt lat="43.21014" lon="5.49098">
        <ele>166</ele>
        <time>2014-09-28T07:59:20Z</time>
      </trkpt>
      <trkpt lat="43.21014" lon="5.49086">
        <ele>166</ele>
        <time>2014-09-28T07:59:29Z</time>
      </trkpt>
      <trkpt lat="43.21017" lon="5.49073">
        <ele>166</ele>
        <time>2014-09-28T07:59:38Z</time>
      </trkpt>
      <trkpt lat="43.21019" lon="5.4906">
        <ele>166</ele>
        <time>2014-09-28T07:59:47Z</time>
      </trkpt>
      <trkpt lat="43.2102" lon="5.49046">
        <ele>166</ele>
        <time>2014-09-28T07:59:56Z</time>
      </trkpt>
      <trkpt lat="43.21024" lon="5.49032">
        <ele>166</ele>
        <time>2014-09-28T08:00:05Z</time>
      </trkpt>
      <trkpt lat="43.21032" lon="5.49021">
        <ele>166</ele>
        <time>2014-09-28T08:00:15Z</time>
      </trkpt>
      <trkpt lat="43.2104" lon="5.49012">
        <ele>166</ele>
        <time>2014-09-28T08:00:25Z</time>
      </trkpt>
      <trkpt lat="43.21046" lon="5.49003">
        <ele>164</ele>
        <time>2014-09-28T08:00:34Z</time>
      </trkpt>
      <trkpt lat="43.21053" lon="5.4899">
        <ele>164</ele>
        <time>2014-09-28T08:00:44Z</time>
      </trkpt>
      <trkpt lat="43.21058" lon="5.48976">
        <ele>164</ele>
        <time>2014-09-28T08:00:54Z</time>
      </trkpt>
      <trkpt lat="43.21061" lon="5.48965">
        <ele>164</ele>
        <time>2014-09-28T08:01:04Z</time>
      </trkpt>
      <trkpt lat="43.21065" lon="5.48951">
        <ele>160</ele>
        <time>2014-09-28T08:01:13Z</time>
      </trkpt>
      <trkpt lat="43.21067" lon="5.48939">
        <ele>157</ele>
        <time>2014-09-28T08:01:22Z</time>
      </trkpt>
      <trkpt lat="43.2107" lon="5.48927">
        <ele>156</ele>
        <time>2014-09-28T08:01:31Z</time>
      </trkpt>
      <trkpt lat="43.21073" lon="5.48911">
        <ele>156</ele>
        <time>2014-09-28T08:01:41Z</time>
      </trkpt>
      <trkpt lat="43.21074" lon="5.48898">
        <ele>156</ele>
        <time>2014-09-28T08:01:51Z</time>
      </trkpt>
      <trkpt lat="43.21071" lon="5.48889">
        <ele>155</ele>
        <time>2014-09-28T08:02:00Z</time>
      </trkpt>
      <trkpt lat="43.21064" lon="5.48885">
        <ele>151</ele>
        <time>2014-09-28T08:02:10Z</time>
      </trkpt>
      <trkpt lat="43.21055" lon="5.4888">
        <ele>150</ele>
        <time>2014-09-28T08:02:19Z</time>
      </trkpt>
      <trkpt lat="43.21048" lon="5.48871">
        <ele>146</ele>
        <time>2014-09-28T08:02:28Z</time>
      </trkpt>
      <trkpt lat="43.21046" lon="5.48858">
        <ele>143</ele>
        <time>2014-09-28T08:02:38Z</time>
      </trkpt>
      <trkpt lat="43.21055" lon="5.48845">
        <ele>143</ele>
        <time>2014-09-28T08:02:47Z</time>
      </trkpt>
      <trkpt lat="43.21066" lon="5.48836">
        <ele>148</ele>
        <time>2014-09-28T08:02:57Z</time>
      </trkpt>
      <trkpt lat="43.21075" lon="5.48831">
        <ele>148</ele>
        <time>2014-09-28T08:03:07Z</time>
      </trkpt>
      <trkpt lat="43.21082" lon="5.4882">
        <ele>149</ele>
        <time>2014-09-28T08:03:16Z</time>
      </trkpt>
      <trkpt lat="43.21088" lon="5.4881">
        <ele>148</ele>
        <time>2014-09-28T08:03:26Z</time>
      </trkpt>
      <trkpt lat="43.21098" lon="5.48801">
        <ele>145</ele>
        <time>2014-09-28T08:03:36Z</time>
      </trkpt>
      <trkpt lat="43.21106" lon="5.48791">
        <ele>145</ele>
        <time>2014-09-28T08:03:45Z</time>
      </trkpt>
      <trkpt lat="43.21102" lon="5.48781">
        <ele>141</ele>
        <time>2014-09-28T08:03:54Z</time>
      </trkpt>
      <trkpt lat="43.21091" lon="5.48788">
        <ele>140</ele>
        <time>2014-09-28T08:04:04Z</time>
      </trkpt>
      <trkpt lat="43.21085" lon="5.48795">
        <ele>135</ele>
        <time>2014-09-28T08:04:13Z</time>
      </trkpt>
      <trkpt lat="43.21075" lon="5.48799">
        <ele>132</ele>
        <time>2014-09-28T08:04:22Z</time>
      </trkpt>
      <trkpt lat="43.21064" lon="5.488">
        <ele>132</ele>
        <time>2014-09-28T08:04:31Z</time>
      </trkpt>
      <trkpt lat="43.21054" lon="5.48805">
        <ele>134</ele>
        <time>2014-09-28T08:04:40Z</time>
      </trkpt>
      <trkpt lat="43.21044" lon="5.48812">
        <ele>134</ele>
        <time>2014-09-28T08:04:49Z</time>
      </trkpt>
      <trkpt lat="43.21038" lon="5.48819">
        <ele>130</ele>
        <time>2014-09-28T08:04:59Z</time>
      </trkpt>
      <trkpt lat="43.21032" lon="5.4883">
        <ele>123</ele>
        <time>2014-09-28T08:05:08Z</time>
      </trkpt>
      <trkpt lat="43.21027" lon="5.4884">
        <ele>122</ele>
        <time>2014-09-28T08:05:17Z</time>
      </trkpt>
      <trkpt lat="43.21022" lon="5.48854">
        <ele>121</ele>
        <time>2014-09-28T08:05:26Z</time>
      </trkpt>
      <trkpt lat="43.21014" lon="5.48863">
        <ele>121</ele>
        <time>2014-09-28T08:05:35Z</time>
      </trkpt>
      <trkpt lat="43.21005" lon="5.48874">
        <ele>121</ele>
        <time>2014-09-28T08:05:45Z</time>
      </trkpt>
      <trkpt lat="43.21004" lon="5.48887">
        <ele>121</ele>
        <time>2014-09-28T08:05:54Z</time>
      </trkpt>
      <trkpt lat="43.21008" lon="5.48897">
        <ele>121</ele>
        <time>2014-09-28T08:06:03Z</time>
      </trkpt>
      <trkpt lat="43.21014" lon="5.4891">
        <ele>121</ele>
        <time>2014-09-28T08:06:13Z</time>
      </trkpt>
      <trkpt lat="43.21022" lon="5.48925">
        <ele>119</ele>
        <time>2014-09-28T08:06:22Z</time>
      </trkpt>
      <trkpt lat="43.21021" lon="5.48943">
        <ele>118</ele>
        <time>2014-09-28T08:06:31Z</time>
      </trkpt>
      <trkpt lat="43.21014" lon="5.4895">
        <ele>119</ele>
        <time>2014-09-28T08:06:40Z</time>
      </trkpt>
      <trkpt lat="43.21006" lon="5.48948">
        <ele>127</ele>
        <time>2014-09-28T08:06:49Z</time>
      </trkpt>
      <trkpt lat="43.20999" lon="5.48944">
        <ele>134</ele>
        <time>2014-09-28T08:06:58Z</time>
      </trkpt>
      <trkpt lat="43.20994" lon="5.48934">
        <ele>145</ele>
        <time>2014-09-28T08:07:07Z</time>
      </trkpt>
      <trkpt lat="43.20982" lon="5.48931">
        <ele>154</ele>
        <time>2014-09-28T08:07:16Z</time>
      </trkpt>
      <trkpt lat="43.20972" lon="5.48932">
        <ele>152</ele>
        <time>2014-09-28T08:07:25Z</time>
      </trkpt>
      <trkpt lat="43.20963" lon="5.48935">
        <ele>137</ele>
        <time>2014-09-28T08:07:34Z</time>
      </trkpt>
      <trkpt lat="43.20958" lon="5.48944">
        <ele>124</ele>
        <time>2014-09-28T08:07:43Z</time>
      </trkpt>
      <trkpt lat="43.20956" lon="5.48953">
        <ele>115</ele>
        <time>2014-09-28T08:07:52Z</time>
      </trkpt>
      <trkpt lat="43.20949" lon="5.48969">
        <ele>113</ele>
        <time>2014-09-28T08:08:02Z</time>
      </trkpt>
      <trkpt lat="43.2095" lon="5.48981">
        <ele>109</ele>
        <time>2014-09-28T08:08:12Z</time>
      </trkpt>
      <trkpt lat="43.20947" lon="5.48991">
        <ele>107</ele>
        <time>2014-09-28T08:08:21Z</time>
      </trkpt>
      <trkpt lat="43.20942" lon="5.49006">
        <ele>106</ele>
        <time>2014-09-28T08:08:30Z</time>
      </trkpt>
      <trkpt lat="43.20937" lon="5.49019">
        <ele>106</ele>
        <time>2014-09-28T08:08:39Z</time>
      </trkpt>
      <trkpt lat="43.20927" lon="5.49026">
        <ele>106</ele>
        <time>2014-09-28T08:08:48Z</time>
      </trkpt>
      <trkpt lat="43.20917" lon="5.49024">
        <ele>106</ele>
        <time>2014-09-28T08:08:58Z</time>
      </trkpt>
      <trkpt lat="43.20904" lon="5.4902">
        <ele>109</ele>
        <time>2014-09-28T08:09:08Z</time>
      </trkpt>
      <trkpt lat="43.20895" lon="5.49013">
        <ele>109</ele>
        <time>2014-09-28T08:09:18Z</time>
      </trkpt>
      <trkpt lat="43.20887" lon="5.49014">
        <ele>105</ele>
        <time>2014-09-28T08:09:29Z</time>
      </trkpt>
      <trkpt lat="43.20889" lon="5.49024">
        <ele>103</ele>
        <time>2014-09-28T08:09:38Z</time>
      </trkpt>
      <trkpt lat="43.20892" lon="5.49037">
        <ele>107</ele>
        <time>2014-09-28T08:09:47Z</time>
      </trkpt>
      <trkpt lat="43.20895" lon="5.49049">
        <ele>108</ele>
        <time>2014-09-28T08:09:56Z</time>
      </trkpt>
      <trkpt lat="43.20895" lon="5.49063">
        <ele>107</ele>
        <time>2014-09-28T08:10:05Z</time>
      </trkpt>
      <trkpt lat="43.20894" lon="5.49073">
        <ele>101</ele>
        <time>2014-09-28T08:10:14Z</time>
      </trkpt>
      <trkpt lat="43.20895" lon="5.49086">
        <ele>100</ele>
        <time>2014-09-28T08:10:23Z</time>
      </trkpt>
      <trkpt lat="43.20889" lon="5.49097">
        <ele>100</ele>
        <time>2014-09-28T08:10:33Z</time>
      </trkpt>
      <trkpt lat="43.2088" lon="5.49102">
        <ele>102</ele>
        <time>2014-09-28T08:10:42Z</time>
      </trkpt>
      <trkpt lat="43.20872" lon="5.4911">
        <ele>103</ele>
        <time>2014-09-28T08:10:52Z</time>
      </trkpt>
      <trkpt lat="43.20864" lon="5.49117">
        <ele>105</ele>
        <time>2014-09-28T08:11:04Z</time>
      </trkpt>
      <trkpt lat="43.20854" lon="5.49127">
        <ele>107</ele>
        <time>2014-09-28T08:11:14Z</time>
      </trkpt>
      <trkpt lat="43.20843" lon="5.49129">
        <ele>110</ele>
        <time>2014-09-28T08:11:23Z</time>
      </trkpt>
      <trkpt lat="43.20834" lon="5.49124">
        <ele>116</ele>
        <time>2014-09-28T08:11:32Z</time>
      </trkpt>
      <trkpt lat="43.20824" lon="5.49112">
        <ele>120</ele>
        <time>2014-09-28T08:11:45Z</time>
      </trkpt>
      <trkpt lat="43.20816" lon="5.49104">
        <ele>122</ele>
        <time>2014-09-28T08:11:55Z</time>
      </trkpt>
      <trkpt lat="43.20804" lon="5.49112">
        <ele>113</ele>
        <time>2014-09-28T08:12:05Z</time>
      </trkpt>
      <trkpt lat="43.20797" lon="5.49113">
        <ele>97</ele>
        <time>2014-09-28T08:12:16Z</time>
      </trkpt>
      <trkpt lat="43.20792" lon="5.49119">
        <ele>90</ele>
        <time>2014-09-28T08:12:25Z</time>
      </trkpt>
      <trkpt lat="43.20781" lon="5.49133">
        <ele>93</ele>
        <time>2014-09-28T08:12:35Z</time>
      </trkpt>
      <trkpt lat="43.20771" lon="5.49138">
        <ele>93</ele>
        <time>2014-09-28T08:12:45Z</time>
      </trkpt>
      <trkpt lat="43.20762" lon="5.49137">
        <ele>94</ele>
        <time>2014-09-28T08:12:55Z</time>
      </trkpt>
      <trkpt lat="43.20748" lon="5.4913">
        <ele>96</ele>
        <time>2014-09-28T08:13:08Z</time>
      </trkpt>
      <trkpt lat="43.20739" lon="5.49135">
        <ele>98</ele>
        <time>2014-09-28T08:13:21Z</time>
      </trkpt>
      <trkpt lat="43.20732" lon="5.49145">
        <ele>97</ele>
        <time>2014-09-28T08:13:37Z</time>
      </trkpt>
      <trkpt lat="43.20722" lon="5.49152">
        <ele>93</ele>
        <time>2014-09-28T08:13:47Z</time>
      </trkpt>
      <trkpt lat="43.20714" lon="5.49158">
        <ele>93</ele>
        <time>2014-09-28T08:13:56Z</time>
      </trkpt>
      <trkpt lat="43.20704" lon="5.4916">
        <ele>93</ele>
        <time>2014-09-28T08:14:05Z</time>
      </trkpt>
      <trkpt lat="43.20691" lon="5.49163">
        <ele>95</ele>
        <time>2014-09-28T08:14:15Z</time>
      </trkpt>
      <trkpt lat="43.20676" lon="5.49154">
        <ele>96</ele>
        <time>2014-09-28T08:14:32Z</time>
      </trkpt>
      <trkpt lat="43.20653" lon="5.49135">
        <ele>96</ele>
        <time>2014-09-28T08:15:06Z</time>
      </trkpt>
      <trkpt lat="43.20644" lon="5.49142">
        <ele>96</ele>
        <time>2014-09-28T08:15:16Z</time>
      </trkpt>
      <trkpt lat="43.20631" lon="5.49149">
        <ele>98</ele>
        <time>2014-09-28T08:15:26Z</time>
      </trkpt>
      <trkpt lat="43.20619" lon="5.49145">
        <ele>101</ele>
        <time>2014-09-28T08:15:36Z</time>
      </trkpt>
      <trkpt lat="43.20605" lon="5.49128">
        <ele>101</ele>
        <time>2014-09-28T08:16:00Z</time>
      </trkpt>
      <trkpt lat="43.20601" lon="5.49139">
        <ele>101</ele>
        <time>2014-09-28T08:16:11Z</time>
      </trkpt>
      <trkpt lat="43.20601" lon="5.49154">
        <ele>101</ele>
        <time>2014-09-28T08:16:35Z</time>
      </trkpt>
      <trkpt lat="43.20586" lon="5.49159">
        <ele>101</ele>
        <time>2014-09-28T08:16:46Z</time>
      </trkpt>
      <trkpt lat="43.20584" lon="5.49154">
        <ele>101</ele>
        <time>2014-09-28T08:16:59Z</time>
      </trkpt>
      <trkpt lat="43.20548" lon="5.49125">
        <ele>98</ele>
        <time>2014-09-28T08:18:07Z</time>
      </trkpt>
      <trkpt lat="43.20538" lon="5.49124">
        <ele>89</ele>
        <time>2014-09-28T08:18:17Z</time>
      </trkpt>
      <trkpt lat="43.20535" lon="5.49113">
        <ele>82</ele>
        <time>2014-09-28T08:18:27Z</time>
      </trkpt>
      <trkpt lat="43.2053" lon="5.4911">
        <ele>74</ele>
        <time>2014-09-28T08:18:37Z</time>
      </trkpt>
      <trkpt lat="43.20532" lon="5.49099">
        <ele>74</ele>
        <time>2014-09-28T08:18:47Z</time>
      </trkpt>
      <trkpt lat="43.20539" lon="5.49094">
        <ele>74</ele>
        <time>2014-09-28T08:18:58Z</time>
      </trkpt>
      <trkpt lat="43.20543" lon="5.49092">
        <ele>74</ele>
        <time>2014-09-28T08:19:09Z</time>
      </trkpt>
      <trkpt lat="43.20533" lon="5.49098">
        <ele>69</ele>
        <time>2014-09-28T08:19:18Z</time>
      </trkpt>
      <trkpt lat="43.20525" lon="5.49099">
        <ele>58</ele>
        <time>2014-09-28T08:19:29Z</time>
      </trkpt>
      <trkpt lat="43.20524" lon="5.49092">
        <ele>47</ele>
        <time>2014-09-28T08:19:41Z</time>
      </trkpt>
      <trkpt lat="43.20521" lon="5.49089">
        <ele>41</ele>
        <time>2014-09-28T08:19:51Z</time>
      </trkpt>
      <trkpt lat="43.20519" lon="5.49089">
        <ele>38</ele>
        <time>2014-09-28T08:20:03Z</time>
      </trkpt>
      <trkpt lat="43.20511" lon="5.49092">
        <ele>31</ele>
        <time>2014-09-28T08:20:13Z</time>
      </trkpt>
      <trkpt lat="43.20503" lon="5.49094">
        <ele>27</ele>
        <time>2014-09-28T08:20:22Z</time>
      </trkpt>
      <trkpt lat="43.20505" lon="5.49089">
        <ele>26</ele>
        <time>2014-09-28T08:20:35Z</time>
      </trkpt>
      <trkpt lat="43.20504" lon="5.49081">
        <ele>24</ele>
        <time>2014-09-28T08:20:50Z</time>
      </trkpt>
      <trkpt lat="43.20515" lon="5.49063">
        <ele>37</ele>
        <time>2014-09-28T08:20:59Z</time>
      </trkpt>
      <trkpt lat="43.20517" lon="5.49063">
        <ele>53</ele>
        <time>2014-09-28T08:21:12Z</time>
      </trkpt>
      <trkpt lat="43.20515" lon="5.49059">
        <ele>60</ele>
        <time>2014-09-28T08:21:22Z</time>
      </trkpt>
      <trkpt lat="43.20515" lon="5.49052">
        <ele>60</ele>
        <time>2014-09-28T08:21:32Z</time>
      </trkpt>
      <trkpt lat="43.20516" lon="5.49051">
        <ele>67</ele>
        <time>2014-09-28T08:21:45Z</time>
      </trkpt>
      <trkpt lat="43.20513" lon="5.49048">
        <ele>67</ele>
        <time>2014-09-28T08:21:57Z</time>
      </trkpt>
      <trkpt lat="43.20509" lon="5.49044">
        <ele>68</ele>
        <time>2014-09-28T08:22:06Z</time>
      </trkpt>
      <trkpt lat="43.20511" lon="5.49041">
        <ele>68</ele>
        <time>2014-09-28T08:22:17Z</time>
      </trkpt>
      <trkpt lat="43.20507" lon="5.4904">
        <ele>68</ele>
        <time>2014-09-28T08:22:28Z</time>
      </trkpt>
      <trkpt lat="43.20509" lon="5.49035">
        <ele>70</ele>
        <time>2014-09-28T08:22:39Z</time>
      </trkpt>
      <trkpt lat="43.20514" lon="5.49029">
        <ele>70</ele>
        <time>2014-09-28T08:22:49Z</time>
      </trkpt>
      <trkpt lat="43.20513" lon="5.49023">
        <ele>70</ele>
        <time>2014-09-28T08:23:00Z</time>
      </trkpt>
      <trkpt lat="43.2051" lon="5.49021">
        <ele>76</ele>
        <time>2014-09-28T08:23:10Z</time>
      </trkpt>
      <trkpt lat="43.20505" lon="5.49018">
        <ele>78</ele>
        <time>2014-09-28T08:23:21Z</time>
      </trkpt>
      <trkpt lat="43.20507" lon="5.49011">
        <ele>78</ele>
        <time>2014-09-28T08:23:35Z</time>
      </trkpt>
      <trkpt lat="43.20508" lon="5.49004">
        <ele>80</ele>
        <time>2014-09-28T08:23:45Z</time>
      </trkpt>
      <trkpt lat="43.20507" lon="5.48998">
        <ele>81</ele>
        <time>2014-09-28T08:23:56Z</time>
      </trkpt>
      <trkpt lat="43.20507" lon="5.48992">
        <ele>81</ele>
        <time>2014-09-28T08:24:05Z</time>
      </trkpt>
      <trkpt lat="43.20505" lon="5.48987">
        <ele>81</ele>
        <time>2014-09-28T08:24:19Z</time>
      </trkpt>
      <trkpt lat="43.20503" lon="5.48987">
        <ele>81</ele>
        <time>2014-09-28T08:24:28Z</time>
      </trkpt>
      <trkpt lat="43.20503" lon="5.48987">
        <ele>79</ele>
        <time>2014-09-28T08:24:39Z</time>
      </trkpt>
      <trkpt lat="43.20507" lon="5.48983">
        <ele>85</ele>
        <time>2014-09-28T08:24:48Z</time>
      </trkpt>
      <trkpt lat="43.20508" lon="5.48979">
        <ele>93</ele>
        <time>2014-09-28T08:25:00Z</time>
      </trkpt>
      <trkpt lat="43.20506" lon="5.48974">
        <ele>95</ele>
        <time>2014-09-28T08:25:09Z</time>
      </trkpt>
      <trkpt lat="43.20506" lon="5.48967">
        <ele>94</ele>
        <time>2014-09-28T08:25:18Z</time>
      </trkpt>
      <trkpt lat="43.20508" lon="5.4896">
        <ele>93</ele>
        <time>2014-09-28T08:25:27Z</time>
      </trkpt>
      <trkpt lat="43.20506" lon="5.48955">
        <ele>93</ele>
        <time>2014-09-28T08:25:40Z</time>
      </trkpt>
      <trkpt lat="43.20507" lon="5.4895">
        <ele>93</ele>
        <time>2014-09-28T08:25:50Z</time>
      </trkpt>
      <trkpt lat="43.20509" lon="5.48944">
        <ele>94</ele>
        <time>2014-09-28T08:26:02Z</time>
      </trkpt>
      <trkpt lat="43.20509" lon="5.48941">
        <ele>99</ele>
        <time>2014-09-28T08:26:14Z</time>
      </trkpt>
      <trkpt lat="43.2051" lon="5.48934">
        <ele>99</ele>
        <time>2014-09-28T08:26:23Z</time>
      </trkpt>
      <trkpt lat="43.20511" lon="5.48932">
        <ele>99</ele>
        <time>2014-09-28T08:26:33Z</time>
      </trkpt>
      <trkpt lat="43.20511" lon="5.48928">
        <ele>99</ele>
        <time>2014-09-28T08:26:44Z</time>
      </trkpt>
      <trkpt lat="43.20512" lon="5.48926">
        <ele>99</ele>
        <time>2014-09-28T08:26:53Z</time>
      </trkpt>
      <trkpt lat="43.20514" lon="5.48923">
        <ele>103</ele>
        <time>2014-09-28T08:27:08Z</time>
      </trkpt>
      <trkpt lat="43.20513" lon="5.48924">
        <ele>104</ele>
        <time>2014-09-28T08:27:24Z</time>
      </trkpt>
      <trkpt lat="43.20513" lon="5.48931">
        <ele>104</ele>
        <time>2014-09-28T08:27:38Z</time>
      </trkpt>
      <trkpt lat="43.2051" lon="5.48938">
        <ele>101</ele>
        <time>2014-09-28T08:27:49Z</time>
      </trkpt>
      <trkpt lat="43.20503" lon="5.48947">
        <ele>100</ele>
        <time>2014-09-28T08:27:59Z</time>
      </trkpt>
      <trkpt lat="43.20496" lon="5.48955">
        <ele>100</ele>
        <time>2014-09-28T08:28:09Z</time>
      </trkpt>
      <trkpt lat="43.2049" lon="5.4896">
        <ele>100</ele>
        <time>2014-09-28T08:28:19Z</time>
      </trkpt>
      <trkpt lat="43.20483" lon="5.48962">
        <ele>100</ele>
        <time>2014-09-28T08:28:29Z</time>
      </trkpt>
      <trkpt lat="43.20476" lon="5.48962">
        <ele>100</ele>
        <time>2014-09-28T08:28:40Z</time>
      </trkpt>
      <trkpt lat="43.20475" lon="5.48965">
        <ele>100</ele>
        <time>2014-09-28T08:29:04Z</time>
      </trkpt>
      <trkpt lat="43.20474" lon="5.48968">
        <ele>100</ele>
        <time>2014-09-28T08:29:17Z</time>
      </trkpt>
      <trkpt lat="43.2048" lon="5.48907">
        <ele>123</ele>
        <time>2014-09-28T08:29:27Z</time>
      </trkpt>
      <trkpt lat="43.20478" lon="5.48905">
        <ele>125</ele>
        <time>2014-09-28T08:29:36Z</time>
      </trkpt>
      <trkpt lat="43.20476" lon="5.48903">
        <ele>127</ele>
        <time>2014-09-28T08:29:46Z</time>
      </trkpt>
      <trkpt lat="43.20478" lon="5.489">
        <ele>128</ele>
        <time>2014-09-28T08:30:15Z</time>
      </trkpt>
      <trkpt lat="43.20477" lon="5.48899">
        <ele>129</ele>
        <time>2014-09-28T08:30:25Z</time>
      </trkpt>
      <trkpt lat="43.20475" lon="5.48898">
        <ele>130</ele>
        <time>2014-09-28T08:30:34Z</time>
      </trkpt>
      <trkpt lat="43.20472" lon="5.48899">
        <ele>131</ele>
        <time>2014-09-28T08:30:47Z</time>
      </trkpt>
      <trkpt lat="43.20471" lon="5.48896">
        <ele>133</ele>
        <time>2014-09-28T08:30:57Z</time>
      </trkpt>
      <trkpt lat="43.20471" lon="5.48897">
        <ele>137</ele>
        <time>2014-09-28T08:31:11Z</time>
      </trkpt>
      <trkpt lat="43.20469" lon="5.48892">
        <ele>137</ele>
        <time>2014-09-28T08:31:22Z</time>
      </trkpt>
      <trkpt lat="43.20468" lon="5.48892">
        <ele>139</ele>
        <time>2014-09-28T08:31:35Z</time>
      </trkpt>
      <trkpt lat="43.20468" lon="5.48889">
        <ele>140</ele>
        <time>2014-09-28T08:31:44Z</time>
      </trkpt>
      <trkpt lat="43.20464" lon="5.48888">
        <ele>140</ele>
        <time>2014-09-28T08:32:03Z</time>
      </trkpt>
      <trkpt lat="43.20463" lon="5.48888">
        <ele>143</ele>
        <time>2014-09-28T08:32:16Z</time>
      </trkpt>
      <trkpt lat="43.20462" lon="5.48887">
        <ele>145</ele>
        <time>2014-09-28T08:32:27Z</time>
      </trkpt>
      <trkpt lat="43.2046" lon="5.48883">
        <ele>146</ele>
        <time>2014-09-28T08:32:43Z</time>
      </trkpt>
      <trkpt lat="43.2046" lon="5.48881">
        <ele>148</ele>
        <time>2014-09-28T08:32:58Z</time>
      </trkpt>
      <trkpt lat="43.20464" lon="5.48877">
        <ele>148</ele>
        <time>2014-09-28T08:33:10Z</time>
      </trkpt>
      <trkpt lat="43.20466" lon="5.48877">
        <ele>149</ele>
        <time>2014-09-28T08:33:42Z</time>
      </trkpt>
      <trkpt lat="43.20465" lon="5.48872">
        <ele>150</ele>
        <time>2014-09-28T08:33:55Z</time>
      </trkpt>
      <trkpt lat="43.20461" lon="5.48872">
        <ele>151</ele>
        <time>2014-09-28T08:34:05Z</time>
      </trkpt>
      <trkpt lat="43.20458" lon="5.48869">
        <ele>152</ele>
        <time>2014-09-28T08:34:16Z</time>
      </trkpt>
      <trkpt lat="43.20456" lon="5.48867">
        <ele>153</ele>
        <time>2014-09-28T08:34:27Z</time>
      </trkpt>
      <trkpt lat="43.20456" lon="5.48865">
        <ele>155</ele>
        <time>2014-09-28T08:34:40Z</time>
      </trkpt>
      <trkpt lat="43.20456" lon="5.48862">
        <ele>157</ele>
        <time>2014-09-28T08:34:49Z</time>
      </trkpt>
      <trkpt lat="43.2046" lon="5.48861">
        <ele>159</ele>
        <time>2014-09-28T08:34:59Z</time>
      </trkpt>
      <trkpt lat="43.20463" lon="5.48856">
        <ele>159</ele>
        <time>2014-09-28T08:35:09Z</time>
      </trkpt>
      <trkpt lat="43.20464" lon="5.48855">
        <ele>160</ele>
        <time>2014-09-28T08:35:31Z</time>
      </trkpt>
      <trkpt lat="43.20467" lon="5.4885">
        <ele>160</ele>
        <time>2014-09-28T08:35:40Z</time>
      </trkpt>
      <trkpt lat="43.2047" lon="5.4885">
        <ele>160</ele>
        <time>2014-09-28T08:35:52Z</time>
      </trkpt>
      <trkpt lat="43.20472" lon="5.48847">
        <ele>160</ele>
        <time>2014-09-28T08:36:03Z</time>
      </trkpt>
      <trkpt lat="43.20472" lon="5.48838">
        <ele>159</ele>
        <time>2014-09-28T08:36:14Z</time>
      </trkpt>
      <trkpt lat="43.20474" lon="5.48833">
        <ele>159</ele>
        <time>2014-09-28T08:36:23Z</time>
      </trkpt>
      <trkpt lat="43.20477" lon="5.48832">
        <ele>159</ele>
        <time>2014-09-28T08:36:35Z</time>
      </trkpt>
      <trkpt lat="43.20484" lon="5.48826">
        <ele>159</ele>
        <time>2014-09-28T08:36:46Z</time>
      </trkpt>
      <trkpt lat="43.20486" lon="5.48823">
        <ele>159</ele>
        <time>2014-09-28T08:37:23Z</time>
      </trkpt>
      <trkpt lat="43.20486" lon="5.48825">
        <ele>159</ele>
        <time>2014-09-28T08:37:52Z</time>
      </trkpt>
      <trkpt lat="43.20485" lon="5.48824">
        <ele>159</ele>
        <time>2014-09-28T08:39:37Z</time>
      </trkpt>
      <trkpt lat="43.20486" lon="5.48825">
        <ele>160</ele>
        <time>2014-09-28T08:40:48Z</time>
      </trkpt>
      <trkpt lat="43.20487" lon="5.48823">
        <ele>160</ele>
        <time>2014-09-28T08:41:01Z</time>
      </trkpt>
      <trkpt lat="43.20491" lon="5.48818">
        <ele>160</ele>
        <time>2014-09-28T08:41:13Z</time>
      </trkpt>
      <trkpt lat="43.20495" lon="5.48812">
        <ele>160</ele>
        <time>2014-09-28T08:41:23Z</time>
      </trkpt>
      <trkpt lat="43.20496" lon="5.48807">
        <ele>160</ele>
        <time>2014-09-28T08:41:35Z</time>
      </trkpt>
      <trkpt lat="43.20496" lon="5.48802">
        <ele>160</ele>
        <time>2014-09-28T08:41:48Z</time>
      </trkpt>
      <trkpt lat="43.20496" lon="5.48799">
        <ele>160</ele>
        <time>2014-09-28T08:42:03Z</time>
      </trkpt>
      <trkpt lat="43.20495" lon="5.48796">
        <ele>163</ele>
        <time>2014-09-28T08:42:19Z</time>
      </trkpt>
      <trkpt lat="43.20494" lon="5.48793">
        <ele>164</ele>
        <time>2014-09-28T08:42:30Z</time>
      </trkpt>
      <trkpt lat="43.20496" lon="5.48788">
        <ele>164</ele>
        <time>2014-09-28T08:42:39Z</time>
      </trkpt>
      <trkpt lat="43.20494" lon="5.48785">
        <ele>165</ele>
        <time>2014-09-28T08:42:48Z</time>
      </trkpt>
      <trkpt lat="43.20495" lon="5.48784">
        <ele>165</ele>
        <time>2014-09-28T08:42:57Z</time>
      </trkpt>
      <trkpt lat="43.20496" lon="5.4878">
        <ele>167</ele>
        <time>2014-09-28T08:43:11Z</time>
      </trkpt>
      <trkpt lat="43.20495" lon="5.4878">
        <ele>169</ele>
        <time>2014-09-28T08:43:26Z</time>
      </trkpt>
      <trkpt lat="43.20496" lon="5.48778">
        <ele>170</ele>
        <time>2014-09-28T08:43:46Z</time>
      </trkpt>
      <trkpt lat="43.20496" lon="5.48774">
        <ele>172</ele>
        <time>2014-09-28T08:43:57Z</time>
      </trkpt>
      <trkpt lat="43.20496" lon="5.48769">
        <ele>175</ele>
        <time>2014-09-28T08:44:10Z</time>
      </trkpt>
      <trkpt lat="43.20494" lon="5.48767">
        <ele>175</ele>
        <time>2014-09-28T08:44:20Z</time>
      </trkpt>
      <trkpt lat="43.20494" lon="5.48765">
        <ele>176</ele>
        <time>2014-09-28T08:44:51Z</time>
      </trkpt>
      <trkpt lat="43.20492" lon="5.4876">
        <ele>176</ele>
        <time>2014-09-28T08:45:05Z</time>
      </trkpt>
      <trkpt lat="43.20492" lon="5.48757">
        <ele>176</ele>
        <time>2014-09-28T08:45:15Z</time>
      </trkpt>
      <trkpt lat="43.20493" lon="5.48755">
        <ele>178</ele>
        <time>2014-09-28T08:45:38Z</time>
      </trkpt>
      <trkpt lat="43.20496" lon="5.48748">
        <ele>178</ele>
        <time>2014-09-28T08:45:48Z</time>
      </trkpt>
      <trkpt lat="43.20498" lon="5.48743">
        <ele>179</ele>
        <time>2014-09-28T08:45:57Z</time>
      </trkpt>
      <trkpt lat="43.20499" lon="5.48738">
        <ele>181</ele>
        <time>2014-09-28T08:46:06Z</time>
      </trkpt>
      <trkpt lat="43.20499" lon="5.48733">
        <ele>183</ele>
        <time>2014-09-28T08:46:16Z</time>
      </trkpt>
      <trkpt lat="43.20501" lon="5.48727">
        <ele>185</ele>
        <time>2014-09-28T08:46:26Z</time>
      </trkpt>
      <trkpt lat="43.20503" lon="5.48721">
        <ele>185</ele>
        <time>2014-09-28T08:46:36Z</time>
      </trkpt>
      <trkpt lat="43.20501" lon="5.48719">
        <ele>186</ele>
        <time>2014-09-28T08:46:47Z</time>
      </trkpt>
      <trkpt lat="43.20502" lon="5.48719">
        <ele>187</ele>
        <time>2014-09-28T08:47:10Z</time>
      </trkpt>
      <trkpt lat="43.20504" lon="5.48718">
        <ele>188</ele>
        <time>2014-09-28T08:47:22Z</time>
      </trkpt>
      <trkpt lat="43.20501" lon="5.48717">
        <ele>188</ele>
        <time>2014-09-28T08:47:40Z</time>
      </trkpt>
      <trkpt lat="43.20502" lon="5.48714">
        <ele>188</ele>
        <time>2014-09-28T08:47:55Z</time>
      </trkpt>
      <trkpt lat="43.205" lon="5.48713">
        <ele>188</ele>
        <time>2014-09-28T08:48:07Z</time>
      </trkpt>
      <trkpt lat="43.20498" lon="5.48708">
        <ele>188</ele>
        <time>2014-09-28T08:48:16Z</time>
      </trkpt>
      <trkpt lat="43.20499" lon="5.48706">
        <ele>190</ele>
        <time>2014-09-28T08:48:34Z</time>
      </trkpt>
      <trkpt lat="43.205" lon="5.48704">
        <ele>190</ele>
        <time>2014-09-28T08:48:43Z</time>
      </trkpt>
      <trkpt lat="43.205" lon="5.48706">
        <ele>191</ele>
        <time>2014-09-28T08:51:13Z</time>
      </trkpt>
      <trkpt lat="43.20499" lon="5.48715">
        <ele>192</ele>
        <time>2014-09-28T08:51:28Z</time>
      </trkpt>
      <trkpt lat="43.20498" lon="5.48718">
        <ele>192</ele>
        <time>2014-09-28T08:51:38Z</time>
      </trkpt>
      <trkpt lat="43.20499" lon="5.48718">
        <ele>192</ele>
        <time>2014-09-28T08:51:54Z</time>
      </trkpt>
      <trkpt lat="43.205" lon="5.48712">
        <ele>192</ele>
        <time>2014-09-28T08:52:04Z</time>
      </trkpt>
      <trkpt lat="43.20502" lon="5.4871">
        <ele>192</ele>
        <time>2014-09-28T08:52:16Z</time>
      </trkpt>
      <trkpt lat="43.20499" lon="5.48707">
        <ele>194</ele>
        <time>2014-09-28T08:52:32Z</time>
      </trkpt>
      <trkpt lat="43.20497" lon="5.48707">
        <ele>194</ele>
        <time>2014-09-28T08:52:43Z</time>
      </trkpt>
      <trkpt lat="43.20499" lon="5.48705">
        <ele>195</ele>
        <time>2014-09-28T08:53:02Z</time>
      </trkpt>
      <trkpt lat="43.205" lon="5.48706">
        <ele>195</ele>
        <time>2014-09-28T08:53:14Z</time>
      </trkpt>
      <trkpt lat="43.20499" lon="5.48708">
        <ele>195</ele>
        <time>2014-09-28T08:53:29Z</time>
      </trkpt>
      <trkpt lat="43.20501" lon="5.48707">
        <ele>195</ele>
        <time>2014-09-28T08:53:41Z</time>
      </trkpt>
      <trkpt lat="43.20504" lon="5.48702">
        <ele>195</ele>
        <time>2014-09-28T08:53:52Z</time>
      </trkpt>
      <trkpt lat="43.20506" lon="5.48696">
        <ele>196</ele>
        <time>2014-09-28T08:54:02Z</time>
      </trkpt>
      <trkpt lat="43.20507" lon="5.48689">
        <ele>197</ele>
        <time>2014-09-28T08:54:12Z</time>
      </trkpt>
      <trkpt lat="43.20511" lon="5.48681">
        <ele>197</ele>
        <time>2014-09-28T08:54:23Z</time>
      </trkpt>
      <trkpt lat="43.2051" lon="5.48675">
        <ele>198</ele>
        <time>2014-09-28T08:54:35Z</time>
      </trkpt>
      <trkpt lat="43.20509" lon="5.48672">
        <ele>201</ele>
        <time>2014-09-28T08:54:44Z</time>
      </trkpt>
      <trkpt lat="43.20511" lon="5.48667">
        <ele>203</ele>
        <time>2014-09-28T08:54:54Z</time>
      </trkpt>
      <trkpt lat="43.20515" lon="5.48661">
        <ele>204</ele>
        <time>2014-09-28T08:55:03Z</time>
      </trkpt>
      <trkpt lat="43.2052" lon="5.48652">
        <ele>204</ele>
        <time>2014-09-28T08:55:13Z</time>
      </trkpt>
      <trkpt lat="43.20525" lon="5.48646">
        <ele>204</ele>
        <time>2014-09-28T08:55:22Z</time>
      </trkpt>
      <trkpt lat="43.20528" lon="5.4864">
        <ele>204</ele>
        <time>2014-09-28T08:55:31Z</time>
      </trkpt>
      <trkpt lat="43.20531" lon="5.48635">
        <ele>204</ele>
        <time>2014-09-28T08:55:40Z</time>
      </trkpt>
      <trkpt lat="43.20535" lon="5.48628">
        <ele>205</ele>
        <time>2014-09-28T08:55:49Z</time>
      </trkpt>
      <trkpt lat="43.20538" lon="5.4862">
        <ele>206</ele>
        <time>2014-09-28T08:55:59Z</time>
      </trkpt>
      <trkpt lat="43.20539" lon="5.48615">
        <ele>207</ele>
        <time>2014-09-28T08:56:10Z</time>
      </trkpt>
      <trkpt lat="43.20541" lon="5.48608">
        <ele>207</ele>
        <time>2014-09-28T08:56:19Z</time>
      </trkpt>
      <trkpt lat="43.20544" lon="5.486">
        <ele>207</ele>
        <time>2014-09-28T08:56:30Z</time>
      </trkpt>
      <trkpt lat="43.20547" lon="5.48592">
        <ele>208</ele>
        <time>2014-09-28T08:56:39Z</time>
      </trkpt>
      <trkpt lat="43.20548" lon="5.48595">
        <ele>208</ele>
        <time>2014-09-28T08:56:56Z</time>
      </trkpt>
      <trkpt lat="43.20549" lon="5.48587">
        <ele>208</ele>
        <time>2014-09-28T08:57:05Z</time>
      </trkpt>
      <trkpt lat="43.20551" lon="5.48582">
        <ele>208</ele>
        <time>2014-09-28T08:57:19Z</time>
      </trkpt>
      <trkpt lat="43.20557" lon="5.48575">
        <ele>208</ele>
        <time>2014-09-28T08:57:30Z</time>
      </trkpt>
      <trkpt lat="43.20559" lon="5.48565">
        <ele>208</ele>
        <time>2014-09-28T08:57:40Z</time>
      </trkpt>
      <trkpt lat="43.2056" lon="5.48559">
        <ele>209</ele>
        <time>2014-09-28T08:57:49Z</time>
      </trkpt>
      <trkpt lat="43.20562" lon="5.4855">
        <ele>211</ele>
        <time>2014-09-28T08:57:59Z</time>
      </trkpt>
      <trkpt lat="43.20562" lon="5.48543">
        <ele>212</ele>
        <time>2014-09-28T08:58:08Z</time>
      </trkpt>
      <trkpt lat="43.20563" lon="5.48534">
        <ele>213</ele>
        <time>2014-09-28T08:58:18Z</time>
      </trkpt>
      <trkpt lat="43.20565" lon="5.48525">
        <ele>215</ele>
        <time>2014-09-28T08:58:28Z</time>
      </trkpt>
      <trkpt lat="43.20566" lon="5.48516">
        <ele>216</ele>
        <time>2014-09-28T08:58:38Z</time>
      </trkpt>
      <trkpt lat="43.20567" lon="5.48505">
        <ele>218</ele>
        <time>2014-09-28T08:58:48Z</time>
      </trkpt>
      <trkpt lat="43.20568" lon="5.48494">
        <ele>219</ele>
        <time>2014-09-28T08:58:58Z</time>
      </trkpt>
      <trkpt lat="43.20569" lon="5.48485">
        <ele>220</ele>
        <time>2014-09-28T08:59:08Z</time>
      </trkpt>
      <trkpt lat="43.20573" lon="5.48476">
        <ele>220</ele>
        <time>2014-09-28T08:59:18Z</time>
      </trkpt>
      <trkpt lat="43.20574" lon="5.48473">
        <ele>220</ele>
        <time>2014-09-28T08:59:32Z</time>
      </trkpt>
      <trkpt lat="43.20575" lon="5.48472">
        <ele>220</ele>
        <time>2014-09-28T08:59:53Z</time>
      </trkpt>
      <trkpt lat="43.20576" lon="5.48474">
        <ele>220</ele>
        <time>2014-09-28T09:00:04Z</time>
      </trkpt>
      <trkpt lat="43.20577" lon="5.48473">
        <ele>220</ele>
        <time>2014-09-28T09:00:18Z</time>
      </trkpt>
      <trkpt lat="43.20587" lon="5.48469">
        <ele>220</ele>
        <time>2014-09-28T09:00:28Z</time>
      </trkpt>
      <trkpt lat="43.20593" lon="5.48461">
        <ele>217</ele>
        <time>2014-09-28T09:00:38Z</time>
      </trkpt>
      <trkpt lat="43.206" lon="5.48455">
        <ele>216</ele>
        <time>2014-09-28T09:00:48Z</time>
      </trkpt>
      <trkpt lat="43.20607" lon="5.48448">
        <ele>215</ele>
        <time>2014-09-28T09:00:57Z</time>
      </trkpt>
      <trkpt lat="43.20614" lon="5.48439">
        <ele>214</ele>
        <time>2014-09-28T09:01:06Z</time>
      </trkpt>
      <trkpt lat="43.20619" lon="5.48429">
        <ele>214</ele>
        <time>2014-09-28T09:01:16Z</time>
      </trkpt>
      <trkpt lat="43.20625" lon="5.48421">
        <ele>214</ele>
        <time>2014-09-28T09:01:25Z</time>
      </trkpt>
      <trkpt lat="43.20632" lon="5.48411">
        <ele>214</ele>
        <time>2014-09-28T09:01:35Z</time>
      </trkpt>
      <trkpt lat="43.20639" lon="5.48404">
        <ele>213</ele>
        <time>2014-09-28T09:01:46Z</time>
      </trkpt>
      <trkpt lat="43.20645" lon="5.48397">
        <ele>212</ele>
        <time>2014-09-28T09:01:55Z</time>
      </trkpt>
      <trkpt lat="43.20651" lon="5.48394">
        <ele>211</ele>
        <time>2014-09-28T09:02:04Z</time>
      </trkpt>
      <trkpt lat="43.20657" lon="5.48388">
        <ele>210</ele>
        <time>2014-09-28T09:02:14Z</time>
      </trkpt>
      <trkpt lat="43.20665" lon="5.48383">
        <ele>210</ele>
        <time>2014-09-28T09:02:24Z</time>
      </trkpt>
      <trkpt lat="43.20667" lon="5.4838">
        <ele>210</ele>
        <time>2014-09-28T09:02:53Z</time>
      </trkpt>
      <trkpt lat="43.20671" lon="5.48379">
        <ele>210</ele>
        <time>2014-09-28T09:03:14Z</time>
      </trkpt>
      <trkpt lat="43.20677" lon="5.4838">
        <ele>210</ele>
        <time>2014-09-28T09:03:24Z</time>
      </trkpt>
      <trkpt lat="43.20686" lon="5.48376">
        <ele>209</ele>
        <time>2014-09-28T09:03:34Z</time>
      </trkpt>
      <trkpt lat="43.20692" lon="5.48369">
        <ele>209</ele>
        <time>2014-09-28T09:03:44Z</time>
      </trkpt>
      <trkpt lat="43.20699" lon="5.48359">
        <ele>209</ele>
        <time>2014-09-28T09:03:54Z</time>
      </trkpt>
      <trkpt lat="43.20705" lon="5.48351">
        <ele>209</ele>
        <time>2014-09-28T09:04:04Z</time>
      </trkpt>
      <trkpt lat="43.20712" lon="5.48341">
        <ele>209</ele>
        <time>2014-09-28T09:04:14Z</time>
      </trkpt>
      <trkpt lat="43.2072" lon="5.48333">
        <ele>209</ele>
        <time>2014-09-28T09:04:24Z</time>
      </trkpt>
      <trkpt lat="43.20721" lon="5.48323">
        <ele>209</ele>
        <time>2014-09-28T09:04:34Z</time>
      </trkpt>
      <trkpt lat="43.20725" lon="5.48311">
        <ele>209</ele>
        <time>2014-09-28T09:04:44Z</time>
      </trkpt>
      <trkpt lat="43.20729" lon="5.48301">
        <ele>209</ele>
        <time>2014-09-28T09:04:53Z</time>
      </trkpt>
      <trkpt lat="43.2073" lon="5.48289">
        <ele>209</ele>
        <time>2014-09-28T09:05:02Z</time>
      </trkpt>
      <trkpt lat="43.20732" lon="5.48277">
        <ele>209</ele>
        <time>2014-09-28T09:05:12Z</time>
      </trkpt>
      <trkpt lat="43.20734" lon="5.48264">
        <ele>209</ele>
        <time>2014-09-28T09:05:22Z</time>
      </trkpt>
      <trkpt lat="43.20732" lon="5.48256">
        <ele>210</ele>
        <time>2014-09-28T09:05:31Z</time>
      </trkpt>
      <trkpt lat="43.20732" lon="5.48246">
        <ele>211</ele>
        <time>2014-09-28T09:05:40Z</time>
      </trkpt>
      <trkpt lat="43.20729" lon="5.48238">
        <ele>211</ele>
        <time>2014-09-28T09:05:51Z</time>
      </trkpt>
      <trkpt lat="43.20727" lon="5.48229">
        <ele>212</ele>
        <time>2014-09-28T09:06:01Z</time>
      </trkpt>
      <trkpt lat="43.20726" lon="5.48221">
        <ele>213</ele>
        <time>2014-09-28T09:06:11Z</time>
      </trkpt>
      <trkpt lat="43.20724" lon="5.48212">
        <ele>215</ele>
        <time>2014-09-28T09:06:21Z</time>
      </trkpt>
      <trkpt lat="43.20723" lon="5.48202">
        <ele>215</ele>
        <time>2014-09-28T09:06:31Z</time>
      </trkpt>
      <trkpt lat="43.20723" lon="5.48191">
        <ele>215</ele>
        <time>2014-09-28T09:06:41Z</time>
      </trkpt>
      <trkpt lat="43.20722" lon="5.48181">
        <ele>215</ele>
        <time>2014-09-28T09:06:51Z</time>
      </trkpt>
      <trkpt lat="43.20721" lon="5.48171">
        <ele>216</ele>
        <time>2014-09-28T09:07:00Z</time>
      </trkpt>
      <trkpt lat="43.2072" lon="5.48161">
        <ele>216</ele>
        <time>2014-09-28T09:07:09Z</time>
      </trkpt>
      <trkpt lat="43.20715" lon="5.4815">
        <ele>216</ele>
        <time>2014-09-28T09:07:19Z</time>
      </trkpt>
      <trkpt lat="43.20711" lon="5.48138">
        <ele>216</ele>
        <time>2014-09-28T09:07:29Z</time>
      </trkpt>
      <trkpt lat="43.20708" lon="5.48128">
        <ele>218</ele>
        <time>2014-09-28T09:07:38Z</time>
      </trkpt>
      <trkpt lat="43.20705" lon="5.48119">
        <ele>221</ele>
        <time>2014-09-28T09:07:47Z</time>
      </trkpt>
      <trkpt lat="43.20702" lon="5.48115">
        <ele>222</ele>
        <time>2014-09-28T09:08:00Z</time>
      </trkpt>
      <trkpt lat="43.20703" lon="5.48117">
        <ele>222</ele>
        <time>2014-09-28T09:08:47Z</time>
      </trkpt>
      <trkpt lat="43.20704" lon="5.48116">
        <ele>222</ele>
        <time>2014-09-28T09:09:09Z</time>
      </trkpt>
      <trkpt lat="43.20704" lon="5.48113">
        <ele>222</ele>
        <time>2014-09-28T09:09:26Z</time>
      </trkpt>
      <trkpt lat="43.20702" lon="5.48106">
        <ele>222</ele>
        <time>2014-09-28T09:09:36Z</time>
      </trkpt>
      <trkpt lat="43.207" lon="5.48099">
        <ele>223</ele>
        <time>2014-09-28T09:09:47Z</time>
      </trkpt>
      <trkpt lat="43.20696" lon="5.48093">
        <ele>223</ele>
        <time>2014-09-28T09:09:57Z</time>
      </trkpt>
      <trkpt lat="43.20694" lon="5.48086">
        <ele>224</ele>
        <time>2014-09-28T09:10:06Z</time>
      </trkpt>
      <trkpt lat="43.20692" lon="5.48081">
        <ele>226</ele>
        <time>2014-09-28T09:10:17Z</time>
      </trkpt>
      <trkpt lat="43.20695" lon="5.48077">
        <ele>226</ele>
        <time>2014-09-28T09:10:26Z</time>
      </trkpt>
      <trkpt lat="43.20694" lon="5.48068">
        <ele>226</ele>
        <time>2014-09-28T09:10:36Z</time>
      </trkpt>
      <trkpt lat="43.20694" lon="5.48059">
        <ele>227</ele>
        <time>2014-09-28T09:10:47Z</time>
      </trkpt>
      <trkpt lat="43.20694" lon="5.48049">
        <ele>229</ele>
        <time>2014-09-28T09:10:58Z</time>
      </trkpt>
      <trkpt lat="43.20691" lon="5.4804">
        <ele>229</ele>
        <time>2014-09-28T09:11:09Z</time>
      </trkpt>
      <trkpt lat="43.20691" lon="5.48038">
        <ele>229</ele>
        <time>2014-09-28T09:11:18Z</time>
      </trkpt>
      <trkpt lat="43.2069" lon="5.48035">
        <ele>229</ele>
        <time>2014-09-28T09:11:27Z</time>
      </trkpt>
      <trkpt lat="43.20687" lon="5.48026">
        <ele>229</ele>
        <time>2014-09-28T09:11:36Z</time>
      </trkpt>
      <trkpt lat="43.20686" lon="5.48013">
        <ele>229</ele>
        <time>2014-09-28T09:11:45Z</time>
      </trkpt>
      <trkpt lat="43.20687" lon="5.48001">
        <ele>229</ele>
        <time>2014-09-28T09:11:54Z</time>
      </trkpt>
      <trkpt lat="43.20687" lon="5.47989">
        <ele>229</ele>
        <time>2014-09-28T09:12:04Z</time>
      </trkpt>
      <trkpt lat="43.20686" lon="5.47978">
        <ele>229</ele>
        <time>2014-09-28T09:12:13Z</time>
      </trkpt>
      <trkpt lat="43.20686" lon="5.47964">
        <ele>229</ele>
        <time>2014-09-28T09:12:23Z</time>
      </trkpt>
      <trkpt lat="43.20685" lon="5.47951">
        <ele>229</ele>
        <time>2014-09-28T09:12:32Z</time>
      </trkpt>
      <trkpt lat="43.20686" lon="5.47938">
        <ele>229</ele>
        <time>2014-09-28T09:12:41Z</time>
      </trkpt>
      <trkpt lat="43.20686" lon="5.47925">
        <ele>229</ele>
        <time>2014-09-28T09:12:51Z</time>
      </trkpt>
      <trkpt lat="43.20686" lon="5.47913">
        <ele>229</ele>
        <time>2014-09-28T09:13:01Z</time>
      </trkpt>
      <trkpt lat="43.20689" lon="5.47903">
        <ele>229</ele>
        <time>2014-09-28T09:13:11Z</time>
      </trkpt>
      <trkpt lat="43.20693" lon="5.47893">
        <ele>229</ele>
        <time>2014-09-28T09:13:21Z</time>
      </trkpt>
      <trkpt lat="43.20693" lon="5.47887">
        <ele>229</ele>
        <time>2014-09-28T09:13:30Z</time>
      </trkpt>
      <trkpt lat="43.20697" lon="5.47887">
        <ele>230</ele>
        <time>2014-09-28T09:13:40Z</time>
      </trkpt>
      <trkpt lat="43.20699" lon="5.47876">
        <ele>230</ele>
        <time>2014-09-28T09:13:49Z</time>
      </trkpt>
      <trkpt lat="43.20705" lon="5.47867">
        <ele>231</ele>
        <time>2014-09-28T09:13:59Z</time>
      </trkpt>
      <trkpt lat="43.20712" lon="5.47862">
        <ele>231</ele>
        <time>2014-09-28T09:14:09Z</time>
      </trkpt>
      <trkpt lat="43.20718" lon="5.47853">
        <ele>231</ele>
        <time>2014-09-28T09:14:19Z</time>
      </trkpt>
      <trkpt lat="43.20721" lon="5.47846">
        <ele>231</ele>
        <time>2014-09-28T09:14:29Z</time>
      </trkpt>
      <trkpt lat="43.20726" lon="5.47838">
        <ele>231</ele>
        <time>2014-09-28T09:14:40Z</time>
      </trkpt>
      <trkpt lat="43.2073" lon="5.47831">
        <ele>231</ele>
        <time>2014-09-28T09:14:53Z</time>
      </trkpt>
      <trkpt lat="43.20735" lon="5.47824">
        <ele>231</ele>
        <time>2014-09-28T09:15:03Z</time>
      </trkpt>
      <trkpt lat="43.20737" lon="5.47819">
        <ele>231</ele>
        <time>2014-09-28T09:15:14Z</time>
      </trkpt>
      <trkpt lat="43.20739" lon="5.47811">
        <ele>231</ele>
        <time>2014-09-28T09:15:23Z</time>
      </trkpt>
      <trkpt lat="43.20744" lon="5.47808">
        <ele>233</ele>
        <time>2014-09-28T09:15:32Z</time>
      </trkpt>
      <trkpt lat="43.20745" lon="5.47804">
        <ele>234</ele>
        <time>2014-09-28T09:15:41Z</time>
      </trkpt>
      <trkpt lat="43.20747" lon="5.478">
        <ele>235</ele>
        <time>2014-09-28T09:16:00Z</time>
      </trkpt>
      <trkpt lat="43.20749" lon="5.47796">
        <ele>235</ele>
        <time>2014-09-28T09:16:09Z</time>
      </trkpt>
      <trkpt lat="43.20752" lon="5.4779">
        <ele>237</ele>
        <time>2014-09-28T09:16:29Z</time>
      </trkpt>
      <trkpt lat="43.20752" lon="5.47783">
        <ele>237</ele>
        <time>2014-09-28T09:16:39Z</time>
      </trkpt>
      <trkpt lat="43.20755" lon="5.47777">
        <ele>238</ele>
        <time>2014-09-28T09:16:49Z</time>
      </trkpt>
      <trkpt lat="43.20758" lon="5.47771">
        <ele>240</ele>
        <time>2014-09-28T09:17:00Z</time>
      </trkpt>
      <trkpt lat="43.20759" lon="5.47771">
        <ele>240</ele>
        <time>2014-09-28T09:17:18Z</time>
      </trkpt>
      <trkpt lat="43.20758" lon="5.4777">
        <ele>240</ele>
        <time>2014-09-28T09:17:35Z</time>
      </trkpt>
      <trkpt lat="43.20758" lon="5.47765">
        <ele>240</ele>
        <time>2014-09-28T09:17:46Z</time>
      </trkpt>
      <trkpt lat="43.20759" lon="5.47759">
        <ele>242</ele>
        <time>2014-09-28T09:17:57Z</time>
      </trkpt>
      <trkpt lat="43.2076" lon="5.47754">
        <ele>244</ele>
        <time>2014-09-28T09:18:07Z</time>
      </trkpt>
      <trkpt lat="43.20763" lon="5.4775">
        <ele>247</ele>
        <time>2014-09-28T09:18:17Z</time>
      </trkpt>
      <trkpt lat="43.20761" lon="5.47748">
        <ele>248</ele>
        <time>2014-09-28T09:18:27Z</time>
      </trkpt>
      <trkpt lat="43.20758" lon="5.47745">
        <ele>249</ele>
        <time>2014-09-28T09:18:39Z</time>
      </trkpt>
      <trkpt lat="43.20755" lon="5.47746">
        <ele>251</ele>
        <time>2014-09-28T09:18:53Z</time>
      </trkpt>
      <trkpt lat="43.20754" lon="5.47742">
        <ele>252</ele>
        <time>2014-09-28T09:19:03Z</time>
      </trkpt>
      <trkpt lat="43.20758" lon="5.4774">
        <ele>253</ele>
        <time>2014-09-28T09:19:12Z</time>
      </trkpt>
      <trkpt lat="43.2076" lon="5.47737">
        <ele>253</ele>
        <time>2014-09-28T09:19:23Z</time>
      </trkpt>
      <trkpt lat="43.20764" lon="5.47734">
        <ele>253</ele>
        <time>2014-09-28T09:19:32Z</time>
      </trkpt>
      <trkpt lat="43.20766" lon="5.47732">
        <ele>254</ele>
        <time>2014-09-28T09:19:52Z</time>
      </trkpt>
      <trkpt lat="43.2077" lon="5.47729">
        <ele>258</ele>
        <time>2014-09-28T09:20:04Z</time>
      </trkpt>
      <trkpt lat="43.20769" lon="5.47722">
        <ele>260</ele>
        <time>2014-09-28T09:20:17Z</time>
      </trkpt>
      <trkpt lat="43.2077" lon="5.47724">
        <ele>265</ele>
        <time>2014-09-28T09:20:28Z</time>
      </trkpt>
      <trkpt lat="43.2077" lon="5.47722">
        <ele>269</ele>
        <time>2014-09-28T09:20:37Z</time>
      </trkpt>
      <trkpt lat="43.20768" lon="5.47719">
        <ele>269</ele>
        <time>2014-09-28T09:20:46Z</time>
      </trkpt>
      <trkpt lat="43.20763" lon="5.47717">
        <ele>269</ele>
        <time>2014-09-28T09:20:56Z</time>
      </trkpt>
      <trkpt lat="43.20757" lon="5.47714">
        <ele>269</ele>
        <time>2014-09-28T09:21:05Z</time>
      </trkpt>
      <trkpt lat="43.20751" lon="5.47708">
        <ele>269</ele>
        <time>2014-09-28T09:21:16Z</time>
      </trkpt>
      <trkpt lat="43.2075" lon="5.47701">
        <ele>272</ele>
        <time>2014-09-28T09:21:28Z</time>
      </trkpt>
      <trkpt lat="43.20752" lon="5.47699">
        <ele>273</ele>
        <time>2014-09-28T09:21:37Z</time>
      </trkpt>
      <trkpt lat="43.20748" lon="5.47695">
        <ele>274</ele>
        <time>2014-09-28T09:21:47Z</time>
      </trkpt>
      <trkpt lat="43.20743" lon="5.47691">
        <ele>275</ele>
        <time>2014-09-28T09:21:56Z</time>
      </trkpt>
      <trkpt lat="43.20739" lon="5.47682">
        <ele>276</ele>
        <time>2014-09-28T09:22:06Z</time>
      </trkpt>
      <trkpt lat="43.20742" lon="5.47676">
        <ele>277</ele>
        <time>2014-09-28T09:22:16Z</time>
      </trkpt>
      <trkpt lat="43.20744" lon="5.47671">
        <ele>278</ele>
        <time>2014-09-28T09:22:28Z</time>
      </trkpt>
      <trkpt lat="43.20747" lon="5.47668">
        <ele>279</ele>
        <time>2014-09-28T09:22:37Z</time>
      </trkpt>
      <trkpt lat="43.2075" lon="5.47664">
        <ele>280</ele>
        <time>2014-09-28T09:22:47Z</time>
      </trkpt>
      <trkpt lat="43.20753" lon="5.47657">
        <ele>281</ele>
        <time>2014-09-28T09:22:57Z</time>
      </trkpt>
      <trkpt lat="43.20758" lon="5.47651">
        <ele>282</ele>
        <time>2014-09-28T09:23:07Z</time>
      </trkpt>
      <trkpt lat="43.20763" lon="5.47647">
        <ele>285</ele>
        <time>2014-09-28T09:23:18Z</time>
      </trkpt>
      <trkpt lat="43.2077" lon="5.47645">
        <ele>285</ele>
        <time>2014-09-28T09:23:28Z</time>
      </trkpt>
      <trkpt lat="43.20772" lon="5.47637">
        <ele>287</ele>
        <time>2014-09-28T09:23:37Z</time>
      </trkpt>
      <trkpt lat="43.20773" lon="5.47627">
        <ele>289</ele>
        <time>2014-09-28T09:23:47Z</time>
      </trkpt>
      <trkpt lat="43.20776" lon="5.47618">
        <ele>291</ele>
        <time>2014-09-28T09:23:57Z</time>
      </trkpt>
      <trkpt lat="43.20777" lon="5.47608">
        <ele>293</ele>
        <time>2014-09-28T09:24:07Z</time>
      </trkpt>
      <trkpt lat="43.20779" lon="5.47599">
        <ele>294</ele>
        <time>2014-09-28T09:24:17Z</time>
      </trkpt>
      <trkpt lat="43.20782" lon="5.47589">
        <ele>297</ele>
        <time>2014-09-28T09:24:28Z</time>
      </trkpt>
      <trkpt lat="43.20788" lon="5.47582">
        <ele>298</ele>
        <time>2014-09-28T09:24:38Z</time>
      </trkpt>
      <trkpt lat="43.20791" lon="5.47577">
        <ele>299</ele>
        <time>2014-09-28T09:24:51Z</time>
      </trkpt>
      <trkpt lat="43.20796" lon="5.47569">
        <ele>300</ele>
        <time>2014-09-28T09:25:01Z</time>
      </trkpt>
      <trkpt lat="43.20799" lon="5.47561">
        <ele>301</ele>
        <time>2014-09-28T09:25:10Z</time>
      </trkpt>
      <trkpt lat="43.20805" lon="5.47554">
        <ele>302</ele>
        <time>2014-09-28T09:25:20Z</time>
      </trkpt>
      <trkpt lat="43.20813" lon="5.47545">
        <ele>302</ele>
        <time>2014-09-28T09:25:30Z</time>
      </trkpt>
      <trkpt lat="43.20818" lon="5.47534">
        <ele>302</ele>
        <time>2014-09-28T09:25:40Z</time>
      </trkpt>
      <trkpt lat="43.20822" lon="5.47524">
        <ele>302</ele>
        <time>2014-09-28T09:25:49Z</time>
      </trkpt>
      <trkpt lat="43.20826" lon="5.47513">
        <ele>303</ele>
        <time>2014-09-28T09:25:59Z</time>
      </trkpt>
      <trkpt lat="43.20827" lon="5.47504">
        <ele>305</ele>
        <time>2014-09-28T09:26:10Z</time>
      </trkpt>
      <trkpt lat="43.20832" lon="5.47494">
        <ele>306</ele>
        <time>2014-09-28T09:26:20Z</time>
      </trkpt>
      <trkpt lat="43.20835" lon="5.47484">
        <ele>307</ele>
        <time>2014-09-28T09:26:29Z</time>
      </trkpt>
      <trkpt lat="43.20838" lon="5.47474">
        <ele>308</ele>
        <time>2014-09-28T09:26:39Z</time>
      </trkpt>
      <trkpt lat="43.20842" lon="5.47466">
        <ele>308</ele>
        <time>2014-09-28T09:26:49Z</time>
      </trkpt>
      <trkpt lat="43.20847" lon="5.47458">
        <ele>308</ele>
        <time>2014-09-28T09:26:59Z</time>
      </trkpt>
      <trkpt lat="43.20851" lon="5.47447">
        <ele>308</ele>
        <time>2014-09-28T09:27:09Z</time>
      </trkpt>
      <trkpt lat="43.20848" lon="5.47437">
        <ele>308</ele>
        <time>2014-09-28T09:27:18Z</time>
      </trkpt>
      <trkpt lat="43.20845" lon="5.47429">
        <ele>308</ele>
        <time>2014-09-28T09:27:30Z</time>
      </trkpt>
      <trkpt lat="43.20842" lon="5.47428">
        <ele>308</ele>
        <time>2014-09-28T09:27:41Z</time>
      </trkpt>
      <trkpt lat="43.20845" lon="5.47419">
        <ele>308</ele>
        <time>2014-09-28T09:27:52Z</time>
      </trkpt>
      <trkpt lat="43.20842" lon="5.4741">
        <ele>308</ele>
        <time>2014-09-28T09:28:03Z</time>
      </trkpt>
      <trkpt lat="43.20843" lon="5.47407">
        <ele>308</ele>
        <time>2014-09-28T09:28:43Z</time>
      </trkpt>
      <trkpt lat="43.20844" lon="5.47408">
        <ele>309</ele>
        <time>2014-09-28T09:30:00Z</time>
      </trkpt>
      <trkpt lat="43.20844" lon="5.47409">
        <ele>309</ele>
        <time>2014-09-28T09:30:14Z</time>
      </trkpt>
      <trkpt lat="43.20845" lon="5.47411">
        <ele>309</ele>
        <time>2014-09-28T09:30:56Z</time>
      </trkpt>
      <trkpt lat="43.20845" lon="5.47409">
        <ele>309</ele>
        <time>2014-09-28T09:31:14Z</time>
      </trkpt>
      <trkpt lat="43.20844" lon="5.47408">
        <ele>309</ele>
        <time>2014-09-28T09:31:41Z</time>
      </trkpt>
      <trkpt lat="43.20845" lon="5.47408">
        <ele>309</ele>
        <time>2014-09-28T09:32:07Z</time>
      </trkpt>
      <trkpt lat="43.20844" lon="5.47408">
        <ele>309</ele>
        <time>2014-09-28T09:33:43Z</time>
      </trkpt>
      <trkpt lat="43.20843" lon="5.47408">
        <ele>309</ele>
        <time>2014-09-28T09:34:49Z</time>
      </trkpt>
      <trkpt lat="43.20842" lon="5.47407">
        <ele>310</ele>
        <time>2014-09-28T09:35:32Z</time>
      </trkpt>
      <trkpt lat="43.20843" lon="5.47407">
        <ele>310</ele>
        <time>2014-09-28T09:36:43Z</time>
      </trkpt>
      <trkpt lat="43.20847" lon="5.47402">
        <ele>310</ele>
        <time>2014-09-28T09:36:53Z</time>
      </trkpt>
      <trkpt lat="43.20852" lon="5.4739">
        <ele>310</ele>
        <time>2014-09-28T09:37:02Z</time>
      </trkpt>
      <trkpt lat="43.2086" lon="5.47382">
        <ele>310</ele>
        <time>2014-09-28T09:37:11Z</time>
      </trkpt>
      <trkpt lat="43.20867" lon="5.47377">
        <ele>310</ele>
        <time>2014-09-28T09:37:21Z</time>
      </trkpt>
      <trkpt lat="43.20875" lon="5.47369">
        <ele>310</ele>
        <time>2014-09-28T09:37:31Z</time>
      </trkpt>
      <trkpt lat="43.20883" lon="5.47362">
        <ele>310</ele>
        <time>2014-09-28T09:37:41Z</time>
      </trkpt>
      <trkpt lat="43.20891" lon="5.47355">
        <ele>310</ele>
        <time>2014-09-28T09:37:51Z</time>
      </trkpt>
      <trkpt lat="43.20895" lon="5.47351">
        <ele>310</ele>
        <time>2014-09-28T09:38:02Z</time>
      </trkpt>
      <trkpt lat="43.209" lon="5.47343">
        <ele>310</ele>
        <time>2014-09-28T09:38:13Z</time>
      </trkpt>
      <trkpt lat="43.20904" lon="5.47334">
        <ele>310</ele>
        <time>2014-09-28T09:38:23Z</time>
      </trkpt>
      <trkpt lat="43.20908" lon="5.47323">
        <ele>310</ele>
        <time>2014-09-28T09:38:32Z</time>
      </trkpt>
      <trkpt lat="43.20914" lon="5.47315">
        <ele>310</ele>
        <time>2014-09-28T09:38:41Z</time>
      </trkpt>
      <trkpt lat="43.20916" lon="5.4731">
        <ele>310</ele>
        <time>2014-09-28T09:38:50Z</time>
      </trkpt>
      <trkpt lat="43.20912" lon="5.47299">
        <ele>310</ele>
        <time>2014-09-28T09:39:00Z</time>
      </trkpt>
      <trkpt lat="43.20917" lon="5.47291">
        <ele>310</ele>
        <time>2014-09-28T09:39:11Z</time>
      </trkpt>
      <trkpt lat="43.20916" lon="5.47289">
        <ele>310</ele>
        <time>2014-09-28T09:39:26Z</time>
      </trkpt>
      <trkpt lat="43.20912" lon="5.47287">
        <ele>310</ele>
        <time>2014-09-28T09:39:44Z</time>
      </trkpt>
      <trkpt lat="43.20908" lon="5.47287">
        <ele>310</ele>
        <time>2014-09-28T09:39:54Z</time>
      </trkpt>
      <trkpt lat="43.20907" lon="5.47286">
        <ele>310</ele>
        <time>2014-09-28T09:40:07Z</time>
      </trkpt>
      <trkpt lat="43.20907" lon="5.47288">
        <ele>310</ele>
        <time>2014-09-28T09:40:34Z</time>
      </trkpt>
      <trkpt lat="43.20909" lon="5.47296">
        <ele>310</ele>
        <time>2014-09-28T09:40:44Z</time>
      </trkpt>
      <trkpt lat="43.20906" lon="5.47292">
        <ele>310</ele>
        <time>2014-09-28T09:40:54Z</time>
      </trkpt>
      <trkpt lat="43.20906" lon="5.47286">
        <ele>310</ele>
        <time>2014-09-28T09:41:23Z</time>
      </trkpt>
      <trkpt lat="43.20907" lon="5.47287">
        <ele>310</ele>
        <time>2014-09-28T09:41:48Z</time>
      </trkpt>
      <trkpt lat="43.20906" lon="5.47286">
        <ele>310</ele>
        <time>2014-09-28T09:43:00Z</time>
      </trkpt>
      <trkpt lat="43.20907" lon="5.47286">
        <ele>310</ele>
        <time>2014-09-28T09:43:11Z</time>
      </trkpt>
      <trkpt lat="43.20906" lon="5.47287">
        <ele>312</ele>
        <time>2014-09-28T09:43:21Z</time>
      </trkpt>
      <trkpt lat="43.2091" lon="5.47287">
        <ele>312</ele>
        <time>2014-09-28T09:43:31Z</time>
      </trkpt>
      <trkpt lat="43.20916" lon="5.4729">
        <ele>312</ele>
        <time>2014-09-28T09:43:40Z</time>
      </trkpt>
      <trkpt lat="43.2092" lon="5.4729">
        <ele>312</ele>
        <time>2014-09-28T09:43:50Z</time>
      </trkpt>
      <trkpt lat="43.20927" lon="5.47293">
        <ele>311</ele>
        <time>2014-09-28T09:44:00Z</time>
      </trkpt>
      <trkpt lat="43.20931" lon="5.47291">
        <ele>309</ele>
        <time>2014-09-28T09:44:10Z</time>
      </trkpt>
      <trkpt lat="43.20937" lon="5.47293">
        <ele>308</ele>
        <time>2014-09-28T09:44:21Z</time>
      </trkpt>
      <trkpt lat="43.2094" lon="5.47286">
        <ele>308</ele>
        <time>2014-09-28T09:44:39Z</time>
      </trkpt>
      <trkpt lat="43.2094" lon="5.47288">
        <ele>309</ele>
        <time>2014-09-28T09:45:05Z</time>
      </trkpt>
      <trkpt lat="43.20945" lon="5.4729">
        <ele>309</ele>
        <time>2014-09-28T09:45:15Z</time>
      </trkpt>
      <trkpt lat="43.20948" lon="5.4729">
        <ele>309</ele>
        <time>2014-09-28T09:45:26Z</time>
      </trkpt>
      <trkpt lat="43.20951" lon="5.47287">
        <ele>308</ele>
        <time>2014-09-28T09:45:35Z</time>
      </trkpt>
      <trkpt lat="43.20958" lon="5.47287">
        <ele>305</ele>
        <time>2014-09-28T09:45:47Z</time>
      </trkpt>
      <trkpt lat="43.20964" lon="5.47288">
        <ele>303</ele>
        <time>2014-09-28T09:45:56Z</time>
      </trkpt>
      <trkpt lat="43.20966" lon="5.4728">
        <ele>298</ele>
        <time>2014-09-28T09:46:05Z</time>
      </trkpt>
      <trkpt lat="43.20966" lon="5.47278">
        <ele>298</ele>
        <time>2014-09-28T09:46:18Z</time>
      </trkpt>
      <trkpt lat="43.20967" lon="5.47273">
        <ele>298</ele>
        <time>2014-09-28T09:46:29Z</time>
      </trkpt>
      <trkpt lat="43.2097" lon="5.47274">
        <ele>298</ele>
        <time>2014-09-28T09:46:39Z</time>
      </trkpt>
      <trkpt lat="43.20972" lon="5.47274">
        <ele>298</ele>
        <time>2014-09-28T09:46:50Z</time>
      </trkpt>
      <trkpt lat="43.20974" lon="5.4727">
        <ele>295</ele>
        <time>2014-09-28T09:47:00Z</time>
      </trkpt>
      <trkpt lat="43.20976" lon="5.4727">
        <ele>295</ele>
        <time>2014-09-28T09:47:10Z</time>
      </trkpt>
      <trkpt lat="43.2098" lon="5.47268">
        <ele>293</ele>
        <time>2014-09-28T09:47:26Z</time>
      </trkpt>
      <trkpt lat="43.20984" lon="5.47267">
        <ele>292</ele>
        <time>2014-09-28T09:47:39Z</time>
      </trkpt>
      <trkpt lat="43.20987" lon="5.47256">
        <ele>289</ele>
        <time>2014-09-28T09:47:48Z</time>
      </trkpt>
      <trkpt lat="43.20993" lon="5.4725">
        <ele>287</ele>
        <time>2014-09-28T09:47:58Z</time>
      </trkpt>
      <trkpt lat="43.20998" lon="5.47244">
        <ele>284</ele>
        <time>2014-09-28T09:48:08Z</time>
      </trkpt>
      <trkpt lat="43.21005" lon="5.47232">
        <ele>284</ele>
        <time>2014-09-28T09:48:17Z</time>
      </trkpt>
      <trkpt lat="43.21011" lon="5.47222">
        <ele>284</ele>
        <time>2014-09-28T09:48:26Z</time>
      </trkpt>
      <trkpt lat="43.21017" lon="5.47212">
        <ele>284</ele>
        <time>2014-09-28T09:48:36Z</time>
      </trkpt>
      <trkpt lat="43.21022" lon="5.47205">
        <ele>284</ele>
        <time>2014-09-28T09:48:46Z</time>
      </trkpt>
      <trkpt lat="43.21027" lon="5.47196">
        <ele>289</ele>
        <time>2014-09-28T09:48:57Z</time>
      </trkpt>
      <trkpt lat="43.21029" lon="5.47194">
        <ele>289</ele>
        <time>2014-09-28T09:49:09Z</time>
      </trkpt>
      <trkpt lat="43.21032" lon="5.4719">
        <ele>289</ele>
        <time>2014-09-28T09:49:19Z</time>
      </trkpt>
      <trkpt lat="43.21035" lon="5.47188">
        <ele>289</ele>
        <time>2014-09-28T09:49:30Z</time>
      </trkpt>
      <trkpt lat="43.21039" lon="5.47187">
        <ele>288</ele>
        <time>2014-09-28T09:49:39Z</time>
      </trkpt>
      <trkpt lat="43.21044" lon="5.47188">
        <ele>285</ele>
        <time>2014-09-28T09:49:48Z</time>
      </trkpt>
      <trkpt lat="43.21049" lon="5.47186">
        <ele>282</ele>
        <time>2014-09-28T09:50:02Z</time>
      </trkpt>
      <trkpt lat="43.21053" lon="5.47188">
        <ele>280</ele>
        <time>2014-09-28T09:50:12Z</time>
      </trkpt>
      <trkpt lat="43.21054" lon="5.47193">
        <ele>279</ele>
        <time>2014-09-28T09:50:21Z</time>
      </trkpt>
      <trkpt lat="43.21059" lon="5.47189">
        <ele>277</ele>
        <time>2014-09-28T09:50:32Z</time>
      </trkpt>
      <trkpt lat="43.2106" lon="5.47182">
        <ele>275</ele>
        <time>2014-09-28T09:50:41Z</time>
      </trkpt>
      <trkpt lat="43.21067" lon="5.47179">
        <ele>271</ele>
        <time>2014-09-28T09:50:50Z</time>
      </trkpt>
      <trkpt lat="43.21072" lon="5.47175">
        <ele>271</ele>
        <time>2014-09-28T09:50:59Z</time>
      </trkpt>
      <trkpt lat="43.21077" lon="5.47169">
        <ele>271</ele>
        <time>2014-09-28T09:51:09Z</time>
      </trkpt>
      <trkpt lat="43.21083" lon="5.47162">
        <ele>268</ele>
        <time>2014-09-28T09:51:19Z</time>
      </trkpt>
      <trkpt lat="43.21086" lon="5.47158">
        <ele>268</ele>
        <time>2014-09-28T09:51:29Z</time>
      </trkpt>
      <trkpt lat="43.21092" lon="5.47148">
        <ele>267</ele>
        <time>2014-09-28T09:51:39Z</time>
      </trkpt>
      <trkpt lat="43.21101" lon="5.47153">
        <ele>267</ele>
        <time>2014-09-28T09:51:49Z</time>
      </trkpt>
      <trkpt lat="43.21109" lon="5.47158">
        <ele>266</ele>
        <time>2014-09-28T09:51:58Z</time>
      </trkpt>
      <trkpt lat="43.21116" lon="5.47166">
        <ele>266</ele>
        <time>2014-09-28T09:52:08Z</time>
      </trkpt>
      <trkpt lat="43.21122" lon="5.47177">
        <ele>266</ele>
        <time>2014-09-28T09:52:18Z</time>
      </trkpt>
      <trkpt lat="43.21127" lon="5.47188">
        <ele>269</ele>
        <time>2014-09-28T09:52:28Z</time>
      </trkpt>
      <trkpt lat="43.21134" lon="5.47196">
        <ele>275</ele>
        <time>2014-09-28T09:52:39Z</time>
      </trkpt>
      <trkpt lat="43.21141" lon="5.47195">
        <ele>281</ele>
        <time>2014-09-28T09:52:49Z</time>
      </trkpt>
      <trkpt lat="43.21147" lon="5.47199">
        <ele>285</ele>
        <time>2014-09-28T09:53:00Z</time>
      </trkpt>
      <trkpt lat="43.2115" lon="5.47204">
        <ele>287</ele>
        <time>2014-09-28T09:53:12Z</time>
      </trkpt>
      <trkpt lat="43.21149" lon="5.47213">
        <ele>288</ele>
        <time>2014-09-28T09:53:21Z</time>
      </trkpt>
      <trkpt lat="43.21146" lon="5.47217">
        <ele>288</ele>
        <time>2014-09-28T09:53:30Z</time>
      </trkpt>
      <trkpt lat="43.21149" lon="5.47219">
        <ele>289</ele>
        <time>2014-09-28T09:53:40Z</time>
      </trkpt>
      <trkpt lat="43.21149" lon="5.47222">
        <ele>290</ele>
        <time>2014-09-28T09:53:49Z</time>
      </trkpt>
      <trkpt lat="43.21146" lon="5.47222">
        <ele>295</ele>
        <time>2014-09-28T09:53:59Z</time>
      </trkpt>
      <trkpt lat="43.21149" lon="5.47226">
        <ele>297</ele>
        <time>2014-09-28T09:54:11Z</time>
      </trkpt>
      <trkpt lat="43.21153" lon="5.47221">
        <ele>297</ele>
        <time>2014-09-28T09:54:23Z</time>
      </trkpt>
      <trkpt lat="43.21159" lon="5.47215">
        <ele>297</ele>
        <time>2014-09-28T09:54:32Z</time>
      </trkpt>
      <trkpt lat="43.21165" lon="5.4721">
        <ele>298</ele>
        <time>2014-09-28T09:54:42Z</time>
      </trkpt>
      <trkpt lat="43.21167" lon="5.47202">
        <ele>298</ele>
        <time>2014-09-28T09:54:52Z</time>
      </trkpt>
      <trkpt lat="43.21164" lon="5.47197">
        <ele>301</ele>
        <time>2014-09-28T09:55:02Z</time>
      </trkpt>
      <trkpt lat="43.21163" lon="5.47192">
        <ele>302</ele>
        <time>2014-09-28T09:55:11Z</time>
      </trkpt>
      <trkpt lat="43.21163" lon="5.47187">
        <ele>304</ele>
        <time>2014-09-28T09:55:20Z</time>
      </trkpt>
      <trkpt lat="43.21163" lon="5.47181">
        <ele>305</ele>
        <time>2014-09-28T09:55:31Z</time>
      </trkpt>
      <trkpt lat="43.21164" lon="5.47176">
        <ele>309</ele>
        <time>2014-09-28T09:55:47Z</time>
      </trkpt>
      <trkpt lat="43.21166" lon="5.47169">
        <ele>310</ele>
        <time>2014-09-28T09:55:57Z</time>
      </trkpt>
      <trkpt lat="43.21168" lon="5.47163">
        <ele>312</ele>
        <time>2014-09-28T09:56:06Z</time>
      </trkpt>
      <trkpt lat="43.21171" lon="5.47167">
        <ele>315</ele>
        <time>2014-09-28T09:56:15Z</time>
      </trkpt>
      <trkpt lat="43.21176" lon="5.47163">
        <ele>315</ele>
        <time>2014-09-28T09:56:27Z</time>
      </trkpt>
      <trkpt lat="43.21181" lon="5.47157">
        <ele>315</ele>
        <time>2014-09-28T09:56:37Z</time>
      </trkpt>
      <trkpt lat="43.21185" lon="5.47158">
        <ele>315</ele>
        <time>2014-09-28T09:56:53Z</time>
      </trkpt>
      <trkpt lat="43.21188" lon="5.47157">
        <ele>315</ele>
        <time>2014-09-28T09:57:05Z</time>
      </trkpt>
      <trkpt lat="43.21191" lon="5.4715">
        <ele>315</ele>
        <time>2014-09-28T09:57:14Z</time>
      </trkpt>
      <trkpt lat="43.21196" lon="5.47145">
        <ele>315</ele>
        <time>2014-09-28T09:57:24Z</time>
      </trkpt>
      <trkpt lat="43.212" lon="5.47139">
        <ele>315</ele>
        <time>2014-09-28T09:57:33Z</time>
      </trkpt>
      <trkpt lat="43.21204" lon="5.47136">
        <ele>315</ele>
        <time>2014-09-28T09:57:45Z</time>
      </trkpt>
      <trkpt lat="43.21209" lon="5.47137">
        <ele>316</ele>
        <time>2014-09-28T09:57:56Z</time>
      </trkpt>
      <trkpt lat="43.21212" lon="5.47143">
        <ele>320</ele>
        <time>2014-09-28T09:58:07Z</time>
      </trkpt>
      <trkpt lat="43.21214" lon="5.47146">
        <ele>322</ele>
        <time>2014-09-28T09:58:16Z</time>
      </trkpt>
      <trkpt lat="43.21214" lon="5.47151">
        <ele>322</ele>
        <time>2014-09-28T09:58:27Z</time>
      </trkpt>
      <trkpt lat="43.21217" lon="5.4715">
        <ele>322</ele>
        <time>2014-09-28T09:58:42Z</time>
      </trkpt>
      <trkpt lat="43.2122" lon="5.47153">
        <ele>322</ele>
        <time>2014-09-28T09:58:53Z</time>
      </trkpt>
      <trkpt lat="43.21223" lon="5.47151">
        <ele>325</ele>
        <time>2014-09-28T09:59:04Z</time>
      </trkpt>
      <trkpt lat="43.21225" lon="5.47151">
        <ele>327</ele>
        <time>2014-09-28T09:59:14Z</time>
      </trkpt>
      <trkpt lat="43.21227" lon="5.4715">
        <ele>329</ele>
        <time>2014-09-28T09:59:23Z</time>
      </trkpt>
      <trkpt lat="43.21231" lon="5.47155">
        <ele>330</ele>
        <time>2014-09-28T09:59:33Z</time>
      </trkpt>
      <trkpt lat="43.21236" lon="5.47156">
        <ele>333</ele>
        <time>2014-09-28T09:59:43Z</time>
      </trkpt>
      <trkpt lat="43.21242" lon="5.47156">
        <ele>334</ele>
        <time>2014-09-28T09:59:54Z</time>
      </trkpt>
      <trkpt lat="43.21246" lon="5.47153">
        <ele>336</ele>
        <time>2014-09-28T10:00:05Z</time>
      </trkpt>
      <trkpt lat="43.21251" lon="5.47149">
        <ele>338</ele>
        <time>2014-09-28T10:00:16Z</time>
      </trkpt>
      <trkpt lat="43.21252" lon="5.47147">
        <ele>341</ele>
        <time>2014-09-28T10:00:25Z</time>
      </trkpt>
      <trkpt lat="43.21257" lon="5.47149">
        <ele>341</ele>
        <time>2014-09-28T10:00:37Z</time>
      </trkpt>
      <trkpt lat="43.21261" lon="5.47147">
        <ele>341</ele>
        <time>2014-09-28T10:00:47Z</time>
      </trkpt>
      <trkpt lat="43.21264" lon="5.47144">
        <ele>341</ele>
        <time>2014-09-28T10:00:56Z</time>
      </trkpt>
      <trkpt lat="43.21269" lon="5.47143">
        <ele>342</ele>
        <time>2014-09-28T10:01:06Z</time>
      </trkpt>
      <trkpt lat="43.21274" lon="5.47147">
        <ele>344</ele>
        <time>2014-09-28T10:01:17Z</time>
      </trkpt>
      <trkpt lat="43.21277" lon="5.47143">
        <ele>346</ele>
        <time>2014-09-28T10:01:28Z</time>
      </trkpt>
      <trkpt lat="43.21282" lon="5.47141">
        <ele>347</ele>
        <time>2014-09-28T10:01:37Z</time>
      </trkpt>
      <trkpt lat="43.21288" lon="5.47142">
        <ele>347</ele>
        <time>2014-09-28T10:01:47Z</time>
      </trkpt>
      <trkpt lat="43.21293" lon="5.47147">
        <ele>349</ele>
        <time>2014-09-28T10:01:57Z</time>
      </trkpt>
      <trkpt lat="43.21296" lon="5.47142">
        <ele>352</ele>
        <time>2014-09-28T10:02:08Z</time>
      </trkpt>
      <trkpt lat="43.21296" lon="5.47137">
        <ele>356</ele>
        <time>2014-09-28T10:02:22Z</time>
      </trkpt>
      <trkpt lat="43.213" lon="5.47138">
        <ele>356</ele>
        <time>2014-09-28T10:02:36Z</time>
      </trkpt>
      <trkpt lat="43.21302" lon="5.4714">
        <ele>356</ele>
        <time>2014-09-28T10:02:45Z</time>
      </trkpt>
      <trkpt lat="43.21309" lon="5.4714">
        <ele>356</ele>
        <time>2014-09-28T10:02:54Z</time>
      </trkpt>
      <trkpt lat="43.2131" lon="5.47139">
        <ele>357</ele>
        <time>2014-09-28T10:03:03Z</time>
      </trkpt>
      <trkpt lat="43.21315" lon="5.47137">
        <ele>359</ele>
        <time>2014-09-28T10:03:13Z</time>
      </trkpt>
      <trkpt lat="43.2132" lon="5.47138">
        <ele>362</ele>
        <time>2014-09-28T10:03:22Z</time>
      </trkpt>
      <trkpt lat="43.21325" lon="5.47138">
        <ele>365</ele>
        <time>2014-09-28T10:03:32Z</time>
      </trkpt>
      <trkpt lat="43.21331" lon="5.47139">
        <ele>368</ele>
        <time>2014-09-28T10:03:42Z</time>
      </trkpt>
      <trkpt lat="43.21334" lon="5.4714">
        <ele>368</ele>
        <time>2014-09-28T10:03:55Z</time>
      </trkpt>
      <trkpt lat="43.21332" lon="5.47138">
        <ele>368</ele>
        <time>2014-09-28T10:04:05Z</time>
      </trkpt>
      <trkpt lat="43.21331" lon="5.4714">
        <ele>368</ele>
        <time>2014-09-28T10:04:17Z</time>
      </trkpt>
      <trkpt lat="43.21329" lon="5.4714">
        <ele>368</ele>
        <time>2014-09-28T10:04:28Z</time>
      </trkpt>
      <trkpt lat="43.2133" lon="5.47141">
        <ele>368</ele>
        <time>2014-09-28T10:04:39Z</time>
      </trkpt>
      <trkpt lat="43.21331" lon="5.47141">
        <ele>368</ele>
        <time>2014-09-28T10:04:52Z</time>
      </trkpt>
      <trkpt lat="43.21333" lon="5.47145">
        <ele>368</ele>
        <time>2014-09-28T10:05:01Z</time>
      </trkpt>
      <trkpt lat="43.21333" lon="5.47146">
        <ele>368</ele>
        <time>2014-09-28T10:05:15Z</time>
      </trkpt>
      <trkpt lat="43.21334" lon="5.47145">
        <ele>368</ele>
        <time>2014-09-28T10:05:30Z</time>
      </trkpt>
      <trkpt lat="43.21333" lon="5.4714">
        <ele>368</ele>
        <time>2014-09-28T10:05:43Z</time>
      </trkpt>
      <trkpt lat="43.21331" lon="5.47139">
        <ele>368</ele>
        <time>2014-09-28T10:06:01Z</time>
      </trkpt>
      <trkpt lat="43.21329" lon="5.47139">
        <ele>368</ele>
        <time>2014-09-28T10:06:22Z</time>
      </trkpt>
      <trkpt lat="43.21341" lon="5.47139">
        <ele>367</ele>
        <time>2014-09-28T10:06:37Z</time>
      </trkpt>
      <trkpt lat="43.21347" lon="5.47129">
        <ele>367</ele>
        <time>2014-09-28T10:06:46Z</time>
      </trkpt>
      <trkpt lat="43.21347" lon="5.47116">
        <ele>365</ele>
        <time>2014-09-28T10:06:56Z</time>
      </trkpt>
      <trkpt lat="43.21343" lon="5.47105">
        <ele>363</ele>
        <time>2014-09-28T10:07:06Z</time>
      </trkpt>
      <trkpt lat="43.21341" lon="5.47094">
        <ele>363</ele>
        <time>2014-09-28T10:07:16Z</time>
      </trkpt>
      <trkpt lat="43.21342" lon="5.47087">
        <ele>361</ele>
        <time>2014-09-28T10:07:26Z</time>
      </trkpt>
      <trkpt lat="43.21342" lon="5.47074">
        <ele>360</ele>
        <time>2014-09-28T10:07:35Z</time>
      </trkpt>
      <trkpt lat="43.21347" lon="5.47063">
        <ele>359</ele>
        <time>2014-09-28T10:07:44Z</time>
      </trkpt>
      <trkpt lat="43.21344" lon="5.47052">
        <ele>359</ele>
        <time>2014-09-28T10:07:53Z</time>
      </trkpt>
      <trkpt lat="43.21339" lon="5.47042">
        <ele>359</ele>
        <time>2014-09-28T10:08:02Z</time>
      </trkpt>
      <trkpt lat="43.21342" lon="5.47032">
        <ele>359</ele>
        <time>2014-09-28T10:08:11Z</time>
      </trkpt>
      <trkpt lat="43.21344" lon="5.47028">
        <ele>359</ele>
        <time>2014-09-28T10:08:20Z</time>
      </trkpt>
      <trkpt lat="43.21344" lon="5.47019">
        <ele>359</ele>
        <time>2014-09-28T10:08:30Z</time>
      </trkpt>
      <trkpt lat="43.2135" lon="5.47011">
        <ele>359</ele>
        <time>2014-09-28T10:08:40Z</time>
      </trkpt>
      <trkpt lat="43.21357" lon="5.47004">
        <ele>359</ele>
        <time>2014-09-28T10:08:50Z</time>
      </trkpt>
      <trkpt lat="43.21363" lon="5.46999">
        <ele>355</ele>
        <time>2014-09-28T10:09:00Z</time>
      </trkpt>
      <trkpt lat="43.21363" lon="5.46987">
        <ele>354</ele>
        <time>2014-09-28T10:09:09Z</time>
      </trkpt>
      <trkpt lat="43.21366" lon="5.46978">
        <ele>356</ele>
        <time>2014-09-28T10:09:18Z</time>
      </trkpt>
      <trkpt lat="43.21368" lon="5.46968">
        <ele>358</ele>
        <time>2014-09-28T10:09:28Z</time>
      </trkpt>
      <trkpt lat="43.21372" lon="5.46963">
        <ele>360</ele>
        <time>2014-09-28T10:09:38Z</time>
      </trkpt>
      <trkpt lat="43.21376" lon="5.46959">
        <ele>362</ele>
        <time>2014-09-28T10:09:47Z</time>
      </trkpt>
      <trkpt lat="43.21382" lon="5.46955">
        <ele>364</ele>
        <time>2014-09-28T10:09:58Z</time>
      </trkpt>
      <trkpt lat="43.21386" lon="5.46949">
        <ele>366</ele>
        <time>2014-09-28T10:10:09Z</time>
      </trkpt>
      <trkpt lat="43.21389" lon="5.46945">
        <ele>367</ele>
        <time>2014-09-28T10:10:18Z</time>
      </trkpt>
      <trkpt lat="43.21392" lon="5.46945">
        <ele>369</ele>
        <time>2014-09-28T10:10:28Z</time>
      </trkpt>
      <trkpt lat="43.21393" lon="5.46938">
        <ele>371</ele>
        <time>2014-09-28T10:10:37Z</time>
      </trkpt>
      <trkpt lat="43.21395" lon="5.46929">
        <ele>371</ele>
        <time>2014-09-28T10:10:47Z</time>
      </trkpt>
      <trkpt lat="43.21396" lon="5.46922">
        <ele>372</ele>
        <time>2014-09-28T10:10:57Z</time>
      </trkpt>
      <trkpt lat="43.21401" lon="5.46916">
        <ele>375</ele>
        <time>2014-09-28T10:11:09Z</time>
      </trkpt>
      <trkpt lat="43.21406" lon="5.46911">
        <ele>376</ele>
        <time>2014-09-28T10:11:19Z</time>
      </trkpt>
      <trkpt lat="43.21407" lon="5.46901">
        <ele>378</ele>
        <time>2014-09-28T10:11:29Z</time>
      </trkpt>
      <trkpt lat="43.21407" lon="5.4689">
        <ele>379</ele>
        <time>2014-09-28T10:11:39Z</time>
      </trkpt>
      <trkpt lat="43.21411" lon="5.46881">
        <ele>380</ele>
        <time>2014-09-28T10:11:48Z</time>
      </trkpt>
      <trkpt lat="43.21415" lon="5.46875">
        <ele>381</ele>
        <time>2014-09-28T10:11:57Z</time>
      </trkpt>
      <trkpt lat="43.21418" lon="5.46871">
        <ele>384</ele>
        <time>2014-09-28T10:12:06Z</time>
      </trkpt>
      <trkpt lat="43.21426" lon="5.46865">
        <ele>385</ele>
        <time>2014-09-28T10:12:16Z</time>
      </trkpt>
      <trkpt lat="43.21432" lon="5.46859">
        <ele>385</ele>
        <time>2014-09-28T10:12:26Z</time>
      </trkpt>
      <trkpt lat="43.21441" lon="5.46852">
        <ele>385</ele>
        <time>2014-09-28T10:12:37Z</time>
      </trkpt>
      <trkpt lat="43.21448" lon="5.46845">
        <ele>385</ele>
        <time>2014-09-28T10:12:47Z</time>
      </trkpt>
      <trkpt lat="43.21456" lon="5.46842">
        <ele>385</ele>
        <time>2014-09-28T10:12:57Z</time>
      </trkpt>
      <trkpt lat="43.21461" lon="5.4683">
        <ele>384</ele>
        <time>2014-09-28T10:13:08Z</time>
      </trkpt>
      <trkpt lat="43.21466" lon="5.46825">
        <ele>384</ele>
        <time>2014-09-28T10:13:20Z</time>
      </trkpt>
      <trkpt lat="43.21471" lon="5.46813">
        <ele>384</ele>
        <time>2014-09-28T10:13:30Z</time>
      </trkpt>
      <trkpt lat="43.21481" lon="5.46808">
        <ele>384</ele>
        <time>2014-09-28T10:13:40Z</time>
      </trkpt>
      <trkpt lat="43.21491" lon="5.46803">
        <ele>384</ele>
        <time>2014-09-28T10:13:51Z</time>
      </trkpt>
      <trkpt lat="43.21495" lon="5.468">
        <ele>385</ele>
        <time>2014-09-28T10:14:01Z</time>
      </trkpt>
      <trkpt lat="43.21505" lon="5.46794">
        <ele>385</ele>
        <time>2014-09-28T10:14:12Z</time>
      </trkpt>
      <trkpt lat="43.21513" lon="5.46786">
        <ele>385</ele>
        <time>2014-09-28T10:14:23Z</time>
      </trkpt>
      <trkpt lat="43.21521" lon="5.46781">
        <ele>384</ele>
        <time>2014-09-28T10:14:33Z</time>
      </trkpt>
      <trkpt lat="43.21531" lon="5.46779">
        <ele>379</ele>
        <time>2014-09-28T10:14:43Z</time>
      </trkpt>
      <trkpt lat="43.2154" lon="5.46774">
        <ele>373</ele>
        <time>2014-09-28T10:14:54Z</time>
      </trkpt>
      <trkpt lat="43.21546" lon="5.46764">
        <ele>373</ele>
        <time>2014-09-28T10:15:03Z</time>
      </trkpt>
      <trkpt lat="43.21551" lon="5.46755">
        <ele>375</ele>
        <time>2014-09-28T10:15:13Z</time>
      </trkpt>
      <trkpt lat="43.21557" lon="5.46746">
        <ele>377</ele>
        <time>2014-09-28T10:15:23Z</time>
      </trkpt>
      <trkpt lat="43.2156" lon="5.46735">
        <ele>383</ele>
        <time>2014-09-28T10:15:33Z</time>
      </trkpt>
      <trkpt lat="43.21563" lon="5.46726">
        <ele>388</ele>
        <time>2014-09-28T10:15:43Z</time>
      </trkpt>
      <trkpt lat="43.21571" lon="5.4672">
        <ele>393</ele>
        <time>2014-09-28T10:15:53Z</time>
      </trkpt>
      <trkpt lat="43.21574" lon="5.46708">
        <ele>394</ele>
        <time>2014-09-28T10:16:04Z</time>
      </trkpt>
      <trkpt lat="43.21578" lon="5.467">
        <ele>396</ele>
        <time>2014-09-28T10:16:15Z</time>
      </trkpt>
      <trkpt lat="43.21581" lon="5.46696">
        <ele>399</ele>
        <time>2014-09-28T10:16:25Z</time>
      </trkpt>
      <trkpt lat="43.21584" lon="5.4669">
        <ele>402</ele>
        <time>2014-09-28T10:16:34Z</time>
      </trkpt>
      <trkpt lat="43.21585" lon="5.46686">
        <ele>402</ele>
        <time>2014-09-28T10:16:43Z</time>
      </trkpt>
      <trkpt lat="43.2158" lon="5.46682">
        <ele>403</ele>
        <time>2014-09-28T10:16:53Z</time>
      </trkpt>
      <trkpt lat="43.21573" lon="5.46678">
        <ele>405</ele>
        <time>2014-09-28T10:17:03Z</time>
      </trkpt>
      <trkpt lat="43.21566" lon="5.46676">
        <ele>407</ele>
        <time>2014-09-28T10:17:14Z</time>
      </trkpt>
      <trkpt lat="43.21561" lon="5.46674">
        <ele>407</ele>
        <time>2014-09-28T10:17:23Z</time>
      </trkpt>
      <trkpt lat="43.21553" lon="5.46674">
        <ele>411</ele>
        <time>2014-09-28T10:17:34Z</time>
      </trkpt>
      <trkpt lat="43.21547" lon="5.4667">
        <ele>416</ele>
        <time>2014-09-28T10:17:44Z</time>
      </trkpt>
      <trkpt lat="43.21534" lon="5.46667">
        <ele>429</ele>
        <time>2014-09-28T10:17:54Z</time>
      </trkpt>
      <trkpt lat="43.21531" lon="5.46667">
        <ele>433</ele>
        <time>2014-09-28T10:18:03Z</time>
      </trkpt>
      <trkpt lat="43.21526" lon="5.46666">
        <ele>433</ele>
        <time>2014-09-28T10:18:13Z</time>
      </trkpt>
      <trkpt lat="43.21523" lon="5.46663">
        <ele>430</ele>
        <time>2014-09-28T10:18:24Z</time>
      </trkpt>
      <trkpt lat="43.21522" lon="5.46656">
        <ele>422</ele>
        <time>2014-09-28T10:18:35Z</time>
      </trkpt>
      <trkpt lat="43.21514" lon="5.46654">
        <ele>415</ele>
        <time>2014-09-28T10:18:46Z</time>
      </trkpt>
      <trkpt lat="43.21512" lon="5.46655">
        <ele>412</ele>
        <time>2014-09-28T10:18:56Z</time>
      </trkpt>
      <trkpt lat="43.21501" lon="5.46659">
        <ele>410</ele>
        <time>2014-09-28T10:19:07Z</time>
      </trkpt>
      <trkpt lat="43.21491" lon="5.4666">
        <ele>409</ele>
        <time>2014-09-28T10:19:16Z</time>
      </trkpt>
      <trkpt lat="43.2148" lon="5.46659">
        <ele>409</ele>
        <time>2014-09-28T10:19:26Z</time>
      </trkpt>
      <trkpt lat="43.21473" lon="5.46658">
        <ele>408</ele>
        <time>2014-09-28T10:19:35Z</time>
      </trkpt>
      <trkpt lat="43.21465" lon="5.46653">
        <ele>408</ele>
        <time>2014-09-28T10:19:45Z</time>
      </trkpt>
      <trkpt lat="43.2146" lon="5.46649">
        <ele>410</ele>
        <time>2014-09-28T10:19:54Z</time>
      </trkpt>
      <trkpt lat="43.21454" lon="5.46645">
        <ele>414</ele>
        <time>2014-09-28T10:20:04Z</time>
      </trkpt>
      <trkpt lat="43.21447" lon="5.46642">
        <ele>417</ele>
        <time>2014-09-28T10:20:15Z</time>
      </trkpt>
      <trkpt lat="43.21443" lon="5.46637">
        <ele>419</ele>
        <time>2014-09-28T10:20:24Z</time>
      </trkpt>
      <trkpt lat="43.21436" lon="5.46635">
        <ele>421</ele>
        <time>2014-09-28T10:20:34Z</time>
      </trkpt>
      <trkpt lat="43.2143" lon="5.46632">
        <ele>422</ele>
        <time>2014-09-28T10:20:44Z</time>
      </trkpt>
      <trkpt lat="43.21425" lon="5.46629">
        <ele>424</ele>
        <time>2014-09-28T10:20:53Z</time>
      </trkpt>
      <trkpt lat="43.21419" lon="5.46628">
        <ele>426</ele>
        <time>2014-09-28T10:21:02Z</time>
      </trkpt>
      <trkpt lat="43.21416" lon="5.46621">
        <ele>427</ele>
        <time>2014-09-28T10:21:12Z</time>
      </trkpt>
      <trkpt lat="43.21421" lon="5.46613">
        <ele>427</ele>
        <time>2014-09-28T10:21:21Z</time>
      </trkpt>
      <trkpt lat="43.2143" lon="5.46609">
        <ele>427</ele>
        <time>2014-09-28T10:21:30Z</time>
      </trkpt>
      <trkpt lat="43.21438" lon="5.46608">
        <ele>427</ele>
        <time>2014-09-28T10:21:39Z</time>
      </trkpt>
      <trkpt lat="43.21446" lon="5.46607">
        <ele>427</ele>
        <time>2014-09-28T10:21:49Z</time>
      </trkpt>
      <trkpt lat="43.21453" lon="5.46604">
        <ele>427</ele>
        <time>2014-09-28T10:22:00Z</time>
      </trkpt>
      <trkpt lat="43.2146" lon="5.46601">
        <ele>427</ele>
        <time>2014-09-28T10:22:10Z</time>
      </trkpt>
      <trkpt lat="43.21466" lon="5.46601">
        <ele>427</ele>
        <time>2014-09-28T10:22:19Z</time>
      </trkpt>
      <trkpt lat="43.2147" lon="5.46598">
        <ele>428</ele>
        <time>2014-09-28T10:22:29Z</time>
      </trkpt>
      <trkpt lat="43.21472" lon="5.46595">
        <ele>429</ele>
        <time>2014-09-28T10:22:38Z</time>
      </trkpt>
      <trkpt lat="43.21477" lon="5.46596">
        <ele>430</ele>
        <time>2014-09-28T10:22:54Z</time>
      </trkpt>
      <trkpt lat="43.21476" lon="5.46597">
        <ele>432</ele>
        <time>2014-09-28T10:23:05Z</time>
      </trkpt>
      <trkpt lat="43.21476" lon="5.46596">
        <ele>432</ele>
        <time>2014-09-28T10:23:22Z</time>
      </trkpt>
      <trkpt lat="43.21477" lon="5.46593">
        <ele>432</ele>
        <time>2014-09-28T10:23:34Z</time>
      </trkpt>
      <trkpt lat="43.21476" lon="5.46593">
        <ele>432</ele>
        <time>2014-09-28T10:23:45Z</time>
      </trkpt>
      <trkpt lat="43.21476" lon="5.46594">
        <ele>432</ele>
        <time>2014-09-28T10:24:12Z</time>
      </trkpt>
      <trkpt lat="43.21479" lon="5.46597">
        <ele>432</ele>
        <time>2014-09-28T10:24:23Z</time>
      </trkpt>
      <trkpt lat="43.21482" lon="5.46601">
        <ele>432</ele>
        <time>2014-09-28T10:24:32Z</time>
      </trkpt>
      <trkpt lat="43.21488" lon="5.46602">
        <ele>432</ele>
        <time>2014-09-28T10:24:42Z</time>
      </trkpt>
      <trkpt lat="43.21491" lon="5.46603">
        <ele>432</ele>
        <time>2014-09-28T10:24:53Z</time>
      </trkpt>
      <trkpt lat="43.21497" lon="5.46605">
        <ele>432</ele>
        <time>2014-09-28T10:25:04Z</time>
      </trkpt>
      <trkpt lat="43.21503" lon="5.46597">
        <ele>432</ele>
        <time>2014-09-28T10:25:14Z</time>
      </trkpt>
      <trkpt lat="43.21509" lon="5.4659">
        <ele>432</ele>
        <time>2014-09-28T10:25:26Z</time>
      </trkpt>
      <trkpt lat="43.21514" lon="5.46587">
        <ele>432</ele>
        <time>2014-09-28T10:25:37Z</time>
      </trkpt>
      <trkpt lat="43.2152" lon="5.46582">
        <ele>432</ele>
        <time>2014-09-28T10:25:47Z</time>
      </trkpt>
      <trkpt lat="43.21526" lon="5.46586">
        <ele>432</ele>
        <time>2014-09-28T10:25:58Z</time>
      </trkpt>
      <trkpt lat="43.21532" lon="5.46583">
        <ele>432</ele>
        <time>2014-09-28T10:26:08Z</time>
      </trkpt>
      <trkpt lat="43.21539" lon="5.46584">
        <ele>434</ele>
        <time>2014-09-28T10:26:18Z</time>
      </trkpt>
      <trkpt lat="43.21546" lon="5.46581">
        <ele>436</ele>
        <time>2014-09-28T10:26:30Z</time>
      </trkpt>
      <trkpt lat="43.21551" lon="5.46578">
        <ele>436</ele>
        <time>2014-09-28T10:26:40Z</time>
      </trkpt>
      <trkpt lat="43.21557" lon="5.46575">
        <ele>437</ele>
        <time>2014-09-28T10:26:53Z</time>
      </trkpt>
      <trkpt lat="43.21559" lon="5.46576">
        <ele>439</ele>
        <time>2014-09-28T10:27:03Z</time>
      </trkpt>
      <trkpt lat="43.21561" lon="5.46576">
        <ele>442</ele>
        <time>2014-09-28T10:27:13Z</time>
      </trkpt>
      <trkpt lat="43.21564" lon="5.46578">
        <ele>444</ele>
        <time>2014-09-28T10:27:29Z</time>
      </trkpt>
      <trkpt lat="43.21567" lon="5.46581">
        <ele>445</ele>
        <time>2014-09-28T10:27:38Z</time>
      </trkpt>
      <trkpt lat="43.21571" lon="5.46585">
        <ele>446</ele>
        <time>2014-09-28T10:27:55Z</time>
      </trkpt>
      <trkpt lat="43.21573" lon="5.46587">
        <ele>446</ele>
        <time>2014-09-28T10:28:07Z</time>
      </trkpt>
      <trkpt lat="43.21577" lon="5.4659">
        <ele>447</ele>
        <time>2014-09-28T10:28:24Z</time>
      </trkpt>
      <trkpt lat="43.2158" lon="5.46588">
        <ele>448</ele>
        <time>2014-09-28T10:28:35Z</time>
      </trkpt>
      <trkpt lat="43.21585" lon="5.46589">
        <ele>451</ele>
        <time>2014-09-28T10:28:45Z</time>
      </trkpt>
      <trkpt lat="43.2159" lon="5.4659">
        <ele>453</ele>
        <time>2014-09-28T10:28:59Z</time>
      </trkpt>
      <trkpt lat="43.2159" lon="5.4659">
        <ele>457</ele>
        <time>2014-09-28T10:29:24Z</time>
      </trkpt>
      <trkpt lat="43.21591" lon="5.4659">
        <ele>457</ele>
        <time>2014-09-28T10:29:34Z</time>
      </trkpt>
      <trkpt lat="43.21593" lon="5.46592">
        <ele>457</ele>
        <time>2014-09-28T10:29:43Z</time>
      </trkpt>
      <trkpt lat="43.21599" lon="5.46593">
        <ele>457</ele>
        <time>2014-09-28T10:29:54Z</time>
      </trkpt>
      <trkpt lat="43.21603" lon="5.46587">
        <ele>458</ele>
        <time>2014-09-28T10:30:03Z</time>
      </trkpt>
      <trkpt lat="43.21608" lon="5.46582">
        <ele>459</ele>
        <time>2014-09-28T10:30:13Z</time>
      </trkpt>
      <trkpt lat="43.21614" lon="5.46579">
        <ele>460</ele>
        <time>2014-09-28T10:30:24Z</time>
      </trkpt>
      <trkpt lat="43.21619" lon="5.46576">
        <ele>462</ele>
        <time>2014-09-28T10:30:34Z</time>
      </trkpt>
      <trkpt lat="43.21621" lon="5.46576">
        <ele>463</ele>
        <time>2014-09-28T10:30:46Z</time>
      </trkpt>
      <trkpt lat="43.21622" lon="5.46577">
        <ele>463</ele>
        <time>2014-09-28T10:31:04Z</time>
      </trkpt>
      <trkpt lat="43.21629" lon="5.46577">
        <ele>465</ele>
        <time>2014-09-28T10:31:15Z</time>
      </trkpt>
      <trkpt lat="43.21635" lon="5.46576">
        <ele>466</ele>
        <time>2014-09-28T10:31:24Z</time>
      </trkpt>
      <trkpt lat="43.21642" lon="5.46571">
        <ele>467</ele>
        <time>2014-09-28T10:31:34Z</time>
      </trkpt>
      <trkpt lat="43.21643" lon="5.46569">
        <ele>467</ele>
        <time>2014-09-28T10:31:44Z</time>
      </trkpt>
      <trkpt lat="43.21648" lon="5.46563">
        <ele>467</ele>
        <time>2014-09-28T10:31:55Z</time>
      </trkpt>
      <trkpt lat="43.21653" lon="5.46562">
        <ele>467</ele>
        <time>2014-09-28T10:32:05Z</time>
      </trkpt>
      <trkpt lat="43.21658" lon="5.46556">
        <ele>467</ele>
        <time>2014-09-28T10:32:15Z</time>
      </trkpt>
      <trkpt lat="43.21663" lon="5.46552">
        <ele>467</ele>
        <time>2014-09-28T10:32:25Z</time>
      </trkpt>
      <trkpt lat="43.21669" lon="5.46551">
        <ele>469</ele>
        <time>2014-09-28T10:32:34Z</time>
      </trkpt>
      <trkpt lat="43.21675" lon="5.46549">
        <ele>469</ele>
        <time>2014-09-28T10:32:44Z</time>
      </trkpt>
      <trkpt lat="43.2168" lon="5.46543">
        <ele>471</ele>
        <time>2014-09-28T10:32:54Z</time>
      </trkpt>
      <trkpt lat="43.21682" lon="5.4654">
        <ele>473</ele>
        <time>2014-09-28T10:33:11Z</time>
      </trkpt>
      <trkpt lat="43.21687" lon="5.46538">
        <ele>474</ele>
        <time>2014-09-28T10:33:21Z</time>
      </trkpt>
      <trkpt lat="43.2169" lon="5.46534">
        <ele>476</ele>
        <time>2014-09-28T10:33:31Z</time>
      </trkpt>
      <trkpt lat="43.21693" lon="5.46532">
        <ele>478</ele>
        <time>2014-09-28T10:33:42Z</time>
      </trkpt>
      <trkpt lat="43.21697" lon="5.46529">
        <ele>480</ele>
        <time>2014-09-28T10:33:52Z</time>
      </trkpt>
      <trkpt lat="43.21702" lon="5.46528">
        <ele>482</ele>
        <time>2014-09-28T10:34:03Z</time>
      </trkpt>
      <trkpt lat="43.21709" lon="5.46527">
        <ele>484</ele>
        <time>2014-09-28T10:34:14Z</time>
      </trkpt>
      <trkpt lat="43.21716" lon="5.46525">
        <ele>485</ele>
        <time>2014-09-28T10:34:24Z</time>
      </trkpt>
      <trkpt lat="43.21721" lon="5.46521">
        <ele>488</ele>
        <time>2014-09-28T10:34:34Z</time>
      </trkpt>
      <trkpt lat="43.21727" lon="5.46518">
        <ele>488</ele>
        <time>2014-09-28T10:34:44Z</time>
      </trkpt>
      <trkpt lat="43.21735" lon="5.46513">
        <ele>489</ele>
        <time>2014-09-28T10:34:54Z</time>
      </trkpt>
      <trkpt lat="43.21736" lon="5.46515">
        <ele>491</ele>
        <time>2014-09-28T10:35:08Z</time>
      </trkpt>
      <trkpt lat="43.2174" lon="5.46515">
        <ele>492</ele>
        <time>2014-09-28T10:35:19Z</time>
      </trkpt>
      <trkpt lat="43.21748" lon="5.46514">
        <ele>492</ele>
        <time>2014-09-28T10:35:29Z</time>
      </trkpt>
      <trkpt lat="43.21755" lon="5.46513">
        <ele>492</ele>
        <time>2014-09-28T10:35:39Z</time>
      </trkpt>
      <trkpt lat="43.21763" lon="5.46509">
        <ele>492</ele>
        <time>2014-09-28T10:35:49Z</time>
      </trkpt>
      <trkpt lat="43.2177" lon="5.46505">
        <ele>494</ele>
        <time>2014-09-28T10:35:59Z</time>
      </trkpt>
      <trkpt lat="43.21776" lon="5.465">
        <ele>495</ele>
        <time>2014-09-28T10:36:08Z</time>
      </trkpt>
      <trkpt lat="43.21782" lon="5.46497">
        <ele>496</ele>
        <time>2014-09-28T10:36:19Z</time>
      </trkpt>
      <trkpt lat="43.2179" lon="5.46495">
        <ele>496</ele>
        <time>2014-09-28T10:36:28Z</time>
      </trkpt>
      <trkpt lat="43.21798" lon="5.46491">
        <ele>496</ele>
        <time>2014-09-28T10:36:38Z</time>
      </trkpt>
      <trkpt lat="43.21804" lon="5.46484">
        <ele>496</ele>
        <time>2014-09-28T10:36:48Z</time>
      </trkpt>
      <trkpt lat="43.2181" lon="5.46478">
        <ele>496</ele>
        <time>2014-09-28T10:36:58Z</time>
      </trkpt>
      <trkpt lat="43.21816" lon="5.4647">
        <ele>496</ele>
        <time>2014-09-28T10:37:09Z</time>
      </trkpt>
      <trkpt lat="43.21821" lon="5.46467">
        <ele>497</ele>
        <time>2014-09-28T10:37:18Z</time>
      </trkpt>
      <trkpt lat="43.21832" lon="5.46468">
        <ele>499</ele>
        <time>2014-09-28T10:37:30Z</time>
      </trkpt>
      <trkpt lat="43.21833" lon="5.46468">
        <ele>499</ele>
        <time>2014-09-28T10:37:44Z</time>
      </trkpt>
      <trkpt lat="43.21839" lon="5.46467">
        <ele>499</ele>
        <time>2014-09-28T10:37:53Z</time>
      </trkpt>
      <trkpt lat="43.21849" lon="5.46466">
        <ele>500</ele>
        <time>2014-09-28T10:38:04Z</time>
      </trkpt>
      <trkpt lat="43.21846" lon="5.46466">
        <ele>501</ele>
        <time>2014-09-28T10:38:13Z</time>
      </trkpt>
      <trkpt lat="43.21847" lon="5.46468">
        <ele>505</ele>
        <time>2014-09-28T10:38:35Z</time>
      </trkpt>
      <trkpt lat="43.21849" lon="5.46467">
        <ele>505</ele>
        <time>2014-09-28T10:38:49Z</time>
      </trkpt>
      <trkpt lat="43.21851" lon="5.46466">
        <ele>505</ele>
        <time>2014-09-28T10:39:08Z</time>
      </trkpt>
      <trkpt lat="43.2185" lon="5.46465">
        <ele>505</ele>
        <time>2014-09-28T10:39:36Z</time>
      </trkpt>
      <trkpt lat="43.2185" lon="5.46464">
        <ele>505</ele>
        <time>2014-09-28T10:40:09Z</time>
      </trkpt>
      <trkpt lat="43.21851" lon="5.46465">
        <ele>506</ele>
        <time>2014-09-28T10:40:31Z</time>
      </trkpt>
      <trkpt lat="43.21852" lon="5.46466">
        <ele>506</ele>
        <time>2014-09-28T10:40:50Z</time>
      </trkpt>
      <trkpt lat="43.21853" lon="5.46467">
        <ele>506</ele>
        <time>2014-09-28T10:41:37Z</time>
      </trkpt>
      <trkpt lat="43.2186" lon="5.46468">
        <ele>506</ele>
        <time>2014-09-28T10:41:47Z</time>
      </trkpt>
      <trkpt lat="43.21868" lon="5.46469">
        <ele>506</ele>
        <time>2014-09-28T10:41:57Z</time>
      </trkpt>
      <trkpt lat="43.21876" lon="5.46469">
        <ele>506</ele>
        <time>2014-09-28T10:42:07Z</time>
      </trkpt>
      <trkpt lat="43.21883" lon="5.46471">
        <ele>506</ele>
        <time>2014-09-28T10:42:17Z</time>
      </trkpt>
      <trkpt lat="43.2189" lon="5.46473">
        <ele>506</ele>
        <time>2014-09-28T10:42:26Z</time>
      </trkpt>
      <trkpt lat="43.21898" lon="5.46475">
        <ele>507</ele>
        <time>2014-09-28T10:42:35Z</time>
      </trkpt>
      <trkpt lat="43.21905" lon="5.46479">
        <ele>508</ele>
        <time>2014-09-28T10:42:44Z</time>
      </trkpt>
      <trkpt lat="43.21914" lon="5.4648">
        <ele>508</ele>
        <time>2014-09-28T10:42:53Z</time>
      </trkpt>
      <trkpt lat="43.21925" lon="5.4648">
        <ele>508</ele>
        <time>2014-09-28T10:43:03Z</time>
      </trkpt>
      <trkpt lat="43.21937" lon="5.46481">
        <ele>508</ele>
        <time>2014-09-28T10:43:13Z</time>
      </trkpt>
      <trkpt lat="43.21948" lon="5.46484">
        <ele>508</ele>
        <time>2014-09-28T10:43:24Z</time>
      </trkpt>
      <trkpt lat="43.21957" lon="5.46484">
        <ele>510</ele>
        <time>2014-09-28T10:43:33Z</time>
      </trkpt>
      <trkpt lat="43.21968" lon="5.46489">
        <ele>510</ele>
        <time>2014-09-28T10:43:43Z</time>
      </trkpt>
      <trkpt lat="43.21975" lon="5.46488">
        <ele>511</ele>
        <time>2014-09-28T10:43:53Z</time>
      </trkpt>
      <trkpt lat="43.21982" lon="5.46487">
        <ele>513</ele>
        <time>2014-09-28T10:44:04Z</time>
      </trkpt>
      <trkpt lat="43.21991" lon="5.46489">
        <ele>514</ele>
        <time>2014-09-28T10:44:14Z</time>
      </trkpt>
      <trkpt lat="43.22" lon="5.46488">
        <ele>515</ele>
        <time>2014-09-28T10:44:24Z</time>
      </trkpt>
      <trkpt lat="43.22009" lon="5.46486">
        <ele>516</ele>
        <time>2014-09-28T10:44:34Z</time>
      </trkpt>
      <trkpt lat="43.22016" lon="5.46479">
        <ele>518</ele>
        <time>2014-09-28T10:44:44Z</time>
      </trkpt>
      <trkpt lat="43.22025" lon="5.46476">
        <ele>518</ele>
        <time>2014-09-28T10:44:53Z</time>
      </trkpt>
      <trkpt lat="43.22033" lon="5.46482">
        <ele>518</ele>
        <time>2014-09-28T10:45:03Z</time>
      </trkpt>
      <trkpt lat="43.22038" lon="5.46493">
        <ele>518</ele>
        <time>2014-09-28T10:45:13Z</time>
      </trkpt>
      <trkpt lat="43.22039" lon="5.46506">
        <ele>518</ele>
        <time>2014-09-28T10:45:23Z</time>
      </trkpt>
      <trkpt lat="43.22043" lon="5.46518">
        <ele>518</ele>
        <time>2014-09-28T10:45:34Z</time>
      </trkpt>
      <trkpt lat="43.22047" lon="5.46529">
        <ele>517</ele>
        <time>2014-09-28T10:45:44Z</time>
      </trkpt>
      <trkpt lat="43.22049" lon="5.46543">
        <ele>516</ele>
        <time>2014-09-28T10:45:54Z</time>
      </trkpt>
      <trkpt lat="43.2205" lon="5.46557">
        <ele>516</ele>
        <time>2014-09-28T10:46:04Z</time>
      </trkpt>
      <trkpt lat="43.22052" lon="5.4657">
        <ele>516</ele>
        <time>2014-09-28T10:46:14Z</time>
      </trkpt>
      <trkpt lat="43.22051" lon="5.46584">
        <ele>516</ele>
        <time>2014-09-28T10:46:24Z</time>
      </trkpt>
      <trkpt lat="43.22052" lon="5.46597">
        <ele>516</ele>
        <time>2014-09-28T10:46:34Z</time>
      </trkpt>
      <trkpt lat="43.22053" lon="5.46604">
        <ele>516</ele>
        <time>2014-09-28T10:46:52Z</time>
      </trkpt>
      <trkpt lat="43.22054" lon="5.46616">
        <ele>516</ele>
        <time>2014-09-28T10:47:01Z</time>
      </trkpt>
      <trkpt lat="43.22056" lon="5.46629">
        <ele>516</ele>
        <time>2014-09-28T10:47:11Z</time>
      </trkpt>
      <trkpt lat="43.22057" lon="5.4664">
        <ele>516</ele>
        <time>2014-09-28T10:47:20Z</time>
      </trkpt>
      <trkpt lat="43.22055" lon="5.46653">
        <ele>516</ele>
        <time>2014-09-28T10:47:29Z</time>
      </trkpt>
      <trkpt lat="43.22055" lon="5.46666">
        <ele>516</ele>
        <time>2014-09-28T10:47:38Z</time>
      </trkpt>
      <trkpt lat="43.22055" lon="5.46682">
        <ele>516</ele>
        <time>2014-09-28T10:47:48Z</time>
      </trkpt>
      <trkpt lat="43.22054" lon="5.46697">
        <ele>516</ele>
        <time>2014-09-28T10:47:58Z</time>
      </trkpt>
      <trkpt lat="43.22051" lon="5.46712">
        <ele>516</ele>
        <time>2014-09-28T10:48:09Z</time>
      </trkpt>
      <trkpt lat="43.22049" lon="5.46724">
        <ele>516</ele>
        <time>2014-09-28T10:48:18Z</time>
      </trkpt>
      <trkpt lat="43.22046" lon="5.46735">
        <ele>516</ele>
        <time>2014-09-28T10:48:28Z</time>
      </trkpt>
      <trkpt lat="43.22052" lon="5.46746">
        <ele>516</ele>
        <time>2014-09-28T10:48:38Z</time>
      </trkpt>
      <trkpt lat="43.22057" lon="5.46756">
        <ele>516</ele>
        <time>2014-09-28T10:48:48Z</time>
      </trkpt>
      <trkpt lat="43.22063" lon="5.46767">
        <ele>516</ele>
        <time>2014-09-28T10:48:58Z</time>
      </trkpt>
      <trkpt lat="43.22069" lon="5.46779">
        <ele>516</ele>
        <time>2014-09-28T10:49:09Z</time>
      </trkpt>
      <trkpt lat="43.22073" lon="5.4679">
        <ele>516</ele>
        <time>2014-09-28T10:49:19Z</time>
      </trkpt>
      <trkpt lat="43.22076" lon="5.468">
        <ele>515</ele>
        <time>2014-09-28T10:49:29Z</time>
      </trkpt>
      <trkpt lat="43.22078" lon="5.4681">
        <ele>513</ele>
        <time>2014-09-28T10:49:38Z</time>
      </trkpt>
      <trkpt lat="43.22081" lon="5.46821">
        <ele>512</ele>
        <time>2014-09-28T10:49:48Z</time>
      </trkpt>
      <trkpt lat="43.22084" lon="5.46833">
        <ele>510</ele>
        <time>2014-09-28T10:49:58Z</time>
      </trkpt>
      <trkpt lat="43.22087" lon="5.46845">
        <ele>508</ele>
        <time>2014-09-28T10:50:09Z</time>
      </trkpt>
      <trkpt lat="43.22088" lon="5.46855">
        <ele>506</ele>
        <time>2014-09-28T10:50:18Z</time>
      </trkpt>
      <trkpt lat="43.22091" lon="5.46869">
        <ele>503</ele>
        <time>2014-09-28T10:50:29Z</time>
      </trkpt>
      <trkpt lat="43.22094" lon="5.46881">
        <ele>502</ele>
        <time>2014-09-28T10:50:39Z</time>
      </trkpt>
      <trkpt lat="43.22096" lon="5.46891">
        <ele>499</ele>
        <time>2014-09-28T10:50:49Z</time>
      </trkpt>
      <trkpt lat="43.22098" lon="5.46903">
        <ele>498</ele>
        <time>2014-09-28T10:50:59Z</time>
      </trkpt>
      <trkpt lat="43.22099" lon="5.46905">
        <ele>496</ele>
        <time>2014-09-28T10:51:12Z</time>
      </trkpt>
      <trkpt lat="43.22099" lon="5.46911">
        <ele>494</ele>
        <time>2014-09-28T10:51:23Z</time>
      </trkpt>
      <trkpt lat="43.22102" lon="5.46922">
        <ele>492</ele>
        <time>2014-09-28T10:51:33Z</time>
      </trkpt>
      <trkpt lat="43.22106" lon="5.46936">
        <ele>490</ele>
        <time>2014-09-28T10:51:43Z</time>
      </trkpt>
      <trkpt lat="43.22109" lon="5.46949">
        <ele>488</ele>
        <time>2014-09-28T10:51:54Z</time>
      </trkpt>
      <trkpt lat="43.22114" lon="5.46961">
        <ele>487</ele>
        <time>2014-09-28T10:52:04Z</time>
      </trkpt>
      <trkpt lat="43.22119" lon="5.46971">
        <ele>486</ele>
        <time>2014-09-28T10:52:13Z</time>
      </trkpt>
      <trkpt lat="43.22123" lon="5.46982">
        <ele>483</ele>
        <time>2014-09-28T10:52:23Z</time>
      </trkpt>
      <trkpt lat="43.2213" lon="5.46994">
        <ele>481</ele>
        <time>2014-09-28T10:52:34Z</time>
      </trkpt>
      <trkpt lat="43.22136" lon="5.47004">
        <ele>481</ele>
        <time>2014-09-28T10:52:43Z</time>
      </trkpt>
      <trkpt lat="43.22143" lon="5.47012">
        <ele>481</ele>
        <time>2014-09-28T10:52:53Z</time>
      </trkpt>
      <trkpt lat="43.22149" lon="5.47022">
        <ele>480</ele>
        <time>2014-09-28T10:53:03Z</time>
      </trkpt>
      <trkpt lat="43.22156" lon="5.47032">
        <ele>478</ele>
        <time>2014-09-28T10:53:13Z</time>
      </trkpt>
      <trkpt lat="43.22164" lon="5.4704">
        <ele>476</ele>
        <time>2014-09-28T10:53:23Z</time>
      </trkpt>
      <trkpt lat="43.22172" lon="5.47048">
        <ele>474</ele>
        <time>2014-09-28T10:53:33Z</time>
      </trkpt>
      <trkpt lat="43.2218" lon="5.47056">
        <ele>473</ele>
        <time>2014-09-28T10:53:43Z</time>
      </trkpt>
      <trkpt lat="43.2219" lon="5.47063">
        <ele>473</ele>
        <time>2014-09-28T10:53:53Z</time>
      </trkpt>
      <trkpt lat="43.22201" lon="5.47067">
        <ele>473</ele>
        <time>2014-09-28T10:54:03Z</time>
      </trkpt>
      <trkpt lat="43.2221" lon="5.47071">
        <ele>473</ele>
        <time>2014-09-28T10:54:13Z</time>
      </trkpt>
      <trkpt lat="43.22221" lon="5.47075">
        <ele>473</ele>
        <time>2014-09-28T10:54:24Z</time>
      </trkpt>
      <trkpt lat="43.2223" lon="5.4708">
        <ele>473</ele>
        <time>2014-09-28T10:54:33Z</time>
      </trkpt>
      <trkpt lat="43.2224" lon="5.47084">
        <ele>472</ele>
        <time>2014-09-28T10:54:43Z</time>
      </trkpt>
      <trkpt lat="43.22249" lon="5.47087">
        <ele>471</ele>
        <time>2014-09-28T10:54:53Z</time>
      </trkpt>
      <trkpt lat="43.22261" lon="5.47095">
        <ele>470</ele>
        <time>2014-09-28T10:55:04Z</time>
      </trkpt>
      <trkpt lat="43.22271" lon="5.47101">
        <ele>470</ele>
        <time>2014-09-28T10:55:13Z</time>
      </trkpt>
      <trkpt lat="43.22282" lon="5.47107">
        <ele>470</ele>
        <time>2014-09-28T10:55:24Z</time>
      </trkpt>
      <trkpt lat="43.22292" lon="5.47115">
        <ele>470</ele>
        <time>2014-09-28T10:55:33Z</time>
      </trkpt>
      <trkpt lat="43.22299" lon="5.47123">
        <ele>470</ele>
        <time>2014-09-28T10:55:47Z</time>
      </trkpt>
      <trkpt lat="43.22309" lon="5.47131">
        <ele>469</ele>
        <time>2014-09-28T10:55:56Z</time>
      </trkpt>
      <trkpt lat="43.22316" lon="5.47142">
        <ele>469</ele>
        <time>2014-09-28T10:56:05Z</time>
      </trkpt>
      <trkpt lat="43.22323" lon="5.47152">
        <ele>468</ele>
        <time>2014-09-28T10:56:14Z</time>
      </trkpt>
      <trkpt lat="43.2233" lon="5.47162">
        <ele>467</ele>
        <time>2014-09-28T10:56:23Z</time>
      </trkpt>
      <trkpt lat="43.22337" lon="5.47176">
        <ele>465</ele>
        <time>2014-09-28T10:56:33Z</time>
      </trkpt>
      <trkpt lat="43.22345" lon="5.47188">
        <ele>463</ele>
        <time>2014-09-28T10:56:43Z</time>
      </trkpt>
      <trkpt lat="43.22348" lon="5.47205">
        <ele>463</ele>
        <time>2014-09-28T10:56:54Z</time>
      </trkpt>
      <trkpt lat="43.2235" lon="5.47217">
        <ele>462</ele>
        <time>2014-09-28T10:57:03Z</time>
      </trkpt>
      <trkpt lat="43.22353" lon="5.47232">
        <ele>462</ele>
        <time>2014-09-28T10:57:13Z</time>
      </trkpt>
      <trkpt lat="43.22355" lon="5.47246">
        <ele>462</ele>
        <time>2014-09-28T10:57:23Z</time>
      </trkpt>
      <trkpt lat="43.22359" lon="5.47262">
        <ele>462</ele>
        <time>2014-09-28T10:57:33Z</time>
      </trkpt>
      <trkpt lat="43.22364" lon="5.47277">
        <ele>462</ele>
        <time>2014-09-28T10:57:43Z</time>
      </trkpt>
      <trkpt lat="43.22367" lon="5.47294">
        <ele>462</ele>
        <time>2014-09-28T10:57:54Z</time>
      </trkpt>
      <trkpt lat="43.22371" lon="5.47306">
        <ele>462</ele>
        <time>2014-09-28T10:58:03Z</time>
      </trkpt>
      <trkpt lat="43.22376" lon="5.4732">
        <ele>462</ele>
        <time>2014-09-28T10:58:13Z</time>
      </trkpt>
      <trkpt lat="43.22383" lon="5.47335">
        <ele>462</ele>
        <time>2014-09-28T10:58:23Z</time>
      </trkpt>
      <trkpt lat="43.22388" lon="5.4735">
        <ele>462</ele>
        <time>2014-09-28T10:58:33Z</time>
      </trkpt>
      <trkpt lat="43.22393" lon="5.47365">
        <ele>462</ele>
        <time>2014-09-28T10:58:44Z</time>
      </trkpt>
      <trkpt lat="43.22394" lon="5.47379">
        <ele>462</ele>
        <time>2014-09-28T10:58:53Z</time>
      </trkpt>
      <trkpt lat="43.22393" lon="5.47395">
        <ele>462</ele>
        <time>2014-09-28T10:59:03Z</time>
      </trkpt>
      <trkpt lat="43.22393" lon="5.47411">
        <ele>462</ele>
        <time>2014-09-28T10:59:13Z</time>
      </trkpt>
      <trkpt lat="43.2239" lon="5.47427">
        <ele>460</ele>
        <time>2014-09-28T10:59:24Z</time>
      </trkpt>
      <trkpt lat="43.22387" lon="5.47443">
        <ele>458</ele>
        <time>2014-09-28T10:59:34Z</time>
      </trkpt>
      <trkpt lat="43.22386" lon="5.47456">
        <ele>456</ele>
        <time>2014-09-28T10:59:43Z</time>
      </trkpt>
      <trkpt lat="43.22393" lon="5.47465">
        <ele>453</ele>
        <time>2014-09-28T10:59:53Z</time>
      </trkpt>
      <trkpt lat="43.22401" lon="5.47471">
        <ele>452</ele>
        <time>2014-09-28T11:00:03Z</time>
      </trkpt>
      <trkpt lat="43.2241" lon="5.4748">
        <ele>451</ele>
        <time>2014-09-28T11:00:13Z</time>
      </trkpt>
      <trkpt lat="43.22412" lon="5.47497">
        <ele>450</ele>
        <time>2014-09-28T11:00:23Z</time>
      </trkpt>
      <trkpt lat="43.22414" lon="5.47513">
        <ele>447</ele>
        <time>2014-09-28T11:00:33Z</time>
      </trkpt>
      <trkpt lat="43.22417" lon="5.47527">
        <ele>446</ele>
        <time>2014-09-28T11:00:43Z</time>
      </trkpt>
      <trkpt lat="43.2242" lon="5.47542">
        <ele>446</ele>
        <time>2014-09-28T11:00:54Z</time>
      </trkpt>
      <trkpt lat="43.22419" lon="5.47554">
        <ele>446</ele>
        <time>2014-09-28T11:01:03Z</time>
      </trkpt>
      <trkpt lat="43.22422" lon="5.47566">
        <ele>446</ele>
        <time>2014-09-28T11:01:13Z</time>
      </trkpt>
      <trkpt lat="43.22429" lon="5.47575">
        <ele>447</ele>
        <time>2014-09-28T11:01:23Z</time>
      </trkpt>
      <trkpt lat="43.22436" lon="5.47578">
        <ele>450</ele>
        <time>2014-09-28T11:01:33Z</time>
      </trkpt>
      <trkpt lat="43.22443" lon="5.4758">
        <ele>452</ele>
        <time>2014-09-28T11:01:43Z</time>
      </trkpt>
      <trkpt lat="43.22448" lon="5.47588">
        <ele>453</ele>
        <time>2014-09-28T11:01:54Z</time>
      </trkpt>
      <trkpt lat="43.22448" lon="5.476">
        <ele>454</ele>
        <time>2014-09-28T11:02:04Z</time>
      </trkpt>
      <trkpt lat="43.22446" lon="5.47613">
        <ele>455</ele>
        <time>2014-09-28T11:02:14Z</time>
      </trkpt>
      <trkpt lat="43.22445" lon="5.47625">
        <ele>456</ele>
        <time>2014-09-28T11:02:23Z</time>
      </trkpt>
      <trkpt lat="43.22447" lon="5.47638">
        <ele>457</ele>
        <time>2014-09-28T11:02:33Z</time>
      </trkpt>
      <trkpt lat="43.22451" lon="5.47652">
        <ele>458</ele>
        <time>2014-09-28T11:02:43Z</time>
      </trkpt>
      <trkpt lat="43.22457" lon="5.47665">
        <ele>458</ele>
        <time>2014-09-28T11:02:54Z</time>
      </trkpt>
      <trkpt lat="43.22461" lon="5.47679">
        <ele>458</ele>
        <time>2014-09-28T11:03:04Z</time>
      </trkpt>
      <trkpt lat="43.22465" lon="5.47692">
        <ele>458</ele>
        <time>2014-09-28T11:03:14Z</time>
      </trkpt>
      <trkpt lat="43.22469" lon="5.47705">
        <ele>458</ele>
        <time>2014-09-28T11:03:23Z</time>
      </trkpt>
      <trkpt lat="43.22473" lon="5.47718">
        <ele>458</ele>
        <time>2014-09-28T11:03:33Z</time>
      </trkpt>
      <trkpt lat="43.22475" lon="5.47726">
        <ele>458</ele>
        <time>2014-09-28T11:03:44Z</time>
      </trkpt>
      <trkpt lat="43.22478" lon="5.47737">
        <ele>458</ele>
        <time>2014-09-28T11:03:53Z</time>
      </trkpt>
      <trkpt lat="43.22483" lon="5.47753">
        <ele>458</ele>
        <time>2014-09-28T11:04:04Z</time>
      </trkpt>
      <trkpt lat="43.22485" lon="5.47765">
        <ele>458</ele>
        <time>2014-09-28T11:04:13Z</time>
      </trkpt>
      <trkpt lat="43.22489" lon="5.47781">
        <ele>458</ele>
        <time>2014-09-28T11:04:23Z</time>
      </trkpt>
      <trkpt lat="43.22494" lon="5.47795">
        <ele>458</ele>
        <time>2014-09-28T11:04:34Z</time>
      </trkpt>
      <trkpt lat="43.22499" lon="5.47807">
        <ele>457</ele>
        <time>2014-09-28T11:04:43Z</time>
      </trkpt>
      <trkpt lat="43.22503" lon="5.47818">
        <ele>455</ele>
        <time>2014-09-28T11:04:53Z</time>
      </trkpt>
      <trkpt lat="43.22508" lon="5.47831">
        <ele>453</ele>
        <time>2014-09-28T11:05:04Z</time>
      </trkpt>
      <trkpt lat="43.22511" lon="5.47844">
        <ele>451</ele>
        <time>2014-09-28T11:05:13Z</time>
      </trkpt>
      <trkpt lat="43.2251" lon="5.47855">
        <ele>449</ele>
        <time>2014-09-28T11:05:23Z</time>
      </trkpt>
      <trkpt lat="43.22511" lon="5.47867">
        <ele>446</ele>
        <time>2014-09-28T11:05:33Z</time>
      </trkpt>
      <trkpt lat="43.22511" lon="5.47879">
        <ele>443</ele>
        <time>2014-09-28T11:05:44Z</time>
      </trkpt>
      <trkpt lat="43.22512" lon="5.4789">
        <ele>442</ele>
        <time>2014-09-28T11:05:53Z</time>
      </trkpt>
      <trkpt lat="43.22512" lon="5.47904">
        <ele>441</ele>
        <time>2014-09-28T11:06:03Z</time>
      </trkpt>
      <trkpt lat="43.22509" lon="5.47918">
        <ele>440</ele>
        <time>2014-09-28T11:06:14Z</time>
      </trkpt>
      <trkpt lat="43.22507" lon="5.47929">
        <ele>438</ele>
        <time>2014-09-28T11:06:23Z</time>
      </trkpt>
      <trkpt lat="43.22507" lon="5.47943">
        <ele>437</ele>
        <time>2014-09-28T11:06:33Z</time>
      </trkpt>
      <trkpt lat="43.22512" lon="5.47957">
        <ele>436</ele>
        <time>2014-09-28T11:06:43Z</time>
      </trkpt>
      <trkpt lat="43.22519" lon="5.47973">
        <ele>435</ele>
        <time>2014-09-28T11:06:53Z</time>
      </trkpt>
      <trkpt lat="43.2252" lon="5.4799">
        <ele>434</ele>
        <time>2014-09-28T11:07:03Z</time>
      </trkpt>
      <trkpt lat="43.22521" lon="5.48007">
        <ele>434</ele>
        <time>2014-09-28T11:07:14Z</time>
      </trkpt>
      <trkpt lat="43.22526" lon="5.4802">
        <ele>434</ele>
        <time>2014-09-28T11:07:24Z</time>
      </trkpt>
      <trkpt lat="43.22533" lon="5.4803">
        <ele>434</ele>
        <time>2014-09-28T11:07:33Z</time>
      </trkpt>
      <trkpt lat="43.22543" lon="5.48043">
        <ele>434</ele>
        <time>2014-09-28T11:07:43Z</time>
      </trkpt>
      <trkpt lat="43.22546" lon="5.48056">
        <ele>434</ele>
        <time>2014-09-28T11:07:53Z</time>
      </trkpt>
      <trkpt lat="43.22551" lon="5.4807">
        <ele>434</ele>
        <time>2014-09-28T11:08:03Z</time>
      </trkpt>
      <trkpt lat="43.22556" lon="5.48081">
        <ele>434</ele>
        <time>2014-09-28T11:08:14Z</time>
      </trkpt>
      <trkpt lat="43.22563" lon="5.48092">
        <ele>433</ele>
        <time>2014-09-28T11:08:24Z</time>
      </trkpt>
      <trkpt lat="43.22571" lon="5.48102">
        <ele>431</ele>
        <time>2014-09-28T11:08:34Z</time>
      </trkpt>
      <trkpt lat="43.22578" lon="5.48114">
        <ele>431</ele>
        <time>2014-09-28T11:08:44Z</time>
      </trkpt>
      <trkpt lat="43.22584" lon="5.48124">
        <ele>430</ele>
        <time>2014-09-28T11:08:53Z</time>
      </trkpt>
      <trkpt lat="43.22592" lon="5.48134">
        <ele>429</ele>
        <time>2014-09-28T11:09:02Z</time>
      </trkpt>
      <trkpt lat="43.22598" lon="5.48147">
        <ele>427</ele>
        <time>2014-09-28T11:09:11Z</time>
      </trkpt>
      <trkpt lat="43.22606" lon="5.48162">
        <ele>426</ele>
        <time>2014-09-28T11:09:20Z</time>
      </trkpt>
      <trkpt lat="43.22608" lon="5.48178">
        <ele>426</ele>
        <time>2014-09-28T11:09:29Z</time>
      </trkpt>
      <trkpt lat="43.22607" lon="5.48193">
        <ele>425</ele>
        <time>2014-09-28T11:09:38Z</time>
      </trkpt>
      <trkpt lat="43.22604" lon="5.4821">
        <ele>424</ele>
        <time>2014-09-28T11:09:49Z</time>
      </trkpt>
      <trkpt lat="43.22601" lon="5.48222">
        <ele>424</ele>
        <time>2014-09-28T11:09:58Z</time>
      </trkpt>
      <trkpt lat="43.22599" lon="5.48237">
        <ele>424</ele>
        <time>2014-09-28T11:10:09Z</time>
      </trkpt>
      <trkpt lat="43.22598" lon="5.4825">
        <ele>424</ele>
        <time>2014-09-28T11:10:18Z</time>
      </trkpt>
      <trkpt lat="43.22597" lon="5.48263">
        <ele>424</ele>
        <time>2014-09-28T11:10:27Z</time>
      </trkpt>
      <trkpt lat="43.22598" lon="5.48276">
        <ele>424</ele>
        <time>2014-09-28T11:10:36Z</time>
      </trkpt>
      <trkpt lat="43.22603" lon="5.48291">
        <ele>424</ele>
        <time>2014-09-28T11:10:45Z</time>
      </trkpt>
      <trkpt lat="43.22607" lon="5.48303">
        <ele>425</ele>
        <time>2014-09-28T11:10:54Z</time>
      </trkpt>
      <trkpt lat="43.2261" lon="5.48314">
        <ele>425</ele>
        <time>2014-09-28T11:11:03Z</time>
      </trkpt>
      <trkpt lat="43.22614" lon="5.48328">
        <ele>426</ele>
        <time>2014-09-28T11:11:13Z</time>
      </trkpt>
      <trkpt lat="43.2262" lon="5.48341">
        <ele>426</ele>
        <time>2014-09-28T11:11:23Z</time>
      </trkpt>
      <trkpt lat="43.22627" lon="5.4835">
        <ele>426</ele>
        <time>2014-09-28T11:11:32Z</time>
      </trkpt>
      <trkpt lat="43.22634" lon="5.48361">
        <ele>426</ele>
        <time>2014-09-28T11:11:41Z</time>
      </trkpt>
      <trkpt lat="43.22643" lon="5.48371">
        <ele>426</ele>
        <time>2014-09-28T11:11:51Z</time>
      </trkpt>
      <trkpt lat="43.22649" lon="5.48383">
        <ele>426</ele>
        <time>2014-09-28T11:12:00Z</time>
      </trkpt>
      <trkpt lat="43.22654" lon="5.48395">
        <ele>426</ele>
        <time>2014-09-28T11:12:10Z</time>
      </trkpt>
      <trkpt lat="43.22661" lon="5.48406">
        <ele>425</ele>
        <time>2014-09-28T11:12:19Z</time>
      </trkpt>
      <trkpt lat="43.22668" lon="5.48415">
        <ele>423</ele>
        <time>2014-09-28T11:12:28Z</time>
      </trkpt>
      <trkpt lat="43.22675" lon="5.48422">
        <ele>420</ele>
        <time>2014-09-28T11:12:39Z</time>
      </trkpt>
      <trkpt lat="43.22681" lon="5.48432">
        <ele>419</ele>
        <time>2014-09-28T11:12:48Z</time>
      </trkpt>
      <trkpt lat="43.22689" lon="5.4844">
        <ele>416</ele>
        <time>2014-09-28T11:12:58Z</time>
      </trkpt>
      <trkpt lat="43.22696" lon="5.4845">
        <ele>414</ele>
        <time>2014-09-28T11:13:08Z</time>
      </trkpt>
      <trkpt lat="43.22702" lon="5.4846">
        <ele>409</ele>
        <time>2014-09-28T11:13:18Z</time>
      </trkpt>
      <trkpt lat="43.22707" lon="5.4847">
        <ele>405</ele>
        <time>2014-09-28T11:13:27Z</time>
      </trkpt>
      <trkpt lat="43.22713" lon="5.48483">
        <ele>402</ele>
        <time>2014-09-28T11:13:37Z</time>
      </trkpt>
      <trkpt lat="43.22717" lon="5.48493">
        <ele>402</ele>
        <time>2014-09-28T11:13:46Z</time>
      </trkpt>
      <trkpt lat="43.22721" lon="5.48507">
        <ele>401</ele>
        <time>2014-09-28T11:13:55Z</time>
      </trkpt>
      <trkpt lat="43.22723" lon="5.48522">
        <ele>401</ele>
        <time>2014-09-28T11:14:04Z</time>
      </trkpt>
      <trkpt lat="43.22727" lon="5.48534">
        <ele>400</ele>
        <time>2014-09-28T11:14:13Z</time>
      </trkpt>
      <trkpt lat="43.22732" lon="5.48549">
        <ele>400</ele>
        <time>2014-09-28T11:14:22Z</time>
      </trkpt>
      <trkpt lat="43.22733" lon="5.48564">
        <ele>399</ele>
        <time>2014-09-28T11:14:31Z</time>
      </trkpt>
      <trkpt lat="43.22736" lon="5.48579">
        <ele>398</ele>
        <time>2014-09-28T11:14:40Z</time>
      </trkpt>
      <trkpt lat="43.2274" lon="5.48593">
        <ele>397</ele>
        <time>2014-09-28T11:14:49Z</time>
      </trkpt>
      <trkpt lat="43.22746" lon="5.48605">
        <ele>396</ele>
        <time>2014-09-28T11:14:58Z</time>
      </trkpt>
      <trkpt lat="43.22752" lon="5.48617">
        <ele>394</ele>
        <time>2014-09-28T11:15:07Z</time>
      </trkpt>
      <trkpt lat="43.22757" lon="5.4863">
        <ele>392</ele>
        <time>2014-09-28T11:15:17Z</time>
      </trkpt>
      <trkpt lat="43.22765" lon="5.48645">
        <ele>392</ele>
        <time>2014-09-28T11:15:27Z</time>
      </trkpt>
      <trkpt lat="43.22769" lon="5.48659">
        <ele>392</ele>
        <time>2014-09-28T11:15:36Z</time>
      </trkpt>
      <trkpt lat="43.22771" lon="5.48673">
        <ele>392</ele>
        <time>2014-09-28T11:15:45Z</time>
      </trkpt>
      <trkpt lat="43.22772" lon="5.48687">
        <ele>392</ele>
        <time>2014-09-28T11:15:54Z</time>
      </trkpt>
      <trkpt lat="43.22773" lon="5.48701">
        <ele>391</ele>
        <time>2014-09-28T11:16:03Z</time>
      </trkpt>
      <trkpt lat="43.22774" lon="5.48714">
        <ele>387</ele>
        <time>2014-09-28T11:16:12Z</time>
      </trkpt>
      <trkpt lat="43.22776" lon="5.48727">
        <ele>387</ele>
        <time>2014-09-28T11:16:21Z</time>
      </trkpt>
      <trkpt lat="43.2278" lon="5.48742">
        <ele>385</ele>
        <time>2014-09-28T11:16:31Z</time>
      </trkpt>
      <trkpt lat="43.22781" lon="5.48757">
        <ele>383</ele>
        <time>2014-09-28T11:16:40Z</time>
      </trkpt>
      <trkpt lat="43.22786" lon="5.4877">
        <ele>381</ele>
        <time>2014-09-28T11:16:49Z</time>
      </trkpt>
      <trkpt lat="43.22788" lon="5.48785">
        <ele>380</ele>
        <time>2014-09-28T11:16:58Z</time>
      </trkpt>
      <trkpt lat="43.22788" lon="5.48799">
        <ele>378</ele>
        <time>2014-09-28T11:17:07Z</time>
      </trkpt>
      <trkpt lat="43.22789" lon="5.48813">
        <ele>376</ele>
        <time>2014-09-28T11:17:16Z</time>
      </trkpt>
      <trkpt lat="43.22793" lon="5.48827">
        <ele>374</ele>
        <time>2014-09-28T11:17:25Z</time>
      </trkpt>
      <trkpt lat="43.22796" lon="5.48842">
        <ele>371</ele>
        <time>2014-09-28T11:17:35Z</time>
      </trkpt>
      <trkpt lat="43.22799" lon="5.48856">
        <ele>370</ele>
        <time>2014-09-28T11:17:44Z</time>
      </trkpt>
      <trkpt lat="43.228" lon="5.48872">
        <ele>369</ele>
        <time>2014-09-28T11:17:54Z</time>
      </trkpt>
      <trkpt lat="43.22803" lon="5.48886">
        <ele>369</ele>
        <time>2014-09-28T11:18:03Z</time>
      </trkpt>
      <trkpt lat="43.22804" lon="5.48902">
        <ele>367</ele>
        <time>2014-09-28T11:18:12Z</time>
      </trkpt>
      <trkpt lat="43.22805" lon="5.48918">
        <ele>366</ele>
        <time>2014-09-28T11:18:21Z</time>
      </trkpt>
      <trkpt lat="43.22805" lon="5.48934">
        <ele>365</ele>
        <time>2014-09-28T11:18:30Z</time>
      </trkpt>
      <trkpt lat="43.22805" lon="5.48949">
        <ele>364</ele>
        <time>2014-09-28T11:18:39Z</time>
      </trkpt>
      <trkpt lat="43.22806" lon="5.48964">
        <ele>363</ele>
        <time>2014-09-28T11:18:48Z</time>
      </trkpt>
      <trkpt lat="43.22806" lon="5.4898">
        <ele>362</ele>
        <time>2014-09-28T11:18:57Z</time>
      </trkpt>
      <trkpt lat="43.22805" lon="5.48995">
        <ele>360</ele>
        <time>2014-09-28T11:19:06Z</time>
      </trkpt>
      <trkpt lat="43.22804" lon="5.49008">
        <ele>359</ele>
        <time>2014-09-28T11:19:15Z</time>
      </trkpt>
      <trkpt lat="43.22805" lon="5.49021">
        <ele>358</ele>
        <time>2014-09-28T11:19:24Z</time>
      </trkpt>
      <trkpt lat="43.22805" lon="5.49034">
        <ele>357</ele>
        <time>2014-09-28T11:19:33Z</time>
      </trkpt>
      <trkpt lat="43.22806" lon="5.49048">
        <ele>355</ele>
        <time>2014-09-28T11:19:43Z</time>
      </trkpt>
      <trkpt lat="43.22807" lon="5.49062">
        <ele>352</ele>
        <time>2014-09-28T11:19:54Z</time>
      </trkpt>
      <trkpt lat="43.22808" lon="5.49074">
        <ele>350</ele>
        <time>2014-09-28T11:20:03Z</time>
      </trkpt>
      <trkpt lat="43.2281" lon="5.49086">
        <ele>348</ele>
        <time>2014-09-28T11:20:12Z</time>
      </trkpt>
      <trkpt lat="43.2281" lon="5.49101">
        <ele>344</ele>
        <time>2014-09-28T11:20:22Z</time>
      </trkpt>
      <trkpt lat="43.22811" lon="5.49114">
        <ele>344</ele>
        <time>2014-09-28T11:20:31Z</time>
      </trkpt>
      <trkpt lat="43.22808" lon="5.49127">
        <ele>342</ele>
        <time>2014-09-28T11:20:40Z</time>
      </trkpt>
      <trkpt lat="43.22808" lon="5.49139">
        <ele>340</ele>
        <time>2014-09-28T11:20:49Z</time>
      </trkpt>
      <trkpt lat="43.22808" lon="5.49152">
        <ele>340</ele>
        <time>2014-09-28T11:20:58Z</time>
      </trkpt>
      <trkpt lat="43.22809" lon="5.49163">
        <ele>340</ele>
        <time>2014-09-28T11:21:07Z</time>
      </trkpt>
      <trkpt lat="43.22809" lon="5.49176">
        <ele>339</ele>
        <time>2014-09-28T11:21:17Z</time>
      </trkpt>
      <trkpt lat="43.22808" lon="5.49189">
        <ele>337</ele>
        <time>2014-09-28T11:21:27Z</time>
      </trkpt>
      <trkpt lat="43.22806" lon="5.49201">
        <ele>335</ele>
        <time>2014-09-28T11:21:36Z</time>
      </trkpt>
      <trkpt lat="43.22805" lon="5.49212">
        <ele>333</ele>
        <time>2014-09-28T11:21:45Z</time>
      </trkpt>
      <trkpt lat="43.22801" lon="5.49224">
        <ele>330</ele>
        <time>2014-09-28T11:21:54Z</time>
      </trkpt>
      <trkpt lat="43.22798" lon="5.49237">
        <ele>328</ele>
        <time>2014-09-28T11:22:03Z</time>
      </trkpt>
      <trkpt lat="43.22798" lon="5.49252">
        <ele>326</ele>
        <time>2014-09-28T11:22:13Z</time>
      </trkpt>
      <trkpt lat="43.22796" lon="5.49265">
        <ele>326</ele>
        <time>2014-09-28T11:22:22Z</time>
      </trkpt>
      <trkpt lat="43.22791" lon="5.49278">
        <ele>326</ele>
        <time>2014-09-28T11:22:31Z</time>
      </trkpt>
      <trkpt lat="43.22789" lon="5.49292">
        <ele>326</ele>
        <time>2014-09-28T11:22:40Z</time>
      </trkpt>
      <trkpt lat="43.22785" lon="5.49303">
        <ele>323</ele>
        <time>2014-09-28T11:22:50Z</time>
      </trkpt>
      <trkpt lat="43.22781" lon="5.49316">
        <ele>320</ele>
        <time>2014-09-28T11:22:59Z</time>
      </trkpt>
      <trkpt lat="43.22781" lon="5.4933">
        <ele>319</ele>
        <time>2014-09-28T11:23:08Z</time>
      </trkpt>
      <trkpt lat="43.2278" lon="5.49343">
        <ele>317</ele>
        <time>2014-09-28T11:23:17Z</time>
      </trkpt>
      <trkpt lat="43.22778" lon="5.49356">
        <ele>316</ele>
        <time>2014-09-28T11:23:26Z</time>
      </trkpt>
      <trkpt lat="43.22776" lon="5.4937">
        <ele>315</ele>
        <time>2014-09-28T11:23:35Z</time>
      </trkpt>
      <trkpt lat="43.22771" lon="5.49383">
        <ele>315</ele>
        <time>2014-09-28T11:23:45Z</time>
      </trkpt>
      <trkpt lat="43.2277" lon="5.49395">
        <ele>314</ele>
        <time>2014-09-28T11:23:54Z</time>
      </trkpt>
      <trkpt lat="43.22764" lon="5.49407">
        <ele>311</ele>
        <time>2014-09-28T11:24:04Z</time>
      </trkpt>
      <trkpt lat="43.2276" lon="5.49416">
        <ele>307</ele>
        <time>2014-09-28T11:24:13Z</time>
      </trkpt>
      <trkpt lat="43.22757" lon="5.49426">
        <ele>303</ele>
        <time>2014-09-28T11:24:22Z</time>
      </trkpt>
      <trkpt lat="43.22754" lon="5.49437">
        <ele>300</ele>
        <time>2014-09-28T11:24:31Z</time>
      </trkpt>
      <trkpt lat="43.22752" lon="5.49449">
        <ele>300</ele>
        <time>2014-09-28T11:24:41Z</time>
      </trkpt>
      <trkpt lat="43.22751" lon="5.49462">
        <ele>300</ele>
        <time>2014-09-28T11:24:50Z</time>
      </trkpt>
      <trkpt lat="43.22751" lon="5.49475">
        <ele>299</ele>
        <time>2014-09-28T11:25:00Z</time>
      </trkpt>
      <trkpt lat="43.22749" lon="5.49487">
        <ele>297</ele>
        <time>2014-09-28T11:25:09Z</time>
      </trkpt>
      <trkpt lat="43.22749" lon="5.49498">
        <ele>295</ele>
        <time>2014-09-28T11:25:18Z</time>
      </trkpt>
      <trkpt lat="43.22748" lon="5.49508">
        <ele>294</ele>
        <time>2014-09-28T11:25:27Z</time>
      </trkpt>
      <trkpt lat="43.22747" lon="5.4952">
        <ele>293</ele>
        <time>2014-09-28T11:25:36Z</time>
      </trkpt>
      <trkpt lat="43.22749" lon="5.49533">
        <ele>290</ele>
        <time>2014-09-28T11:25:45Z</time>
      </trkpt>
      <trkpt lat="43.22753" lon="5.49546">
        <ele>287</ele>
        <time>2014-09-28T11:25:55Z</time>
      </trkpt>
      <trkpt lat="43.22756" lon="5.49559">
        <ele>285</ele>
        <time>2014-09-28T11:26:05Z</time>
      </trkpt>
      <trkpt lat="43.22758" lon="5.4957">
        <ele>285</ele>
        <time>2014-09-28T11:26:14Z</time>
      </trkpt>
      <trkpt lat="43.22756" lon="5.49584">
        <ele>283</ele>
        <time>2014-09-28T11:26:23Z</time>
      </trkpt>
      <trkpt lat="43.22755" lon="5.49598">
        <ele>282</ele>
        <time>2014-09-28T11:26:32Z</time>
      </trkpt>
      <trkpt lat="43.22755" lon="5.49612">
        <ele>280</ele>
        <time>2014-09-28T11:26:42Z</time>
      </trkpt>
      <trkpt lat="43.22755" lon="5.49626">
        <ele>278</ele>
        <time>2014-09-28T11:26:51Z</time>
      </trkpt>
      <trkpt lat="43.22755" lon="5.4964">
        <ele>274</ele>
        <time>2014-09-28T11:27:01Z</time>
      </trkpt>
      <trkpt lat="43.22756" lon="5.49653">
        <ele>272</ele>
        <time>2014-09-28T11:27:10Z</time>
      </trkpt>
      <trkpt lat="43.22755" lon="5.49667">
        <ele>272</ele>
        <time>2014-09-28T11:27:19Z</time>
      </trkpt>
      <trkpt lat="43.22753" lon="5.49683">
        <ele>272</ele>
        <time>2014-09-28T11:27:28Z</time>
      </trkpt>
      <trkpt lat="43.22751" lon="5.49699">
        <ele>272</ele>
        <time>2014-09-28T11:27:38Z</time>
      </trkpt>
      <trkpt lat="43.22748" lon="5.49714">
        <ele>272</ele>
        <time>2014-09-28T11:27:47Z</time>
      </trkpt>
      <trkpt lat="43.22746" lon="5.49729">
        <ele>272</ele>
        <time>2014-09-28T11:27:56Z</time>
      </trkpt>
      <trkpt lat="43.22743" lon="5.49742">
        <ele>272</ele>
        <time>2014-09-28T11:28:05Z</time>
      </trkpt>
      <trkpt lat="43.22739" lon="5.49755">
        <ele>272</ele>
        <time>2014-09-28T11:28:15Z</time>
      </trkpt>
      <trkpt lat="43.22734" lon="5.49765">
        <ele>273</ele>
        <time>2014-09-28T11:28:25Z</time>
      </trkpt>
      <trkpt lat="43.22727" lon="5.49777">
        <ele>274</ele>
        <time>2014-09-28T11:28:35Z</time>
      </trkpt>
      <trkpt lat="43.22721" lon="5.49789">
        <ele>274</ele>
        <time>2014-09-28T11:28:45Z</time>
      </trkpt>
      <trkpt lat="43.22714" lon="5.49802">
        <ele>274</ele>
        <time>2014-09-28T11:28:54Z</time>
      </trkpt>
      <trkpt lat="43.22708" lon="5.49815">
        <ele>274</ele>
        <time>2014-09-28T11:29:04Z</time>
      </trkpt>
      <trkpt lat="43.22701" lon="5.49827">
        <ele>274</ele>
        <time>2014-09-28T11:29:13Z</time>
      </trkpt>
      <trkpt lat="43.22694" lon="5.49838">
        <ele>274</ele>
        <time>2014-09-28T11:29:22Z</time>
      </trkpt>
      <trkpt lat="43.22688" lon="5.49851">
        <ele>274</ele>
        <time>2014-09-28T11:29:31Z</time>
      </trkpt>
      <trkpt lat="43.22684" lon="5.49863">
        <ele>274</ele>
        <time>2014-09-28T11:29:40Z</time>
      </trkpt>
      <trkpt lat="43.22681" lon="5.49877">
        <ele>274</ele>
        <time>2014-09-28T11:29:49Z</time>
      </trkpt>
      <trkpt lat="43.2268" lon="5.49893">
        <ele>274</ele>
        <time>2014-09-28T11:29:58Z</time>
      </trkpt>
      <trkpt lat="43.22679" lon="5.49908">
        <ele>274</ele>
        <time>2014-09-28T11:30:07Z</time>
      </trkpt>
      <trkpt lat="43.2268" lon="5.49922">
        <ele>274</ele>
        <time>2014-09-28T11:30:19Z</time>
      </trkpt>
      <trkpt lat="43.22686" lon="5.49935">
        <ele>274</ele>
        <time>2014-09-28T11:30:28Z</time>
      </trkpt>
      <trkpt lat="43.22691" lon="5.49947">
        <ele>274</ele>
        <time>2014-09-28T11:30:37Z</time>
      </trkpt>
      <trkpt lat="43.22694" lon="5.4996">
        <ele>274</ele>
        <time>2014-09-28T11:30:46Z</time>
      </trkpt>
      <trkpt lat="43.22698" lon="5.49973">
        <ele>274</ele>
        <time>2014-09-28T11:30:55Z</time>
      </trkpt>
      <trkpt lat="43.22706" lon="5.49987">
        <ele>274</ele>
        <time>2014-09-28T11:31:05Z</time>
      </trkpt>
      <trkpt lat="43.22712" lon="5.50001">
        <ele>274</ele>
        <time>2014-09-28T11:31:15Z</time>
      </trkpt>
      <trkpt lat="43.22718" lon="5.50015">
        <ele>274</ele>
        <time>2014-09-28T11:31:25Z</time>
      </trkpt>
      <trkpt lat="43.22724" lon="5.50029">
        <ele>274</ele>
        <time>2014-09-28T11:31:34Z</time>
      </trkpt>
      <trkpt lat="43.22731" lon="5.50042">
        <ele>274</ele>
        <time>2014-09-28T11:31:43Z</time>
      </trkpt>
      <trkpt lat="43.22737" lon="5.50055">
        <ele>274</ele>
        <time>2014-09-28T11:31:52Z</time>
      </trkpt>
      <trkpt lat="43.22744" lon="5.50066">
        <ele>274</ele>
        <time>2014-09-28T11:32:01Z</time>
      </trkpt>
      <trkpt lat="43.22749" lon="5.50079">
        <ele>274</ele>
        <time>2014-09-28T11:32:11Z</time>
      </trkpt>
      <trkpt lat="43.22755" lon="5.50091">
        <ele>274</ele>
        <time>2014-09-28T11:32:20Z</time>
      </trkpt>
      <trkpt lat="43.22761" lon="5.50105">
        <ele>274</ele>
        <time>2014-09-28T11:32:30Z</time>
      </trkpt>
      <trkpt lat="43.22766" lon="5.50119">
        <ele>274</ele>
        <time>2014-09-28T11:32:39Z</time>
      </trkpt>
      <trkpt lat="43.22769" lon="5.50134">
        <ele>273</ele>
        <time>2014-09-28T11:32:49Z</time>
      </trkpt>
      <trkpt lat="43.2277" lon="5.5015">
        <ele>271</ele>
        <time>2014-09-28T11:32:58Z</time>
      </trkpt>
      <trkpt lat="43.2277" lon="5.50164">
        <ele>270</ele>
        <time>2014-09-28T11:33:07Z</time>
      </trkpt>
      <trkpt lat="43.2277" lon="5.50178">
        <ele>269</ele>
        <time>2014-09-28T11:33:16Z</time>
      </trkpt>
      <trkpt lat="43.22769" lon="5.50193">
        <ele>269</ele>
        <time>2014-09-28T11:33:25Z</time>
      </trkpt>
      <trkpt lat="43.22769" lon="5.50207">
        <ele>268</ele>
        <time>2014-09-28T11:33:35Z</time>
      </trkpt>
      <trkpt lat="43.22766" lon="5.5022">
        <ele>267</ele>
        <time>2014-09-28T11:33:44Z</time>
      </trkpt>
      <trkpt lat="43.22766" lon="5.50234">
        <ele>266</ele>
        <time>2014-09-28T11:33:54Z</time>
      </trkpt>
      <trkpt lat="43.22762" lon="5.50246">
        <ele>265</ele>
        <time>2014-09-28T11:34:03Z</time>
      </trkpt>
      <trkpt lat="43.22759" lon="5.50256">
        <ele>262</ele>
        <time>2014-09-28T11:34:12Z</time>
      </trkpt>
      <trkpt lat="43.22758" lon="5.5027">
        <ele>258</ele>
        <time>2014-09-28T11:34:21Z</time>
      </trkpt>
      <trkpt lat="43.22757" lon="5.50284">
        <ele>258</ele>
        <time>2014-09-28T11:34:30Z</time>
      </trkpt>
      <trkpt lat="43.22754" lon="5.50298">
        <ele>258</ele>
        <time>2014-09-28T11:34:39Z</time>
      </trkpt>
      <trkpt lat="43.22752" lon="5.50312">
        <ele>258</ele>
        <time>2014-09-28T11:34:48Z</time>
      </trkpt>
      <trkpt lat="43.22749" lon="5.50324">
        <ele>258</ele>
        <time>2014-09-28T11:34:57Z</time>
      </trkpt>
      <trkpt lat="43.22747" lon="5.50338">
        <ele>256</ele>
        <time>2014-09-28T11:35:06Z</time>
      </trkpt>
      <trkpt lat="43.22746" lon="5.50351">
        <ele>255</ele>
        <time>2014-09-28T11:35:15Z</time>
      </trkpt>
      <trkpt lat="43.22746" lon="5.50361">
        <ele>253</ele>
        <time>2014-09-28T11:35:24Z</time>
      </trkpt>
      <trkpt lat="43.22747" lon="5.50364">
        <ele>252</ele>
        <time>2014-09-28T11:35:43Z</time>
      </trkpt>
      <trkpt lat="43.22752" lon="5.50377">
        <ele>252</ele>
        <time>2014-09-28T11:35:53Z</time>
      </trkpt>
      <trkpt lat="43.2276" lon="5.50386">
        <ele>252</ele>
        <time>2014-09-28T11:36:03Z</time>
      </trkpt>
      <trkpt lat="43.2276" lon="5.50385">
        <ele>252</ele>
        <time>2014-09-28T11:36:22Z</time>
      </trkpt>
    </trkseg>
  </trk>
</gpx>